Wetterdaten: Montag, 20.03.2017
Datum Zeit Temp. A. Feuchte A. Luftdruck Regen Wind Richtung Richtung Taupunkt Windben Empfang
20.03.2017 00:00 10,4 C 76 % 1006,9 hPa 0,0 l/m 10,2 km/h (2 Bft) W-SW 249 6,4 C 15,7 km/h (3 Bft) 100 %
20.03.2017 00:02 10,4 C 77 % 1006,9 hPa 0,0 l/m 19,5 km/h (3 Bft) W-SW 238 6,5 C 34,5 km/h (5 Bft) 100 %
20.03.2017 00:03 10,4 C 77 % 1006,9 hPa 0,0 l/m 7,2 km/h (2 Bft) W-NW 300 6,5 C 12,6 km/h (3 Bft) 100 %
20.03.2017 00:04 10,4 C 77 % 1006,9 hPa 0,0 l/m 8,3 km/h (2 Bft) W 279 6,5 C 15,7 km/h (3 Bft) 100 %
20.03.2017 00:05 10,4 C 77 % 1006,9 hPa 0,0 l/m 12,1 km/h (2 Bft) W-NW 302 6,5 C 18,8 km/h (3 Bft) 100 %
20.03.2017 00:06 10,4 C 77 % 1006,9 hPa 0,0 l/m 16,5 km/h (3 Bft) NW 319 6,5 C 22,0 km/h (4 Bft) 100 %
20.03.2017 00:07 10,4 C 77 % 1006,9 hPa 0,0 l/m 21,6 km/h (4 Bft) W 268 6,5 C 31,4 km/h (5 Bft) 100 %
20.03.2017 00:08 10,4 C 77 % 1006,9 hPa 0,0 l/m 19,5 km/h (3 Bft) W 271 6,5 C 40,8 km/h (6 Bft) 100 %
20.03.2017 00:09 10,4 C 77 % 1006,9 hPa 0,0 l/m 14,4 km/h (3 Bft) SO 145 6,5 C 22,0 km/h (4 Bft) 100 %
20.03.2017 00:10 10,4 C 77 % 1006,9 hPa 0,0 l/m 7,8 km/h (2 Bft) W-SW 244 6,5 C 15,7 km/h (3 Bft) 100 %
20.03.2017 00:11 10,4 C 78 % 1006,9 hPa 0,0 l/m 8,0 km/h (2 Bft) S-SW 204 6,7 C 15,7 km/h (3 Bft) 100 %
20.03.2017 00:12 10,4 C 78 % 1006,9 hPa 0,0 l/m 9,4 km/h (2 Bft) W 269 6,7 C 15,7 km/h (3 Bft) 100 %
20.03.2017 00:13 10,4 C 78 % 1006,9 hPa 0,0 l/m 12,8 km/h (3 Bft) W-NW 302 6,7 C 25,1 km/h (4 Bft) 100 %
20.03.2017 00:14 10,4 C 78 % 1006,9 hPa 0,0 l/m 6,8 km/h (2 Bft) S-SW 207 6,7 C 18,8 km/h (3 Bft) 100 %
20.03.2017 00:15 10,4 C 78 % 1006,9 hPa 0,0 l/m 13,4 km/h (3 Bft) W-SW 258 6,7 C 28,2 km/h (4 Bft) 100 %
20.03.2017 00:16 10,3 C 78 % 1006,9 hPa 0,0 l/m 6,1 km/h (2 Bft) W 270 6,6 C 9,4 km/h (2 Bft) 100 %
20.03.2017 00:17 10,3 C 78 % 1006,9 hPa 0,0 l/m 11,8 km/h (2 Bft) N-NW 333 6,6 C 31,4 km/h (5 Bft) 100 %
20.03.2017 00:18 10,3 C 78 % 1007,0 hPa 0,0 l/m 8,3 km/h (2 Bft) NW 307 6,6 C 18,8 km/h (3 Bft) 100 %
20.03.2017 00:19 10,3 C 78 % 1007,0 hPa 0,0 l/m 17,5 km/h (3 Bft) W 279 6,6 C 25,1 km/h (4 Bft) 100 %
20.03.2017 00:20 10,3 C 78 % 1007,0 hPa 0,0 l/m 9,9 km/h (2 Bft) S-SW 201 6,6 C 15,7 km/h (3 Bft) 100 %
20.03.2017 00:21 10,3 C 79 % 1007,0 hPa 0,0 l/m 6,3 km/h (2 Bft) W-SW 248 6,8 C 12,6 km/h (3 Bft) 96 %
20.03.2017 00:22 10,3 C 79 % 1007,0 hPa 0,0 l/m 9,8 km/h (2 Bft) W 260 6,8 C 22,0 km/h (4 Bft) 100 %
20.03.2017 00:23 10,3 C 79 % 1007,0 hPa 0,0 l/m 16,1 km/h (3 Bft) W-NW 296 6,8 C 31,4 km/h (5 Bft) 100 %
20.03.2017 00:24 10,3 C 79 % 1007,0 hPa 0,0 l/m 14,9 km/h (3 Bft) W-SW 243 6,8 C 25,1 km/h (4 Bft) 100 %
20.03.2017 00:25 10,3 C 79 % 1007,0 hPa 0,0 l/m 14,1 km/h (3 Bft) W-NW 288 6,8 C 22,0 km/h (4 Bft) 100 %
20.03.2017 00:26 10,3 C 79 % 1007,0 hPa 0,0 l/m 12,7 km/h (3 Bft) W 280 6,8 C 22,0 km/h (4 Bft) 100 %
20.03.2017 00:27 10,3 C 79 % 1007,0 hPa 0,0 l/m 8,6 km/h (2 Bft) S-SW 207 6,8 C 15,7 km/h (3 Bft) 100 %
20.03.2017 00:28 10,3 C 79 % 1007,0 hPa 0,0 l/m 5,2 km/h (1 Bft) S 173 6,8 C 9,4 km/h (2 Bft) 100 %
20.03.2017 00:29 10,3 C 79 % 1007,0 hPa 0,0 l/m 16,9 km/h (3 Bft) W 271 6,8 C 31,4 km/h (5 Bft) 100 %
20.03.2017 00:30 10,3 C 79 % 1007,0 hPa 0,0 l/m 9,1 km/h (2 Bft) W 265 6,8 C 18,8 km/h (3 Bft) 100 %
20.03.2017 00:31 10,3 C 79 % 1007,0 hPa 0,0 l/m 9,6 km/h (2 Bft) W-NW 289 6,8 C 12,6 km/h (3 Bft) 93 %
20.03.2017 00:32 10,3 C 79 % 1007,0 hPa 0,0 l/m 14,2 km/h (3 Bft) W-NW 297 6,8 C 22,0 km/h (4 Bft) 100 %
20.03.2017 00:33 10,3 C 80 % 1007,0 hPa 0,0 l/m 16,7 km/h (3 Bft) S 183 7,0 C 28,2 km/h (4 Bft) 95 %
20.03.2017 00:34 10,2 C 80 % 1007,0 hPa 0,0 l/m 7,7 km/h (2 Bft) S-SW 210 6,9 C 18,8 km/h (3 Bft) 100 %
20.03.2017 00:35 10,2 C 80 % 1007,0 hPa 0,0 l/m 11,0 km/h (2 Bft) W-SW 250 6,9 C 25,1 km/h (4 Bft) 96 %
20.03.2017 00:36 10,2 C 80 % 1007,0 hPa 0,0 l/m 10,2 km/h (2 Bft) W 276 6,9 C 18,8 km/h (3 Bft) 100 %
20.03.2017 00:37 10,2 C 80 % 1007,1 hPa 0,0 l/m 11,3 km/h (2 Bft) W-SW 243 6,9 C 15,7 km/h (3 Bft) 95 %
20.03.2017 00:38 10,2 C 80 % 1007,0 hPa 0,0 l/m 9,0 km/h (2 Bft) W-NW 302 6,9 C 25,1 km/h (4 Bft) 100 %
20.03.2017 00:39 10,2 C 80 % 1007,1 hPa 0,0 l/m 6,9 km/h (2 Bft) SW 226 6,9 C 18,8 km/h (3 Bft) 96 %
20.03.2017 00:40 10,2 C 81 % 1007,1 hPa 0,0 l/m 11,4 km/h (2 Bft) W 266 7,1 C 22,0 km/h (4 Bft) 100 %
20.03.2017 00:41 10,1 C 81 % 1007,0 hPa 0,0 l/m 8,9 km/h (2 Bft) W 276 7,0 C 15,7 km/h (3 Bft) 97 %
20.03.2017 00:42 10,1 C 81 % 1007,0 hPa 0,0 l/m 10,5 km/h (2 Bft) NW 309 7,0 C 22,0 km/h (4 Bft) 100 %
20.03.2017 00:43 10,1 C 81 % 1007,0 hPa 0,0 l/m 15,7 km/h (3 Bft) W-SW 249 7,0 C 31,4 km/h (5 Bft) 96 %
20.03.2017 00:44 10,1 C 82 % 1007,0 hPa 0,0 l/m 14,9 km/h (3 Bft) SW 233 7,2 C 34,5 km/h (5 Bft) 100 %
20.03.2017 00:45 10,0 C 82 % 1007,0 hPa 0,0 l/m 10,1 km/h (2 Bft) W-SW 239 7,1 C 15,7 km/h (3 Bft) 96 %
20.03.2017 00:46 9,9 C 82 % 1007,0 hPa 0,0 l/m 13,7 km/h (3 Bft) W 259 7,0 C 22,0 km/h (4 Bft) 96 %
20.03.2017 00:47 9,9 C 82 % 1007,0 hPa 0,0 l/m 16,8 km/h (3 Bft) W-SW 249 7,0 C 25,1 km/h (4 Bft) 100 %
20.03.2017 00:48 9,9 C 83 % 1007,0 hPa 0,0 l/m 13,2 km/h (3 Bft) N-NW 338 7,2 C 18,8 km/h (3 Bft) 96 %
20.03.2017 00:49 9,9 C 83 % 1007,0 hPa 0,0 l/m 10,5 km/h (2 Bft) W-NW 297 7,2 C 15,7 km/h (3 Bft) 100 %
20.03.2017 00:50 9,9 C 83 % 1007,0 hPa 0,0 l/m 9,9 km/h (2 Bft) W 262 7,2 C 15,7 km/h (3 Bft) 100 %
20.03.2017 00:51 9,8 C 83 % 1007,0 hPa 0,0 l/m 10,2 km/h (2 Bft) W 281 7,1 C 15,7 km/h (3 Bft) 100 %
20.03.2017 00:52 9,8 C 83 % 1007,0 hPa 0,0 l/m 5,5 km/h (1 Bft) W-SW 246 7,1 C 18,8 km/h (3 Bft) 100 %
20.03.2017 00:53 9,8 C 83 % 1007,0 hPa 0,0 l/m 9,9 km/h (2 Bft) S-SO 162 7,1 C 18,8 km/h (3 Bft) 100 %
20.03.2017 00:54 9,8 C 84 % 1007,0 hPa 0,0 l/m 12,2 km/h (2 Bft) SO 139 7,2 C 22,0 km/h (4 Bft) 100 %
20.03.2017 00:55 9,8 C 84 % 1007,0 hPa 0,0 l/m 18,0 km/h (3 Bft) NW 312 7,2 C 37,7 km/h (5 Bft) 100 %
20.03.2017 00:56 9,7 C 84 % 1007,0 hPa 0,0 l/m 12,9 km/h (3 Bft) S-SW 199 7,1 C 25,1 km/h (4 Bft) 100 %
20.03.2017 00:57 9,7 C 85 % 1007,1 hPa 0,0 l/m 12,2 km/h (2 Bft) S-SW 212 7,3 C 22,0 km/h (4 Bft) 100 %
20.03.2017 00:58 9,7 C 85 % 1007,0 hPa 0,0 l/m 12,6 km/h (3 Bft) W 262 7,3 C 22,0 km/h (4 Bft) 100 %
20.03.2017 00:59 9,6 C 85 % 1007,0 hPa 0,0 l/m 10,8 km/h (2 Bft) SW 218 7,2 C 25,1 km/h (4 Bft) 100 %
20.03.2017 01:00 9,6 C 85 % 1007,0 hPa 0,0 l/m 13,3 km/h (3 Bft) W 265 7,2 C 25,1 km/h (4 Bft) 100 %
20.03.2017 01:01 9,6 C 86 % 1007,1 hPa 0,0 l/m 10,4 km/h (2 Bft) W 263 7,4 C 18,8 km/h (3 Bft) 94 %
20.03.2017 01:02 9,6 C 86 % 1007,1 hPa 0,0 l/m 14,0 km/h (3 Bft) W-NW 302 7,4 C 22,0 km/h (4 Bft) 96 %
20.03.2017 01:03 9,5 C 86 % 1007,0 hPa 0,0 l/m 12,6 km/h (3 Bft) S-SW 201 7,3 C 22,0 km/h (4 Bft) 100 %
20.03.2017 01:04 9,5 C 86 % 1007,1 hPa 0,0 l/m 7,2 km/h (2 Bft) W 276 7,3 C 18,8 km/h (3 Bft) 100 %
20.03.2017 01:05 9,4 C 87 % 1007,1 hPa 0,0 l/m 5,4 km/h (1 Bft) W-SW 257 7,3 C 12,6 km/h (3 Bft) 100 %
20.03.2017 01:06 9,4 C 87 % 1007,1 hPa 0,0 l/m 7,6 km/h (2 Bft) SW 234 7,3 C 15,7 km/h (3 Bft) 100 %
20.03.2017 01:07 9,4 C 87 % 1007,0 hPa 0,0 l/m 0,5 km/h (0 Bft) SW 233 7,3 C 3,1 km/h (1 Bft) 100 %
20.03.2017 01:08 9,3 C 87 % 1007,0 hPa 0,0 l/m 5,9 km/h (2 Bft) W-NW 298 7,2 C 12,6 km/h (3 Bft) 100 %
20.03.2017 01:09 9,3 C 88 % 1007,0 hPa 0,0 l/m 9,4 km/h (2 Bft) W-SW 250 7,4 C 15,7 km/h (3 Bft) 100 %
20.03.2017 01:10 9,3 C 88 % 1007,0 hPa 0,0 l/m 8,4 km/h (2 Bft) W 259 7,4 C 15,7 km/h (3 Bft) 100 %
20.03.2017 01:11 9,2 C 88 % 1007,0 hPa 0,0 l/m 3,1 km/h (1 Bft) SW 223 7,3 C 9,4 km/h (2 Bft) 100 %
20.03.2017 01:12 9,2 C 89 % 1007,1 hPa 0,0 l/m 7,1 km/h (2 Bft) NW 320 7,5 C 15,7 km/h (3 Bft) 100 %
20.03.2017 01:13 9,1 C 89 % 1007,1 hPa 0,0 l/m 7,2 km/h (2 Bft) W 271 7,4 C 15,7 km/h (3 Bft) 100 %
20.03.2017 01:14 9,1 C 89 % 1007,1 hPa 0,0 l/m 5,8 km/h (2 Bft) W-NW 294 7,4 C 12,6 km/h (3 Bft) 100 %
20.03.2017 01:15 9,1 C 89 % 1007,0 hPa 0,0 l/m 3,3 km/h (1 Bft) NW 307 7,4 C 15,7 km/h (3 Bft) 100 %
20.03.2017 01:16 9,0 C 90 % 1007,1 hPa 0,0 l/m 4,7 km/h (1 Bft) S-SO 161 7,4 C 12,6 km/h (3 Bft) 100 %
20.03.2017 01:17 8,9 C 90 % 1007,0 hPa 0,0 l/m 7,0 km/h (2 Bft) SW 219 7,4 C 22,0 km/h (4 Bft) 99 %
20.03.2017 01:18 8,9 C 90 % 1007,0 hPa 0,0 l/m 7,6 km/h (2 Bft) N-NW 347 7,4 C 15,7 km/h (3 Bft) 100 %
20.03.2017 01:19 8,9 C 90 % 1007,0 hPa 0,0 l/m 5,8 km/h (2 Bft) W-NW 286 7,4 C 12,6 km/h (3 Bft) 100 %
20.03.2017 01:20 8,9 C 90 % 1007,1 hPa 0,0 l/m 3,3 km/h (1 Bft) W 271 7,4 C 9,4 km/h (2 Bft) 100 %
20.03.2017 01:21 8,8 C 91 % 1007,1 hPa 0,0 l/m 3,6 km/h (1 Bft) SW 227 7,4 C 15,7 km/h (3 Bft) 100 %
20.03.2017 01:22 8,8 C 91 % 1007,0 hPa 0,0 l/m 5,6 km/h (1 Bft) S-SW 208 7,4 C 15,7 km/h (3 Bft) 100 %
20.03.2017 01:23 8,8 C 91 % 1007,1 hPa 0,0 l/m 4,2 km/h (1 Bft) W-SW 237 7,4 C 9,4 km/h (2 Bft) 100 %
20.03.2017 01:24 8,8 C 91 % 1007,0 hPa 0,0 l/m 4,1 km/h (1 Bft) W-SW 252 7,4 C 9,4 km/h (2 Bft) 100 %
20.03.2017 01:25 8,8 C 91 % 1007,0 hPa 0,0 l/m 5,1 km/h (1 Bft) S 178 7,4 C 12,6 km/h (3 Bft) 100 %
20.03.2017 01:26 8,8 C 91 % 1007,0 hPa 0,0 l/m 1,2 km/h (1 Bft) S-SW 205 7,4 C 3,1 km/h (1 Bft) 100 %
20.03.2017 01:27 8,8 C 91 % 1007,1 hPa 0,0 l/m 5,2 km/h (1 Bft) NW 304 7,4 C 12,6 km/h (3 Bft) 100 %
20.03.2017 01:28 8,7 C 91 % 1007,0 hPa 0,0 l/m 7,1 km/h (2 Bft) W 266 7,3 C 15,7 km/h (3 Bft) 100 %
20.03.2017 01:29 8,7 C 91 % 1007,0 hPa 0,0 l/m 6,3 km/h (2 Bft) W-NW 294 7,3 C 18,8 km/h (3 Bft) 100 %
20.03.2017 01:30 8,7 C 92 % 1007,0 hPa 0,0 l/m 5,1 km/h (1 Bft) S 188 7,5 C 9,4 km/h (2 Bft) 100 %
20.03.2017 01:31 8,7 C 92 % 1007,0 hPa 0,0 l/m 7,7 km/h (2 Bft) S-SW 195 7,5 C 15,7 km/h (3 Bft) 100 %
20.03.2017 01:32 8,7 C 92 % 1007,0 hPa 0,0 l/m 8,2 km/h (2 Bft) S-SW 193 7,5 C 22,0 km/h (4 Bft) 100 %
20.03.2017 01:33 8,7 C 92 % 1007,1 hPa 0,0 l/m 2,2 km/h (1 Bft) W-SW 253 7,5 C 9,4 km/h (2 Bft) 100 %
20.03.2017 01:34 8,7 C 92 % 1007,0 hPa 0,0 l/m 4,7 km/h (1 Bft) W-SW 257 7,5 C 9,4 km/h (2 Bft) 100 %
20.03.2017 01:35 8,7 C 92 % 1007,0 hPa 0,0 l/m 8,1 km/h (2 Bft) W-SW 254 7,5 C 12,6 km/h (3 Bft) 100 %
20.03.2017 01:36 8,7 C 92 % 1007,0 hPa 0,0 l/m 2,7 km/h (1 Bft) W-SW 240 7,5 C 6,3 km/h (2 Bft) 100 %
20.03.2017 01:37 8,7 C 92 % 1007,1 hPa 0,0 l/m 4,8 km/h (1 Bft) W-SW 238 7,5 C 12,6 km/h (3 Bft) 100 %
20.03.2017 01:38 8,6 C 92 % 1007,1 hPa 0,0 l/m 5,8 km/h (2 Bft) SW 220 7,4 C 12,6 km/h (3 Bft) 100 %
20.03.2017 01:39 8,6 C 92 % 1007,0 hPa 0,0 l/m 2,1 km/h (1 Bft) SW 226 7,4 C 9,4 km/h (2 Bft) 100 %
20.03.2017 01:40 8,6 C 93 % 1007,1 hPa 0,0 l/m 8,1 km/h (2 Bft) NW 314 7,5 C 15,7 km/h (3 Bft) 100 %
20.03.2017 01:41 8,6 C 93 % 1007,1 hPa 0,0 l/m 2,4 km/h (1 Bft) SO 129 7,5 C 6,3 km/h (2 Bft) 100 %
20.03.2017 01:42 8,5 C 93 % 1007,1 hPa 0,0 l/m 5,2 km/h (1 Bft) SO 141 7,4 C 15,7 km/h (3 Bft) 100 %
20.03.2017 01:43 8,5 C 93 % 1007,1 hPa 0,0 l/m 4,1 km/h (1 Bft) SW 232 7,4 C 6,3 km/h (2 Bft) 100 %
20.03.2017 01:44 8,5 C 93 % 1007,0 hPa 0,0 l/m 3,7 km/h (1 Bft) SW 214 7,4 C 12,6 km/h (3 Bft) 100 %
20.03.2017 01:45 8,5 C 93 % 1007,0 hPa 0,0 l/m 9,3 km/h (2 Bft) S-SW 195 7,4 C 15,7 km/h (3 Bft) 100 %
20.03.2017 01:46 8,4 C 93 % 1007,0 hPa 0,0 l/m 2,9 km/h (1 Bft) W 276 7,3 C 12,6 km/h (3 Bft) 100 %
20.03.2017 01:47 8,4 C 93 % 1007,0 hPa 0,0 l/m 6,0 km/h (2 Bft) W 267 7,3 C 9,4 km/h (2 Bft) 100 %
20.03.2017 01:48 8,4 C 93 % 1007,0 hPa 0,0 l/m 8,2 km/h (2 Bft) W 259 7,3 C 12,6 km/h (3 Bft) 100 %
20.03.2017 01:49 8,4 C 93 % 1007,1 hPa 0,0 l/m 5,1 km/h (1 Bft) W 271 7,3 C 9,4 km/h (2 Bft) 100 %
20.03.2017 01:50 8,4 C 94 % 1007,1 hPa 0,0 l/m 3,5 km/h (1 Bft) SW 217 7,5 C 12,6 km/h (3 Bft) 100 %
20.03.2017 01:51 8,4 C 94 % 1007,0 hPa 0,0 l/m 4,1 km/h (1 Bft) W 262 7,5 C 9,4 km/h (2 Bft) 100 %
20.03.2017 01:52 8,4 C 94 % 1007,0 hPa 0,0 l/m 4,2 km/h (1 Bft) SW 224 7,5 C 9,4 km/h (2 Bft) 100 %
20.03.2017 01:53 8,4 C 94 % 1007,0 hPa 0,0 l/m 4,9 km/h (1 Bft) W 278 7,5 C 15,7 km/h (3 Bft) 96 %
20.03.2017 01:54 8,4 C 94 % 1007,0 hPa 0,0 l/m 3,6 km/h (1 Bft) W-SW 244 7,5 C 12,6 km/h (3 Bft) 100 %
20.03.2017 01:55 8,4 C 94 % 1007,0 hPa 0,0 l/m 0,8 km/h (0 Bft) W 278 7,5 C 6,3 km/h (2 Bft) 100 %
20.03.2017 01:56 8,3 C 94 % 1007,0 hPa 0,0 l/m 7,3 km/h (2 Bft) S-SW 209 7,4 C 25,1 km/h (4 Bft) 100 %
20.03.2017 01:57 8,3 C 94 % 1007,0 hPa 0,0 l/m 4,9 km/h (1 Bft) S 189 7,4 C 9,4 km/h (2 Bft) 100 %
20.03.2017 01:58 8,3 C 94 % 1007,0 hPa 0,0 l/m 4,5 km/h (1 Bft) W-NW 291 7,4 C 12,6 km/h (3 Bft) 100 %
20.03.2017 01:59 8,3 C 94 % 1007,0 hPa 0,0 l/m 2,0 km/h (1 Bft) SW 232 7,4 C 6,3 km/h (2 Bft) 96 %
20.03.2017 02:00 8,3 C 94 % 1007,0 hPa 0,0 l/m 1,8 km/h (1 Bft) NW 304 7,4 C 6,3 km/h (2 Bft) 100 %
20.03.2017 02:01 8,3 C 94 % 1007,0 hPa 0,0 l/m 10,2 km/h (2 Bft) W-NW 300 7,4 C 25,1 km/h (4 Bft) 100 %
20.03.2017 02:02 8,3 C 94 % 1007,0 hPa 0,0 l/m 12,7 km/h (3 Bft) SW 222 7,4 C 15,7 km/h (3 Bft) 96 %
20.03.2017 02:03 8,4 C 93 % 1007,1 hPa 0,0 l/m 3,9 km/h (1 Bft) W-NW 289 7,3 C 9,4 km/h (2 Bft) 96 %
20.03.2017 02:04 8,4 C 93 % 1007,0 hPa 0,0 l/m 5,6 km/h (1 Bft) W-SW 258 7,3 C 15,7 km/h (3 Bft) 100 %
20.03.2017 02:05 8,4 C 93 % 1007,0 hPa 0,0 l/m 6,3 km/h (2 Bft) W 260 7,3 C 12,6 km/h (3 Bft) 96 %
20.03.2017 02:06 8,4 C 93 % 1007,0 hPa 0,0 l/m 4,5 km/h (1 Bft) S-SO 162 7,3 C 9,4 km/h (2 Bft) 100 %
20.03.2017 02:07 8,4 C 93 % 1007,0 hPa 0,0 l/m 5,2 km/h (1 Bft) S-SW 209 7,3 C 12,6 km/h (3 Bft) 96 %
20.03.2017 02:08 8,4 C 93 % 1007,0 hPa 0,0 l/m 4,8 km/h (1 Bft) S-SW 212 7,3 C 9,4 km/h (2 Bft) 100 %
20.03.2017 02:09 8,4 C 93 % 1007,0 hPa 0,0 l/m 1,9 km/h (1 Bft) W 277 7,3 C 3,1 km/h (1 Bft) 96 %
20.03.2017 02:10 8,4 C 93 % 1007,1 hPa 0,0 l/m 3,4 km/h (1 Bft) W 263 7,3 C 6,3 km/h (2 Bft) 100 %
20.03.2017 02:11 8,4 C 93 % 1007,1 hPa 0,0 l/m 3,0 km/h (1 Bft) W-SW 247 7,3 C 6,3 km/h (2 Bft) 96 %
20.03.2017 02:12 8,4 C 93 % 1007,1 hPa 0,0 l/m 2,2 km/h (1 Bft) SW 214 7,3 C 6,3 km/h (2 Bft) 96 %
20.03.2017 02:13 8,4 C 93 % 1007,1 hPa 0,0 l/m 3,9 km/h (1 Bft) W 260 7,3 C 9,4 km/h (2 Bft) 100 %
20.03.2017 02:14 8,4 C 93 % 1007,0 hPa 0,0 l/m 7,2 km/h (2 Bft) W-SW 241 7,3 C 12,6 km/h (3 Bft) 96 %
20.03.2017 02:15 8,4 C 93 % 1007,0 hPa 0,0 l/m 3,3 km/h (1 Bft) W-SW 250 7,3 C 9,4 km/h (2 Bft) 100 %
20.03.2017 02:16 8,4 C 93 % 1007,0 hPa 0,0 l/m 5,4 km/h (1 Bft) W-NW 300 7,3 C 9,4 km/h (2 Bft) 92 %
20.03.2017 02:17 8,5 C 92 % 1007,1 hPa 0,0 l/m 7,5 km/h (2 Bft) SW 223 7,3 C 12,6 km/h (3 Bft) 100 %
20.03.2017 02:18 8,5 C 92 % 1007,1 hPa 0,0 l/m 4,6 km/h (1 Bft) W 269 7,3 C 15,7 km/h (3 Bft) 100 %
20.03.2017 02:19 8,5 C 92 % 1007,0 hPa 0,0 l/m 6,3 km/h (2 Bft) W 269 7,3 C 9,4 km/h (2 Bft) 100 %
20.03.2017 02:20 8,5 C 92 % 1007,1 hPa 0,0 l/m 9,3 km/h (2 Bft) W 268 7,3 C 15,7 km/h (3 Bft) 100 %
20.03.2017 02:21 8,5 C 92 % 1007,0 hPa 0,0 l/m 1,5 km/h (1 Bft) W-SW 238 7,3 C 6,3 km/h (2 Bft) 100 %
20.03.2017 02:22 8,5 C 92 % 1007,0 hPa 0,0 l/m 4,5 km/h (1 Bft) SW 235 7,3 C 9,4 km/h (2 Bft) 100 %
20.03.2017 02:23 8,5 C 92 % 1007,0 hPa 0,0 l/m 2,9 km/h (1 Bft) SW 231 7,3 C 9,4 km/h (2 Bft) 100 %
20.03.2017 02:24 8,5 C 92 % 1007,0 hPa 0,0 l/m 3,3 km/h (1 Bft) SW 233 7,3 C 15,7 km/h (3 Bft) 100 %
20.03.2017 02:25 8,5 C 92 % 1007,0 hPa 0,0 l/m 2,6 km/h (1 Bft) W 259 7,3 C 6,3 km/h (2 Bft) 100 %
20.03.2017 02:26 8,5 C 92 % 1007,0 hPa 0,0 l/m 1,7 km/h (1 Bft) S-SO 161 7,3 C 6,3 km/h (2 Bft) 100 %
20.03.2017 02:27 8,5 C 92 % 1006,9 hPa 0,0 l/m 3,0 km/h (1 Bft) W-NW 296 7,3 C 9,4 km/h (2 Bft) 100 %
20.03.2017 02:28 8,5 C 92 % 1006,9 hPa 0,0 l/m 7,0 km/h (2 Bft) W-NW 283 7,3 C 12,6 km/h (3 Bft) 100 %
20.03.2017 02:29 8,5 C 92 % 1007,0 hPa 0,0 l/m 7,6 km/h (2 Bft) W 271 7,3 C 9,4 km/h (2 Bft) 100 %
20.03.2017 02:30 8,5 C 92 % 1007,0 hPa 0,0 l/m 3,9 km/h (1 Bft) W-SW 248 7,3 C 6,3 km/h (2 Bft) 100 %
20.03.2017 02:31 8,6 C 92 % 1007,0 hPa 0,0 l/m 3,6 km/h (1 Bft) SW 219 7,4 C 12,6 km/h (3 Bft) 100 %
20.03.2017 02:32 8,5 C 92 % 1006,9 hPa 0,0 l/m 6,1 km/h (2 Bft) W-NW 300 7,3 C 12,6 km/h (3 Bft) 100 %
20.03.2017 02:33 8,6 C 92 % 1007,0 hPa 0,0 l/m 2,4 km/h (1 Bft) S-SW 198 7,4 C 6,3 km/h (2 Bft) 100 %
20.03.2017 02:34 8,6 C 92 % 1007,0 hPa 0,0 l/m 1,3 km/h (1 Bft) W-NW 288 7,4 C 3,1 km/h (1 Bft) 100 %
20.03.2017 02:35 8,6 C 92 % 1007,0 hPa 0,0 l/m 5,4 km/h (1 Bft) SW 230 7,4 C 12,6 km/h (3 Bft) 100 %
20.03.2017 02:36 8,6 C 92 % 1007,0 hPa 0,0 l/m 3,9 km/h (1 Bft) S-SO 156 7,4 C 9,4 km/h (2 Bft) 100 %
20.03.2017 02:37 8,6 C 92 % 1007,0 hPa 0,0 l/m 2,2 km/h (1 Bft) SW 222 7,4 C 6,3 km/h (2 Bft) 100 %
20.03.2017 02:38 8,6 C 92 % 1007,0 hPa 0,0 l/m 7,6 km/h (2 Bft) W-NW 290 7,4 C 12,6 km/h (3 Bft) 100 %
20.03.2017 02:39 8,6 C 92 % 1007,0 hPa 0,0 l/m 7,8 km/h (2 Bft) SW 230 7,4 C 9,4 km/h (2 Bft) 100 %
20.03.2017 02:40 8,6 C 92 % 1006,9 hPa 0,0 l/m 9,1 km/h (2 Bft) S 190 7,4 C 15,7 km/h (3 Bft) 100 %
20.03.2017 02:41 8,6 C 92 % 1006,9 hPa 0,0 l/m 4,7 km/h (1 Bft) W-NW 285 7,4 C 9,4 km/h (2 Bft) 100 %
20.03.2017 02:42 8,6 C 92 % 1006,9 hPa 0,0 l/m 8,5 km/h (2 Bft) W 276 7,4 C 15,7 km/h (3 Bft) 100 %
20.03.2017 02:43 8,5 C 92 % 1007,0 hPa 0,0 l/m 4,1 km/h (1 Bft) SW 224 7,3 C 15,7 km/h (3 Bft) 100 %
20.03.2017 02:44 8,5 C 92 % 1006,9 hPa 0,0 l/m 1,8 km/h (1 Bft) W-NW 292 7,3 C 6,3 km/h (2 Bft) 100 %
20.03.2017 02:45 8,5 C 92 % 1006,9 hPa 0,0 l/m 5,0 km/h (1 Bft) W-SW 257 7,3 C 12,6 km/h (3 Bft) 100 %
20.03.2017 02:46 8,5 C 93 % 1006,9 hPa 0,0 l/m 5,0 km/h (1 Bft) W 268 7,4 C 9,4 km/h (2 Bft) 100 %
20.03.2017 02:47 8,5 C 93 % 1006,9 hPa 0,0 l/m 9,8 km/h (2 Bft) SW 214 7,4 C 22,0 km/h (4 Bft) 100 %
20.03.2017 02:48 8,5 C 93 % 1007,0 hPa 0,0 l/m 6,4 km/h (2 Bft) S-SW 194 7,4 C 18,8 km/h (3 Bft) 100 %
20.03.2017 02:49 8,4 C 93 % 1006,9 hPa 0,0 l/m 5,6 km/h (1 Bft) S-SW 195 7,3 C 9,4 km/h (2 Bft) 100 %
20.03.2017 02:50 8,4 C 93 % 1006,9 hPa 0,0 l/m 6,3 km/h (2 Bft) W-SW 251 7,3 C 22,0 km/h (4 Bft) 100 %
20.03.2017 02:51 8,4 C 93 % 1006,9 hPa 0,0 l/m 7,1 km/h (2 Bft) W 259 7,3 C 12,6 km/h (3 Bft) 100 %
20.03.2017 02:52 8,4 C 93 % 1006,9 hPa 0,0 l/m 5,4 km/h (1 Bft) S-SW 207 7,3 C 15,7 km/h (3 Bft) 100 %
20.03.2017 02:53 8,4 C 93 % 1006,9 hPa 0,0 l/m 2,5 km/h (1 Bft) S-SW 212 7,3 C 6,3 km/h (2 Bft) 100 %
20.03.2017 02:54 8,4 C 93 % 1006,9 hPa 0,0 l/m 13,8 km/h (3 Bft) W-NW 300 7,3 C 25,1 km/h (4 Bft) 100 %
20.03.2017 02:55 8,4 C 93 % 1006,9 hPa 0,0 l/m 7,7 km/h (2 Bft) W 269 7,3 C 12,6 km/h (3 Bft) 100 %
20.03.2017 02:56 8,4 C 93 % 1006,9 hPa 0,0 l/m 7,8 km/h (2 Bft) W 275 7,3 C 12,6 km/h (3 Bft) 100 %
20.03.2017 02:57 8,4 C 94 % 1006,9 hPa 0,0 l/m 12,3 km/h (3 Bft) W-SW 242 7,5 C 22,0 km/h (4 Bft) 100 %
20.03.2017 02:58 8,4 C 94 % 1006,9 hPa 0,0 l/m 5,1 km/h (1 Bft) W-NW 284 7,5 C 18,8 km/h (3 Bft) 100 %
20.03.2017 02:59 8,3 C 94 % 1006,8 hPa 0,0 l/m 4,3 km/h (1 Bft) W 281 7,4 C 9,4 km/h (2 Bft) 100 %
20.03.2017 03:00 8,3 C 94 % 1006,9 hPa 0,0 l/m 2,2 km/h (1 Bft) NW 306 7,4 C 6,3 km/h (2 Bft) 100 %
20.03.2017 03:01 8,3 C 94 % 1006,9 hPa 0,0 l/m 6,7 km/h (2 Bft) O-SO 119 7,4 C 12,6 km/h (3 Bft) 100 %
20.03.2017 03:02 8,3 C 94 % 1006,9 hPa 0,0 l/m 6,1 km/h (2 Bft) NW 309 7,4 C 9,4 km/h (2 Bft) 100 %
20.03.2017 03:03 8,3 C 94 % 1006,9 hPa 0,0 l/m 5,5 km/h (1 Bft) S-SW 212 7,4 C 15,7 km/h (3 Bft) 100 %
20.03.2017 03:04 8,3 C 94 % 1006,9 hPa 0,0 l/m 5,8 km/h (2 Bft) W 266 7,4 C 12,6 km/h (3 Bft) 100 %
20.03.2017 03:05 8,3 C 94 % 1006,9 hPa 0,0 l/m 6,9 km/h (2 Bft) SW 230 7,4 C 12,6 km/h (3 Bft) 100 %
20.03.2017 03:06 8,3 C 94 % 1006,9 hPa 0,0 l/m 3,1 km/h (1 Bft) W 274 7,4 C 6,3 km/h (2 Bft) 100 %
20.03.2017 03:07 8,3 C 94 % 1006,8 hPa 0,0 l/m 7,1 km/h (2 Bft) W 260 7,4 C 15,7 km/h (3 Bft) 100 %
20.03.2017 03:08 8,3 C 94 % 1006,9 hPa 0,0 l/m 3,9 km/h (1 Bft) S-SW 202 7,4 C 15,7 km/h (3 Bft) 100 %
20.03.2017 03:09 8,3 C 94 % 1006,8 hPa 0,0 l/m 2,0 km/h (1 Bft) SW 224 7,4 C 6,3 km/h (2 Bft) 100 %
20.03.2017 03:10 8,3 C 94 % 1006,8 hPa 0,0 l/m 4,7 km/h (1 Bft) S 175 7,4 C 15,7 km/h (3 Bft) 100 %
20.03.2017 03:11 8,3 C 94 % 1006,8 hPa 0,0 l/m 3,0 km/h (1 Bft) W 273 7,4 C 9,4 km/h (2 Bft) 100 %
20.03.2017 03:12 8,3 C 94 % 1006,9 hPa 0,0 l/m 6,7 km/h (2 Bft) SW 219 7,4 C 12,6 km/h (3 Bft) 100 %
20.03.2017 03:13 8,3 C 94 % 1006,9 hPa 0,0 l/m 2,1 km/h (1 Bft) SW 221 7,4 C 15,7 km/h (3 Bft) 100 %
20.03.2017 03:14 8,2 C 94 % 1006,8 hPa 0,0 l/m 3,3 km/h (1 Bft) S 180 7,3 C 9,4 km/h (2 Bft) 100 %
20.03.2017 03:15 8,2 C 94 % 1006,8 hPa 0,0 l/m 10,0 km/h (2 Bft) W-NW 287 7,3 C 22,0 km/h (4 Bft) 100 %
20.03.2017 03:16 8,2 C 94 % 1006,8 hPa 0,0 l/m 4,2 km/h (1 Bft) S-SO 162 7,3 C 6,3 km/h (2 Bft) 100 %
20.03.2017 03:17 8,3 C 94 % 1006,8 hPa 0,0 l/m 6,6 km/h (2 Bft) W 259 7,4 C 12,6 km/h (3 Bft) 100 %
20.03.2017 03:18 8,3 C 94 % 1006,7 hPa 0,0 l/m 5,7 km/h (1 Bft) NW 310 7,4 C 15,7 km/h (3 Bft) 100 %
20.03.2017 03:19 8,3 C 94 % 1006,7 hPa 0,0 l/m 3,5 km/h (1 Bft) W-SW 258 7,4 C 9,4 km/h (2 Bft) 100 %
20.03.2017 03:20 8,2 C 94 % 1006,7 hPa 0,0 l/m 3,8 km/h (1 Bft) W-SW 237 7,3 C 6,3 km/h (2 Bft) 100 %
20.03.2017 03:21 8,2 C 94 % 1006,7 hPa 0,0 l/m 7,5 km/h (2 Bft) W 281 7,3 C 25,1 km/h (4 Bft) 100 %
20.03.2017 03:22 8,3 C 94 % 1006,7 hPa 0,0 l/m 5,1 km/h (1 Bft) N-NO 18 7,4 C 12,6 km/h (3 Bft) 100 %
20.03.2017 03:23 8,3 C 94 % 1006,7 hPa 0,0 l/m 3,8 km/h (1 Bft) NW 316 7,4 C 9,4 km/h (2 Bft) 100 %
20.03.2017 03:24 8,3 C 94 % 1006,7 hPa 0,0 l/m 4,1 km/h (1 Bft) SW 215 7,4 C 9,4 km/h (2 Bft) 100 %
20.03.2017 03:25 8,3 C 94 % 1006,7 hPa 0,0 l/m 6,7 km/h (2 Bft) S-SW 207 7,4 C 15,7 km/h (3 Bft) 100 %
20.03.2017 03:26 8,3 C 94 % 1006,6 hPa 0,0 l/m 6,7 km/h (2 Bft) S-SW 193 7,4 C 18,8 km/h (3 Bft) 100 %
20.03.2017 03:27 8,3 C 94 % 1006,6 hPa 0,0 l/m 2,9 km/h (1 Bft) W-SW 257 7,4 C 6,3 km/h (2 Bft) 100 %
20.03.2017 03:28 8,3 C 94 % 1006,6 hPa 0,0 l/m 4,6 km/h (1 Bft) W-SW 239 7,4 C 15,7 km/h (3 Bft) 97 %
20.03.2017 03:29 8,3 C 94 % 1006,6 hPa 0,0 l/m 4,9 km/h (1 Bft) SW 221 7,4 C 9,4 km/h (2 Bft) 100 %
20.03.2017 03:30 8,3 C 94 % 1006,6 hPa 0,0 l/m 7,5 km/h (2 Bft) S-SW 209 7,4 C 15,7 km/h (3 Bft) 96 %
20.03.2017 03:31 8,3 C 94 % 1006,7 hPa 0,0 l/m 3,3 km/h (1 Bft) W-SW 239 7,4 C 12,6 km/h (3 Bft) 100 %
20.03.2017 03:32 8,3 C 94 % 1006,7 hPa 0,0 l/m 4,9 km/h (1 Bft) S-SW 194 7,4 C 9,4 km/h (2 Bft) 100 %
20.03.2017 03:33 8,3 C 94 % 1006,7 hPa 0,0 l/m 2,3 km/h (1 Bft) W-SW 248 7,4 C 9,4 km/h (2 Bft) 96 %
20.03.2017 03:34 8,3 C 94 % 1006,7 hPa 0,0 l/m 2,2 km/h (1 Bft) O-SO 115 7,4 C 6,3 km/h (2 Bft) 100 %
20.03.2017 03:35 8,3 C 93 % 1006,7 hPa 0,0 l/m 7,3 km/h (2 Bft) W-NW 283 7,2 C 15,7 km/h (3 Bft) 96 %
20.03.2017 03:36 8,4 C 93 % 1006,6 hPa 0,0 l/m 5,8 km/h (2 Bft) NW 323 7,3 C 15,7 km/h (3 Bft) 97 %
20.03.2017 03:37 8,4 C 93 % 1006,7 hPa 0,0 l/m 2,7 km/h (1 Bft) W-SW 250 7,3 C 12,6 km/h (3 Bft) 100 %
20.03.2017 03:38 8,4 C 93 % 1006,6 hPa 0,0 l/m 5,0 km/h (1 Bft) W 261 7,3 C 12,6 km/h (3 Bft) 96 %
20.03.2017 03:39 8,4 C 93 % 1006,6 hPa 0,0 l/m 4,6 km/h (1 Bft) S 190 7,3 C 9,4 km/h (2 Bft) 100 %
20.03.2017 03:40 8,4 C 93 % 1006,6 hPa 0,0 l/m 6,0 km/h (2 Bft) NW 313 7,3 C 12,6 km/h (3 Bft) 96 %
20.03.2017 03:41 8,4 C 93 % 1006,7 hPa 0,0 l/m 7,2 km/h (2 Bft) SW 219 7,3 C 15,7 km/h (3 Bft) 100 %
20.03.2017 03:42 8,4 C 93 % 1006,6 hPa 0,0 l/m 5,3 km/h (1 Bft) N-NO 24 7,3 C 12,6 km/h (3 Bft) 96 %
20.03.2017 03:43 8,5 C 93 % 1006,7 hPa 0,0 l/m 6,3 km/h (2 Bft) W-NW 300 7,4 C 9,4 km/h (2 Bft) 100 %
20.03.2017 03:44 8,5 C 93 % 1006,7 hPa 0,0 l/m 4,4 km/h (1 Bft) W 264 7,4 C 9,4 km/h (2 Bft) 96 %
20.03.2017 03:45 8,5 C 93 % 1006,7 hPa 0,0 l/m 4,6 km/h (1 Bft) N-NW 328 7,4 C 12,6 km/h (3 Bft) 100 %
20.03.2017 03:46 8,5 C 93 % 1006,7 hPa 0,0 l/m 6,5 km/h (2 Bft) W-NW 290 7,4 C 12,6 km/h (3 Bft) 97 %
20.03.2017 03:47 8,5 C 93 % 1006,7 hPa 0,0 l/m 5,6 km/h (1 Bft) SW 235 7,4 C 12,6 km/h (3 Bft) 100 %
20.03.2017 03:48 8,6 C 93 % 1006,7 hPa 0,0 l/m 6,4 km/h (2 Bft) W-SW 239 7,5 C 15,7 km/h (3 Bft) 96 %
20.03.2017 03:49 8,6 C 92 % 1006,7 hPa 0,0 l/m 7,4 km/h (2 Bft) SW 227 7,4 C 12,6 km/h (3 Bft) 96 %
20.03.2017 03:50 8,6 C 92 % 1006,7 hPa 0,0 l/m 6,9 km/h (2 Bft) S-SW 200 7,4 C 12,6 km/h (3 Bft) 100 %
20.03.2017 03:51 8,6 C 92 % 1006,7 hPa 0,0 l/m 3,9 km/h (1 Bft) W 271 7,4 C 9,4 km/h (2 Bft) 100 %
20.03.2017 03:52 8,6 C 92 % 1006,7 hPa 0,0 l/m 4,2 km/h (1 Bft) NW 314 7,4 C 12,6 km/h (3 Bft) 100 %
20.03.2017 03:53 8,6 C 92 % 1006,6 hPa 0,0 l/m 5,9 km/h (2 Bft) SW 224 7,4 C 12,6 km/h (3 Bft) 100 %
20.03.2017 03:54 8,6 C 92 % 1006,7 hPa 0,0 l/m 7,8 km/h (2 Bft) W-SW 253 7,4 C 12,6 km/h (3 Bft) 100 %
20.03.2017 03:55 8,6 C 92 % 1006,7 hPa 0,0 l/m 4,2 km/h (1 Bft) W 274 7,4 C 18,8 km/h (3 Bft) 100 %
20.03.2017 03:56 8,6 C 92 % 1006,7 hPa 0,0 l/m 6,8 km/h (2 Bft) S 186 7,4 C 15,7 km/h (3 Bft) 100 %
20.03.2017 03:57 8,6 C 92 % 1006,7 hPa 0,0 l/m 6,4 km/h (2 Bft) W-NW 296 7,4 C 15,7 km/h (3 Bft) 100 %
20.03.2017 03:58 8,6 C 92 % 1006,7 hPa 0,0 l/m 4,5 km/h (1 Bft) W-SW 248 7,4 C 6,3 km/h (2 Bft) 100 %
20.03.2017 03:59 8,7 C 92 % 1006,7 hPa 0,0 l/m 7,2 km/h (2 Bft) W 269 7,5 C 12,6 km/h (3 Bft) 100 %
20.03.2017 04:00 8,7 C 92 % 1006,8 hPa 0,0 l/m 5,6 km/h (1 Bft) SW 223 7,5 C 9,4 km/h (2 Bft) 100 %
20.03.2017 04:01 8,7 C 92 % 1006,7 hPa 0,0 l/m 7,8 km/h (2 Bft) W 269 7,5 C 12,6 km/h (3 Bft) 100 %
20.03.2017 04:02 8,7 C 92 % 1006,8 hPa 0,0 l/m 6,0 km/h (2 Bft) SW 214 7,5 C 12,6 km/h (3 Bft) 100 %
20.03.2017 04:03 8,7 C 92 % 1006,8 hPa 0,0 l/m 3,1 km/h (1 Bft) SW 221 7,5 C 15,7 km/h (3 Bft) 100 %
20.03.2017 04:04 8,7 C 92 % 1006,8 hPa 0,0 l/m 3,9 km/h (1 Bft) W 269 7,5 C 15,7 km/h (3 Bft) 100 %
20.03.2017 04:05 8,7 C 92 % 1006,8 hPa 0,0 l/m 3,7 km/h (1 Bft) W 259 7,5 C 12,6 km/h (3 Bft) 100 %
20.03.2017 04:06 8,7 C 92 % 1006,7 hPa 0,0 l/m 8,6 km/h (2 Bft) W-SW 250 7,5 C 15,7 km/h (3 Bft) 100 %
20.03.2017 04:07 8,7 C 92 % 1006,8 hPa 0,0 l/m 9,7 km/h (2 Bft) S 191 7,5 C 15,7 km/h (3 Bft) 100 %
20.03.2017 04:08 8,7 C 91 % 1006,8 hPa 0,0 l/m 1,2 km/h (1 Bft) SW 221 7,3 C 6,3 km/h (2 Bft) 100 %
20.03.2017 04:09 8,7 C 91 % 1006,8 hPa 0,0 l/m 1,4 km/h (1 Bft) W-SW 252 7,3 C 3,1 km/h (1 Bft) 100 %
20.03.2017 04:10 8,7 C 91 % 1006,8 hPa 0,0 l/m 3,3 km/h (1 Bft) W-SW 238 7,3 C 9,4 km/h (2 Bft) 100 %
20.03.2017 04:11 8,7 C 91 % 1006,8 hPa 0,0 l/m 1,3 km/h (1 Bft) W-SW 247 7,3 C 6,3 km/h (2 Bft) 100 %
20.03.2017 04:12 8,7 C 91 % 1006,8 hPa 0,0 l/m 4,9 km/h (1 Bft) W-SW 243 7,3 C 9,4 km/h (2 Bft) 100 %
20.03.2017 04:13 8,8 C 91 % 1006,8 hPa 0,0 l/m 2,4 km/h (1 Bft) W-NW 293 7,4 C 9,4 km/h (2 Bft) 100 %
20.03.2017 04:14 8,8 C 91 % 1006,8 hPa 0,0 l/m 5,1 km/h (1 Bft) W 280 7,4 C 12,6 km/h (3 Bft) 100 %
20.03.2017 04:15 8,8 C 91 % 1006,9 hPa 0,0 l/m 3,6 km/h (1 Bft) SW 224 7,4 C 9,4 km/h (2 Bft) 100 %
20.03.2017 04:16 8,8 C 91 % 1006,9 hPa 0,0 l/m 5,2 km/h (1 Bft) S-SW 209 7,4 C 12,6 km/h (3 Bft) 100 %
20.03.2017 04:17 8,8 C 91 % 1006,9 hPa 0,0 l/m 5,5 km/h (1 Bft) S-SO 164 7,4 C 9,4 km/h (2 Bft) 100 %
20.03.2017 04:18 8,8 C 91 % 1006,9 hPa 0,0 l/m 2,2 km/h (1 Bft) SW 224 7,4 C 6,3 km/h (2 Bft) 100 %
20.03.2017 04:19 8,8 C 91 % 1006,9 hPa 0,0 l/m 0,3 km/h (0 Bft) W-SW 254 7,4 C 3,1 km/h (1 Bft) 100 %
20.03.2017 04:20 8,8 C 91 % 1007,0 hPa 0,0 l/m 0,8 km/h (0 Bft) S-SW 212 7,4 C 3,1 km/h (1 Bft) 100 %
20.03.2017 04:21 8,8 C 91 % 1007,0 hPa 0,0 l/m 2,1 km/h (1 Bft) S 173 7,4 C 6,3 km/h (2 Bft) 100 %
20.03.2017 04:22 8,8 C 91 % 1007,0 hPa 0,0 l/m 1,2 km/h (1 Bft) W-NW 287 7,4 C 3,1 km/h (1 Bft) 100 %
20.03.2017 04:23 8,8 C 91 % 1007,0 hPa 0,0 l/m 5,0 km/h (1 Bft) SW 217 7,4 C 9,4 km/h (2 Bft) 100 %
20.03.2017 04:24 8,8 C 91 % 1007,0 hPa 0,0 l/m 3,9 km/h (1 Bft) W-NW 300 7,4 C 12,6 km/h (3 Bft) 100 %
20.03.2017 04:25 8,8 C 91 % 1007,0 hPa 0,0 l/m 2,7 km/h (1 Bft) SW 229 7,4 C 6,3 km/h (2 Bft) 100 %
20.03.2017 04:26 8,8 C 91 % 1007,0 hPa 0,0 l/m 4,1 km/h (1 Bft) W-SW 238 7,4 C 15,7 km/h (3 Bft) 100 %
20.03.2017 04:27 8,8 C 91 % 1007,0 hPa 0,0 l/m 4,2 km/h (1 Bft) NW 308 7,4 C 6,3 km/h (2 Bft) 100 %
20.03.2017 04:28 8,8 C 91 % 1007,0 hPa 0,0 l/m 4,6 km/h (1 Bft) SW 231 7,4 C 12,6 km/h (3 Bft) 100 %
20.03.2017 04:29 8,8 C 91 % 1007,0 hPa 0,0 l/m 4,7 km/h (1 Bft) S-SW 202 7,4 C 12,6 km/h (3 Bft) 100 %
20.03.2017 04:30 8,8 C 91 % 1007,0 hPa 0,0 l/m 7,3 km/h (2 Bft) W-SW 243 7,4 C 22,0 km/h (4 Bft) 100 %
20.03.2017 04:31 8,8 C 91 % 1007,0 hPa 0,0 l/m 3,4 km/h (1 Bft) S-SW 212 7,4 C 9,4 km/h (2 Bft) 100 %
20.03.2017 04:32 8,8 C 91 % 1007,0 hPa 0,0 l/m 3,1 km/h (1 Bft) S-SW 212 7,4 C 9,4 km/h (2 Bft) 100 %
20.03.2017 04:33 8,8 C 91 % 1007,0 hPa 0,0 l/m 3,1 km/h (1 Bft) W-NW 290 7,4 C 6,3 km/h (2 Bft) 100 %
20.03.2017 04:34 8,8 C 91 % 1007,0 hPa 0,0 l/m 5,7 km/h (1 Bft) SW 233 7,4 C 12,6 km/h (3 Bft) 100 %
20.03.2017 04:35 8,8 C 91 % 1007,0 hPa 0,0 l/m 4,1 km/h (1 Bft) S-SO 168 7,4 C 15,7 km/h (3 Bft) 100 %
20.03.2017 04:36 8,8 C 91 % 1007,0 hPa 0,0 l/m 1,0 km/h (0 Bft) S-SW 196 7,4 C 3,1 km/h (1 Bft) 100 %
20.03.2017 04:37 8,8 C 91 % 1007,0 hPa 0,0 l/m 3,8 km/h (1 Bft) N 349 7,4 C 12,6 km/h (3 Bft) 100 %
20.03.2017 04:38 8,8 C 91 % 1007,0 hPa 0,0 l/m 4,2 km/h (1 Bft) SW 222 7,4 C 9,4 km/h (2 Bft) 100 %
20.03.2017 04:39 8,8 C 91 % 1007,0 hPa 0,0 l/m 3,4 km/h (1 Bft) S 188 7,4 C 6,3 km/h (2 Bft) 100 %
20.03.2017 04:40 8,8 C 91 % 1007,0 hPa 0,0 l/m 2,5 km/h (1 Bft) O-NO 77 7,4 C 6,3 km/h (2 Bft) 100 %
20.03.2017 04:41 8,8 C 91 % 1007,0 hPa 0,0 l/m 1,9 km/h (1 Bft) O-SO 108 7,4 C 3,1 km/h (1 Bft) 100 %
20.03.2017 04:42 8,8 C 91 % 1007,0 hPa 0,0 l/m 4,1 km/h (1 Bft) SW 216 7,4 C 6,3 km/h (2 Bft) 100 %
20.03.2017 04:43 8,8 C 91 % 1007,0 hPa 0,0 l/m 4,5 km/h (1 Bft) W-SW 241 7,4 C 9,4 km/h (2 Bft) 100 %
20.03.2017 04:44 8,8 C 91 % 1007,0 hPa 0,0 l/m 4,8 km/h (1 Bft) SW 222 7,4 C 12,6 km/h (3 Bft) 100 %
20.03.2017 04:45 8,8 C 90 % 1007,0 hPa 0,0 l/m 3,0 km/h (1 Bft) W-SW 244 7,3 C 9,4 km/h (2 Bft) 100 %
20.03.2017 04:47 8,8 C 90 % 1007,0 hPa 0,0 l/m 3,8 km/h (1 Bft) W-SW 240 7,3 C 12,6 km/h (3 Bft) 100 %
20.03.2017 04:48 8,9 C 90 % 1007,0 hPa 0,0 l/m 0,4 km/h (0 Bft) W-NW 302 7,4 C 3,1 km/h (1 Bft) 100 %
20.03.2017 04:49 8,9 C 90 % 1007,1 hPa 0,0 l/m 0,8 km/h (0 Bft) S 191 7,4 C 3,1 km/h (1 Bft) 100 %
20.03.2017 04:50 8,9 C 90 % 1007,0 hPa 0,0 l/m 2,3 km/h (1 Bft) S-SO 160 7,4 C 6,3 km/h (2 Bft) 100 %
20.03.2017 04:51 8,9 C 90 % 1007,0 hPa 0,0 l/m 0,6 km/h (0 Bft) W-SW 237 7,4 C 3,1 km/h (1 Bft) 100 %
20.03.2017 04:52 8,9 C 90 % 1007,1 hPa 0,0 l/m 1,3 km/h (1 Bft) S-SO 154 7,4 C 3,1 km/h (1 Bft) 100 %
20.03.2017 04:53 8,9 C 90 % 1007,1 hPa 0,0 l/m 2,9 km/h (1 Bft) W-NW 295 7,4 C 6,3 km/h (2 Bft) 100 %
20.03.2017 04:54 8,9 C 90 % 1007,1 hPa 0,0 l/m 2,3 km/h (1 Bft) W 259 7,4 C 9,4 km/h (2 Bft) 100 %
20.03.2017 04:55 8,9 C 90 % 1007,1 hPa 0,0 l/m 5,1 km/h (1 Bft) SO 140 7,4 C 9,4 km/h (2 Bft) 100 %
20.03.2017 04:56 8,9 C 90 % 1007,2 hPa 0,0 l/m 0,7 km/h (0 Bft) S-SW 207 7,4 C 3,1 km/h (1 Bft) 100 %
20.03.2017 04:57 8,9 C 90 % 1007,2 hPa 0,0 l/m 6,6 km/h (2 Bft) SW 228 7,4 C 12,6 km/h (3 Bft) 100 %
20.03.2017 04:58 8,9 C 90 % 1007,2 hPa 0,0 l/m 4,4 km/h (1 Bft) W-NW 290 7,4 C 12,6 km/h (3 Bft) 100 %
20.03.2017 04:59 8,9 C 90 % 1007,2 hPa 0,0 l/m 2,0 km/h (1 Bft) SW 229 7,4 C 6,3 km/h (2 Bft) 96 %
20.03.2017 05:00 8,9 C 90 % 1007,2 hPa 0,0 l/m 3,4 km/h (1 Bft) SW 229 7,4 C 6,3 km/h (2 Bft) 100 %
20.03.2017 05:01 8,9 C 90 % 1007,2 hPa 0,0 l/m 4,0 km/h (1 Bft) W-SW 243 7,4 C 6,3 km/h (2 Bft) 93 %
20.03.2017 05:02 8,9 C 90 % 1007,1 hPa 0,0 l/m 2,0 km/h (1 Bft) W-SW 245 7,4 C 6,3 km/h (2 Bft) 96 %
20.03.2017 05:03 8,9 C 90 % 1007,2 hPa 0,0 l/m 0,9 km/h (0 Bft) W-SW 252 7,4 C 3,1 km/h (1 Bft) 100 %
20.03.2017 05:04 8,9 C 90 % 1007,1 hPa 0,0 l/m 1,3 km/h (1 Bft) SW 226 7,4 C 6,3 km/h (2 Bft) 100 %
20.03.2017 05:05 8,9 C 90 % 1007,1 hPa 0,0 l/m 5,3 km/h (1 Bft) W-NW 302 7,4 C 12,6 km/h (3 Bft) 100 %
20.03.2017 05:06 8,9 C 90 % 1007,0 hPa 0,0 l/m 5,0 km/h (1 Bft) SW 226 7,4 C 9,4 km/h (2 Bft) 100 %
20.03.2017 05:07 8,9 C 90 % 1007,1 hPa 0,0 l/m 2,4 km/h (1 Bft) NW 310 7,4 C 3,1 km/h (1 Bft) 96 %
20.03.2017 05:08 8,9 C 90 % 1007,1 hPa 0,0 l/m 1,2 km/h (1 Bft) W-NW 286 7,4 C 3,1 km/h (1 Bft) 96 %
20.03.2017 05:09 8,9 C 90 % 1007,2 hPa 0,0 l/m 1,6 km/h (1 Bft) NW 309 7,4 C 6,3 km/h (2 Bft) 100 %
20.03.2017 05:10 8,9 C 90 % 1007,2 hPa 0,0 l/m 2,5 km/h (1 Bft) S-SW 208 7,4 C 6,3 km/h (2 Bft) 100 %
20.03.2017 05:11 8,9 C 90 % 1007,2 hPa 0,0 l/m 2,0 km/h (1 Bft) W-SW 250 7,4 C 6,3 km/h (2 Bft) 96 %
20.03.2017 05:12 8,9 C 90 % 1007,1 hPa 0,0 l/m 6,5 km/h (2 Bft) W-SW 245 7,4 C 12,6 km/h (3 Bft) 96 %
20.03.2017 05:13 8,9 C 90 % 1007,1 hPa 0,0 l/m 6,1 km/h (2 Bft) W-SW 237 7,4 C 15,7 km/h (3 Bft) 100 %
20.03.2017 05:14 8,9 C 90 % 1007,2 hPa 0,0 l/m 4,3 km/h (1 Bft) S 190 7,4 C 12,6 km/h (3 Bft) 96 %
20.03.2017 05:15 8,9 C 90 % 1007,1 hPa 0,0 l/m 3,5 km/h (1 Bft) W-NW 300 7,4 C 12,6 km/h (3 Bft) 100 %
20.03.2017 05:16 8,9 C 90 % 1007,2 hPa 0,0 l/m 1,6 km/h (1 Bft) S 188 7,4 C 6,3 km/h (2 Bft) 96 %
20.03.2017 05:17 8,9 C 90 % 1007,1 hPa 0,0 l/m 2,5 km/h (1 Bft) S 179 7,4 C 6,3 km/h (2 Bft) 100 %
20.03.2017 05:18 8,9 C 90 % 1007,1 hPa 0,0 l/m 0,8 km/h (0 Bft) NW 305 7,4 C 3,1 km/h (1 Bft) 96 %
20.03.2017 05:19 8,9 C 90 % 1007,1 hPa 0,0 l/m 3,3 km/h (1 Bft) S-SW 212 7,4 C 6,3 km/h (2 Bft) 96 %
20.03.2017 05:20 8,9 C 90 % 1007,1 hPa 0,0 l/m 2,7 km/h (1 Bft) SW 226 7,4 C 3,1 km/h (1 Bft) 100 %
20.03.2017 05:21 8,9 C 90 % 1007,1 hPa 0,0 l/m 1,4 km/h (1 Bft) S 186 7,4 C 9,4 km/h (2 Bft) 96 %
20.03.2017 05:22 8,9 C 90 % 1007,1 hPa 0,0 l/m 4,4 km/h (1 Bft) S 191 7,4 C 9,4 km/h (2 Bft) 100 %
20.03.2017 05:23 8,9 C 90 % 1007,1 hPa 0,0 l/m 1,9 km/h (1 Bft) S-SW 192 7,4 C 6,3 km/h (2 Bft) 100 %
20.03.2017 05:24 8,9 C 90 % 1007,0 hPa 0,0 l/m 4,6 km/h (1 Bft) S 188 7,4 C 9,4 km/h (2 Bft) 100 %
20.03.2017 05:25 8,9 C 90 % 1007,1 hPa 0,0 l/m 3,1 km/h (1 Bft) W 280 7,4 C 6,3 km/h (2 Bft) 100 %
20.03.2017 05:26 8,9 C 90 % 1007,1 hPa 0,0 l/m 0,2 km/h (0 Bft) S-SW 212 7,4 C 3,1 km/h (1 Bft) 100 %
20.03.2017 05:27 8,9 C 90 % 1007,1 hPa 0,0 l/m 6,5 km/h (2 Bft) S-SW 197 7,4 C 15,7 km/h (3 Bft) 100 %
20.03.2017 05:28 8,9 C 90 % 1007,0 hPa 0,0 l/m 4,2 km/h (1 Bft) SW 233 7,4 C 9,4 km/h (2 Bft) 100 %
20.03.2017 05:30 8,9 C 90 % 1007,1 hPa 0,0 l/m 2,1 km/h (1 Bft) W-SW 238 7,4 C 12,6 km/h (3 Bft) 100 %
20.03.2017 05:31 8,9 C 90 % 1007,1 hPa 0,0 l/m 3,6 km/h (1 Bft) S 171 7,4 C 12,6 km/h (3 Bft) 100 %
20.03.2017 05:32 8,9 C 90 % 1007,0 hPa 0,0 l/m 5,8 km/h (2 Bft) SW 234 7,4 C 9,4 km/h (2 Bft) 100 %
20.03.2017 05:33 8,9 C 90 % 1007,0 hPa 0,0 l/m 2,1 km/h (1 Bft) W-SW 242 7,4 C 6,3 km/h (2 Bft) 100 %
20.03.2017 05:34 8,9 C 90 % 1007,0 hPa 0,0 l/m 6,3 km/h (2 Bft) W-SW 245 7,4 C 9,4 km/h (2 Bft) 100 %
20.03.2017 05:35 8,9 C 90 % 1007,0 hPa 0,0 l/m 1,4 km/h (1 Bft) SW 217 7,4 C 6,3 km/h (2 Bft) 100 %
20.03.2017 05:36 8,9 C 90 % 1007,0 hPa 0,0 l/m 2,4 km/h (1 Bft) S-SO 161 7,4 C 9,4 km/h (2 Bft) 100 %
20.03.2017 05:37 8,9 C 90 % 1007,0 hPa 0,0 l/m 5,3 km/h (1 Bft) SW 217 7,4 C 12,6 km/h (3 Bft) 100 %
20.03.2017 05:38 8,9 C 90 % 1007,1 hPa 0,0 l/m 0,0 km/h (0 Bft) S-SW 200 7,4 C 0,0 km/h (0 Bft) 100 %
20.03.2017 05:39 9,0 C 90 % 1007,0 hPa 0,0 l/m 5,7 km/h (1 Bft) SW 219 7,4 C 9,4 km/h (2 Bft) 100 %
20.03.2017 05:40 9,0 C 90 % 1007,0 hPa 0,0 l/m 6,9 km/h (2 Bft) SW 220 7,4 C 15,7 km/h (3 Bft) 100 %
20.03.2017 05:41 9,0 C 90 % 1007,0 hPa 0,0 l/m 2,3 km/h (1 Bft) SW 214 7,4 C 3,1 km/h (1 Bft) 100 %
20.03.2017 05:42 9,0 C 90 % 1007,0 hPa 0,0 l/m 1,1 km/h (1 Bft) W-NW 288 7,4 C 3,1 km/h (1 Bft) 100 %
20.03.2017 05:43 9,0 C 90 % 1007,0 hPa 0,0 l/m 2,5 km/h (1 Bft) S 173 7,4 C 9,4 km/h (2 Bft) 100 %
20.03.2017 05:44 9,0 C 90 % 1007,0 hPa 0,0 l/m 4,9 km/h (1 Bft) W-SW 243 7,4 C 9,4 km/h (2 Bft) 100 %
20.03.2017 05:45 9,0 C 90 % 1007,0 hPa 0,0 l/m 2,5 km/h (1 Bft) W-NW 286 7,4 C 6,3 km/h (2 Bft) 100 %
20.03.2017 05:46 9,0 C 90 % 1007,0 hPa 0,0 l/m 6,8 km/h (2 Bft) W-NW 292 7,4 C 15,7 km/h (3 Bft) 100 %
20.03.2017 05:47 9,0 C 90 % 1007,0 hPa 0,0 l/m 6,1 km/h (2 Bft) S-SO 165 7,4 C 12,6 km/h (3 Bft) 100 %
20.03.2017 05:48 9,0 C 90 % 1007,0 hPa 0,0 l/m 6,1 km/h (2 Bft) W 271 7,4 C 15,7 km/h (3 Bft) 100 %
20.03.2017 05:49 9,0 C 90 % 1007,0 hPa 0,0 l/m 8,0 km/h (2 Bft) W 266 7,4 C 15,7 km/h (3 Bft) 100 %
20.03.2017 05:50 9,1 C 90 % 1006,9 hPa 0,0 l/m 5,8 km/h (2 Bft) S-SW 207 7,5 C 12,6 km/h (3 Bft) 100 %
20.03.2017 05:51 9,1 C 90 % 1006,9 hPa 0,0 l/m 4,4 km/h (1 Bft) S 190 7,5 C 9,4 km/h (2 Bft) 100 %
20.03.2017 05:52 9,0 C 89 % 1006,9 hPa 0,0 l/m 3,0 km/h (1 Bft) W-NW 285 7,3 C 12,6 km/h (3 Bft) 100 %
20.03.2017 05:53 9,1 C 90 % 1006,9 hPa 0,0 l/m 5,3 km/h (1 Bft) W-NW 302 7,5 C 12,6 km/h (3 Bft) 100 %
20.03.2017 05:54 9,0 C 90 % 1006,9 hPa 0,0 l/m 2,7 km/h (1 Bft) W 263 7,4 C 6,3 km/h (2 Bft) 100 %
20.03.2017 05:55 9,0 C 90 % 1006,9 hPa 0,0 l/m 0,8 km/h (0 Bft) S-SW 192 7,4 C 3,1 km/h (1 Bft) 100 %
20.03.2017 05:56 9,0 C 90 % 1006,9 hPa 0,0 l/m 1,9 km/h (1 Bft) S 188 7,4 C 9,4 km/h (2 Bft) 100 %
20.03.2017 05:57 9,0 C 90 % 1006,9 hPa 0,0 l/m 5,5 km/h (1 Bft) W 267 7,4 C 12,6 km/h (3 Bft) 100 %
20.03.2017 05:58 9,0 C 90 % 1006,9 hPa 0,0 l/m 3,5 km/h (1 Bft) W 262 7,4 C 6,3 km/h (2 Bft) 100 %
20.03.2017 05:59 9,0 C 90 % 1006,9 hPa 0,0 l/m 2,5 km/h (1 Bft) NW 321 7,4 C 3,1 km/h (1 Bft) 100 %
20.03.2017 06:00 9,0 C 90 % 1006,9 hPa 0,0 l/m 0,5 km/h (0 Bft) W-SW 255 7,4 C 3,1 km/h (1 Bft) 100 %
20.03.2017 06:01 9,0 C 90 % 1006,9 hPa 0,0 l/m 1,4 km/h (1 Bft) SW 236 7,4 C 3,1 km/h (1 Bft) 100 %
20.03.2017 06:02 9,0 C 90 % 1006,9 hPa 0,0 l/m 8,3 km/h (2 Bft) SW 227 7,4 C 15,7 km/h (3 Bft) 100 %
20.03.2017 06:03 9,0 C 90 % 1006,9 hPa 0,0 l/m 8,0 km/h (2 Bft) SW 224 7,4 C 12,6 km/h (3 Bft) 100 %
20.03.2017 06:04 9,0 C 90 % 1006,9 hPa 0,0 l/m 2,2 km/h (1 Bft) SW 219 7,4 C 9,4 km/h (2 Bft) 100 %
20.03.2017 06:05 9,0 C 90 % 1006,9 hPa 0,0 l/m 7,5 km/h (2 Bft) W-SW 252 7,4 C 12,6 km/h (3 Bft) 100 %
20.03.2017 06:06 9,0 C 90 % 1006,9 hPa 0,0 l/m 6,8 km/h (2 Bft) W-NW 291 7,4 C 18,8 km/h (3 Bft) 100 %
20.03.2017 06:07 9,0 C 90 % 1006,9 hPa 0,0 l/m 7,6 km/h (2 Bft) S-SW 193 7,4 C 12,6 km/h (3 Bft) 100 %
20.03.2017 06:08 9,0 C 90 % 1006,9 hPa 0,0 l/m 6,1 km/h (2 Bft) S 188 7,4 C 15,7 km/h (3 Bft) 100 %
20.03.2017 06:09 9,1 C 90 % 1006,9 hPa 0,0 l/m 3,4 km/h (1 Bft) S-SO 166 7,5 C 6,3 km/h (2 Bft) 100 %
20.03.2017 06:10 9,1 C 90 % 1006,9 hPa 0,0 l/m 3,5 km/h (1 Bft) W-SW 241 7,5 C 9,4 km/h (2 Bft) 100 %
20.03.2017 06:11 9,0 C 90 % 1006,9 hPa 0,0 l/m 1,0 km/h (0 Bft) W 274 7,4 C 6,3 km/h (2 Bft) 100 %
20.03.2017 06:12 9,0 C 90 % 1006,9 hPa 0,0 l/m 2,4 km/h (1 Bft) SW 225 7,4 C 6,3 km/h (2 Bft) 100 %
20.03.2017 06:13 9,0 C 90 % 1006,9 hPa 0,0 l/m 4,5 km/h (1 Bft) SW 232 7,4 C 12,6 km/h (3 Bft) 100 %
20.03.2017 06:14 9,1 C 90 % 1007,0 hPa 0,0 l/m 5,1 km/h (1 Bft) W 262 7,5 C 12,6 km/h (3 Bft) 100 %
20.03.2017 06:15 9,0 C 90 % 1007,0 hPa 0,0 l/m 6,7 km/h (2 Bft) W 274 7,4 C 12,6 km/h (3 Bft) 100 %
20.03.2017 06:16 9,1 C 90 % 1007,0 hPa 0,0 l/m 7,7 km/h (2 Bft) W 266 7,5 C 18,8 km/h (3 Bft) 100 %
20.03.2017 06:17 9,1 C 90 % 1007,0 hPa 0,0 l/m 8,0 km/h (2 Bft) W 264 7,5 C 15,7 km/h (3 Bft) 100 %
20.03.2017 06:18 9,1 C 90 % 1007,1 hPa 0,0 l/m 7,8 km/h (2 Bft) SW 219 7,5 C 15,7 km/h (3 Bft) 100 %
20.03.2017 06:19 9,1 C 90 % 1007,1 hPa 0,0 l/m 6,4 km/h (2 Bft) W-NW 288 7,5 C 12,6 km/h (3 Bft) 100 %
20.03.2017 06:20 9,1 C 90 % 1007,1 hPa 0,0 l/m 4,6 km/h (1 Bft) SO 127 7,5 C 6,3 km/h (2 Bft) 100 %
20.03.2017 06:21 9,1 C 90 % 1007,2 hPa 0,0 l/m 4,9 km/h (1 Bft) O-SO 113 7,5 C 12,6 km/h (3 Bft) 100 %
20.03.2017 06:22 9,1 C 90 % 1007,2 hPa 0,0 l/m 3,9 km/h (1 Bft) W-SW 250 7,5 C 9,4 km/h (2 Bft) 100 %
20.03.2017 06:23 9,0 C 90 % 1007,2 hPa 0,0 l/m 6,6 km/h (2 Bft) NW 323 7,4 C 15,7 km/h (3 Bft) 100 %
20.03.2017 06:24 9,0 C 90 % 1007,2 hPa 0,0 l/m 1,2 km/h (1 Bft) W 276 7,4 C 3,1 km/h (1 Bft) 100 %
20.03.2017 06:25 9,1 C 90 % 1007,2 hPa 0,0 l/m 5,0 km/h (1 Bft) S-SW 206 7,5 C 22,0 km/h (4 Bft) 100 %
20.03.2017 06:26 9,0 C 90 % 1007,2 hPa 0,0 l/m 9,1 km/h (2 Bft) SW 219 7,4 C 22,0 km/h (4 Bft) 100 %
20.03.2017 06:27 9,0 C 90 % 1007,2 hPa 0,0 l/m 2,8 km/h (1 Bft) NW 306 7,4 C 3,1 km/h (1 Bft) 100 %
20.03.2017 06:28 9,0 C 90 % 1007,2 hPa 0,0 l/m 1,8 km/h (1 Bft) W-SW 242 7,4 C 3,1 km/h (1 Bft) 100 %
20.03.2017 06:29 9,0 C 90 % 1007,2 hPa 0,0 l/m 1,4 km/h (1 Bft) W-NW 302 7,4 C 3,1 km/h (1 Bft) 100 %
20.03.2017 06:30 9,0 C 90 % 1007,1 hPa 0,0 l/m 9,7 km/h (2 Bft) W-SW 247 7,4 C 22,0 km/h (4 Bft) 100 %
20.03.2017 06:31 9,0 C 90 % 1007,0 hPa 0,0 l/m 2,7 km/h (1 Bft) NW 312 7,4 C 9,4 km/h (2 Bft) 100 %
20.03.2017 06:32 8,9 C 90 % 1007,0 hPa 0,0 l/m 0,0 km/h (0 Bft) W-SW 254 7,4 C 0,0 km/h (0 Bft) 97 %
20.03.2017 06:33 8,9 C 90 % 1007,0 hPa 0,0 l/m 2,1 km/h (1 Bft) W 281 7,4 C 6,3 km/h (2 Bft) 96 %
20.03.2017 06:34 8,9 C 90 % 1006,9 hPa 0,0 l/m 7,6 km/h (2 Bft) W 274 7,4 C 12,6 km/h (3 Bft) 100 %
20.03.2017 06:35 8,9 C 90 % 1006,9 hPa 0,0 l/m 5,6 km/h (1 Bft) W-SW 252 7,4 C 9,4 km/h (2 Bft) 96 %
20.03.2017 06:36 8,9 C 90 % 1007,0 hPa 0,0 l/m 5,5 km/h (1 Bft) W-SW 249 7,4 C 31,4 km/h (5 Bft) 100 %
20.03.2017 06:37 8,9 C 90 % 1007,0 hPa 0,0 l/m 5,5 km/h (1 Bft) W-NW 291 7,4 C 12,6 km/h (3 Bft) 93 %
20.03.2017 06:38 8,9 C 90 % 1007,0 hPa 0,0 l/m 10,2 km/h (2 Bft) W 260 7,4 C 18,8 km/h (3 Bft) 100 %
20.03.2017 06:39 8,9 C 90 % 1007,1 hPa 0,0 l/m 2,7 km/h (1 Bft) SW 216 7,4 C 6,3 km/h (2 Bft) 96 %
20.03.2017 06:40 8,9 C 90 % 1007,1 hPa 0,0 l/m 4,2 km/h (1 Bft) W-SW 242 7,4 C 9,4 km/h (2 Bft) 97 %
20.03.2017 06:41 8,9 C 90 % 1007,2 hPa 0,0 l/m 6,8 km/h (2 Bft) S 190 7,4 C 12,6 km/h (3 Bft) 100 %
20.03.2017 06:42 8,9 C 90 % 1007,2 hPa 0,0 l/m 5,4 km/h (1 Bft) SW 236 7,4 C 6,3 km/h (2 Bft) 98 %
20.03.2017 06:43 8,9 C 90 % 1007,2 hPa 0,0 l/m 5,0 km/h (1 Bft) SW 214 7,4 C 22,0 km/h (4 Bft) 100 %
20.03.2017 06:44 8,9 C 90 % 1007,2 hPa 0,0 l/m 10,3 km/h (2 Bft) W 262 7,4 C 25,1 km/h (4 Bft) 96 %
20.03.2017 06:45 8,9 C 90 % 1007,2 hPa 0,0 l/m 5,8 km/h (2 Bft) S 179 7,4 C 9,4 km/h (2 Bft) 100 %
20.03.2017 06:46 8,9 C 90 % 1007,2 hPa 0,0 l/m 3,3 km/h (1 Bft) S-SW 200 7,4 C 6,3 km/h (2 Bft) 96 %
20.03.2017 06:47 8,9 C 90 % 1007,2 hPa 0,0 l/m 4,6 km/h (1 Bft) NW 309 7,4 C 12,6 km/h (3 Bft) 96 %
20.03.2017 06:48 8,9 C 90 % 1007,3 hPa 0,0 l/m 5,1 km/h (1 Bft) W 278 7,4 C 12,6 km/h (3 Bft) 100 %
20.03.2017 06:49 8,9 C 90 % 1007,3 hPa 0,0 l/m 2,7 km/h (1 Bft) W-SW 240 7,4 C 9,4 km/h (2 Bft) 100 %
20.03.2017 06:50 8,9 C 90 % 1007,3 hPa 0,0 l/m 9,8 km/h (2 Bft) SW 217 7,4 C 25,1 km/h (4 Bft) 100 %
20.03.2017 06:51 8,9 C 90 % 1007,3 hPa 0,0 l/m 4,0 km/h (1 Bft) SW 228 7,4 C 15,7 km/h (3 Bft) 100 %
20.03.2017 06:52 8,9 C 90 % 1007,3 hPa 0,0 l/m 4,1 km/h (1 Bft) W 277 7,4 C 9,4 km/h (2 Bft) 100 %
20.03.2017 06:53 8,9 C 91 % 1007,3 hPa 0,0 l/m 5,5 km/h (1 Bft) SO 135 7,5 C 12,6 km/h (3 Bft) 100 %
20.03.2017 06:54 8,9 C 91 % 1007,3 hPa 0,0 l/m 5,8 km/h (2 Bft) W-NW 283 7,5 C 12,6 km/h (3 Bft) 100 %
20.03.2017 06:55 8,9 C 91 % 1007,2 hPa 0,0 l/m 3,7 km/h (1 Bft) S-SW 212 7,5 C 9,4 km/h (2 Bft) 100 %
20.03.2017 06:56 8,9 C 91 % 1007,3 hPa 0,0 l/m 2,0 km/h (1 Bft) W-NW 303 7,5 C 6,3 km/h (2 Bft) 100 %
20.03.2017 06:57 8,9 C 91 % 1007,3 hPa 0,0 l/m 0,2 km/h (0 Bft) SW 222 7,5 C 3,1 km/h (1 Bft) 100 %
20.03.2017 06:58 8,9 C 91 % 1007,3 hPa 0,0 l/m 2,6 km/h (1 Bft) SW 226 7,5 C 9,4 km/h (2 Bft) 100 %
20.03.2017 06:59 8,9 C 91 % 1007,3 hPa 0,0 l/m 5,5 km/h (1 Bft) S-SW 195 7,5 C 12,6 km/h (3 Bft) 100 %
20.03.2017 07:00 8,9 C 91 % 1007,3 hPa 0,0 l/m 8,2 km/h (2 Bft) S 189 7,5 C 15,7 km/h (3 Bft) 100 %
20.03.2017 07:01 8,9 C 91 % 1007,3 hPa 0,0 l/m 4,0 km/h (1 Bft) W 265 7,5 C 6,3 km/h (2 Bft) 100 %
20.03.2017 07:02 8,9 C 91 % 1007,3 hPa 0,0 l/m 7,7 km/h (2 Bft) W-NW 283 7,5 C 15,7 km/h (3 Bft) 100 %
20.03.2017 07:03 8,9 C 91 % 1007,3 hPa 0,0 l/m 6,8 km/h (2 Bft) W 265 7,5 C 12,6 km/h (3 Bft) 100 %
20.03.2017 07:04 8,9 C 91 % 1007,4 hPa 0,0 l/m 6,1 km/h (2 Bft) NW 326 7,5 C 12,6 km/h (3 Bft) 100 %
20.03.2017 07:05 8,9 C 91 % 1007,4 hPa 0,0 l/m 2,9 km/h (1 Bft) W-NW 295 7,5 C 6,3 km/h (2 Bft) 100 %
20.03.2017 07:06 8,9 C 91 % 1007,4 hPa 0,0 l/m 10,2 km/h (2 Bft) W-NW 300 7,5 C 18,8 km/h (3 Bft) 100 %
20.03.2017 07:07 8,9 C 91 % 1007,4 hPa 0,0 l/m 7,0 km/h (2 Bft) N-NW 334 7,5 C 9,4 km/h (2 Bft) 100 %
20.03.2017 07:08 8,9 C 91 % 1007,4 hPa 0,0 l/m 2,2 km/h (1 Bft) W-SW 250 7,5 C 6,3 km/h (2 Bft) 100 %
20.03.2017 07:09 8,9 C 91 % 1007,4 hPa 0,0 l/m 0,5 km/h (0 Bft) NW 308 7,5 C 3,1 km/h (1 Bft) 100 %
20.03.2017 07:10 8,9 C 91 % 1007,4 hPa 0,0 l/m 6,5 km/h (2 Bft) SW 231 7,5 C 18,8 km/h (3 Bft) 100 %
20.03.2017 07:11 8,9 C 91 % 1007,4 hPa 0,0 l/m 2,5 km/h (1 Bft) W 266 7,5 C 9,4 km/h (2 Bft) 100 %
20.03.2017 07:12 8,9 C 91 % 1007,4 hPa 0,0 l/m 3,3 km/h (1 Bft) W 275 7,5 C 6,3 km/h (2 Bft) 100 %
20.03.2017 07:13 8,9 C 91 % 1007,4 hPa 0,0 l/m 4,1 km/h (1 Bft) W-SW 240 7,5 C 6,3 km/h (2 Bft) 100 %
20.03.2017 07:14 8,9 C 91 % 1007,4 hPa 0,0 l/m 7,8 km/h (2 Bft) SW 232 7,5 C 22,0 km/h (4 Bft) 100 %
20.03.2017 07:15 8,9 C 91 % 1007,5 hPa 0,0 l/m 5,2 km/h (1 Bft) S 191 7,5 C 12,6 km/h (3 Bft) 100 %
20.03.2017 07:16 8,9 C 90 % 1007,4 hPa 0,0 l/m 5,2 km/h (1 Bft) N-NO 21 7,4 C 12,6 km/h (3 Bft) 100 %
20.03.2017 07:17 8,9 C 90 % 1007,4 hPa 0,0 l/m 2,0 km/h (1 Bft) W-NW 284 7,4 C 6,3 km/h (2 Bft) 100 %
20.03.2017 07:18 8,9 C 91 % 1007,4 hPa 0,0 l/m 0,3 km/h (0 Bft) S-SW 200 7,5 C 3,1 km/h (1 Bft) 100 %
20.03.2017 07:19 8,9 C 91 % 1007,4 hPa 0,0 l/m 4,0 km/h (1 Bft) W 276 7,5 C 12,6 km/h (3 Bft) 100 %
20.03.2017 07:20 8,9 C 90 % 1007,4 hPa 0,0 l/m 4,9 km/h (1 Bft) W-NW 300 7,4 C 12,6 km/h (3 Bft) 100 %
20.03.2017 07:21 8,9 C 90 % 1007,4 hPa 0,0 l/m 6,3 km/h (2 Bft) N-NW 335 7,4 C 12,6 km/h (3 Bft) 100 %
20.03.2017 07:22 8,9 C 90 % 1007,3 hPa 0,0 l/m 1,4 km/h (1 Bft) W-NW 294 7,4 C 3,1 km/h (1 Bft) 100 %
20.03.2017 07:23 8,9 C 90 % 1007,4 hPa 0,0 l/m 0,9 km/h (0 Bft) SW 232 7,4 C 6,3 km/h (2 Bft) 100 %
20.03.2017 07:24 8,9 C 90 % 1007,4 hPa 0,0 l/m 7,5 km/h (2 Bft) S-SW 194 7,4 C 12,6 km/h (3 Bft) 100 %
20.03.2017 07:25 8,9 C 90 % 1007,4 hPa 0,0 l/m 6,7 km/h (2 Bft) S-SW 207 7,4 C 12,6 km/h (3 Bft) 100 %
20.03.2017 07:26 8,9 C 90 % 1007,4 hPa 0,0 l/m 6,5 km/h (2 Bft) NW 321 7,4 C 12,6 km/h (3 Bft) 100 %
20.03.2017 07:27 8,9 C 90 % 1007,4 hPa 0,0 l/m 8,9 km/h (2 Bft) S-SW 207 7,4 C 18,8 km/h (3 Bft) 100 %
20.03.2017 07:28 8,9 C 90 % 1007,4 hPa 0,0 l/m 6,8 km/h (2 Bft) S-SW 211 7,4 C 18,8 km/h (3 Bft) 100 %
20.03.2017 07:29 8,9 C 90 % 1007,4 hPa 0,0 l/m 5,6 km/h (1 Bft) W 278 7,4 C 12,6 km/h (3 Bft) 100 %
20.03.2017 07:30 8,9 C 90 % 1007,3 hPa 0,0 l/m 3,3 km/h (1 Bft) S-SW 195 7,4 C 6,3 km/h (2 Bft) 100 %
20.03.2017 07:31 8,9 C 90 % 1007,3 hPa 0,0 l/m 4,6 km/h (1 Bft) S-SW 210 7,4 C 12,6 km/h (3 Bft) 100 %
20.03.2017 07:32 8,9 C 90 % 1007,3 hPa 0,0 l/m 6,3 km/h (2 Bft) SW 232 7,4 C 12,6 km/h (3 Bft) 100 %
20.03.2017 07:33 8,9 C 90 % 1007,3 hPa 0,0 l/m 2,2 km/h (1 Bft) W-SW 256 7,4 C 9,4 km/h (2 Bft) 100 %
20.03.2017 07:34 8,9 C 90 % 1007,3 hPa 0,0 l/m 2,4 km/h (1 Bft) SW 229 7,4 C 6,3 km/h (2 Bft) 100 %
20.03.2017 07:35 8,9 C 90 % 1007,3 hPa 0,0 l/m 6,3 km/h (2 Bft) W-NW 302 7,4 C 18,8 km/h (3 Bft) 100 %
20.03.2017 07:36 8,9 C 90 % 1007,3 hPa 0,0 l/m 7,4 km/h (2 Bft) W-SW 246 7,4 C 15,7 km/h (3 Bft) 100 %
20.03.2017 07:37 8,9 C 90 % 1007,3 hPa 0,0 l/m 9,1 km/h (2 Bft) NW 316 7,4 C 15,7 km/h (3 Bft) 100 %
20.03.2017 07:38 8,9 C 90 % 1007,2 hPa 0,0 l/m 5,6 km/h (1 Bft) W-SW 248 7,4 C 9,4 km/h (2 Bft) 100 %
20.03.2017 07:39 8,9 C 90 % 1007,2 hPa 0,0 l/m 3,7 km/h (1 Bft) W-NW 301 7,4 C 6,3 km/h (2 Bft) 100 %
20.03.2017 07:40 9,0 C 90 % 1007,2 hPa 0,0 l/m 6,1 km/h (2 Bft) SW 216 7,4 C 12,6 km/h (3 Bft) 100 %
20.03.2017 07:41 9,0 C 90 % 1007,2 hPa 0,0 l/m 6,4 km/h (2 Bft) S-SO 151 7,4 C 12,6 km/h (3 Bft) 100 %
20.03.2017 07:42 9,0 C 90 % 1007,2 hPa 0,0 l/m 8,8 km/h (2 Bft) W-NW 296 7,4 C 12,6 km/h (3 Bft) 100 %
20.03.2017 07:43 9,0 C 90 % 1007,1 hPa 0,0 l/m 7,9 km/h (2 Bft) S 173 7,4 C 28,2 km/h (4 Bft) 100 %
20.03.2017 07:44 9,0 C 90 % 1007,1 hPa 0,0 l/m 2,5 km/h (1 Bft) NW 316 7,4 C 6,3 km/h (2 Bft) 100 %
20.03.2017 07:45 9,1 C 90 % 1007,0 hPa 0,0 l/m 2,0 km/h (1 Bft) SW 236 7,5 C 6,3 km/h (2 Bft) 100 %
20.03.2017 07:46 9,1 C 90 % 1007,0 hPa 0,0 l/m 3,0 km/h (1 Bft) N-NW 331 7,5 C 15,7 km/h (3 Bft) 100 %
20.03.2017 07:47 9,1 C 90 % 1007,1 hPa 0,0 l/m 6,6 km/h (2 Bft) SW 220 7,5 C 15,7 km/h (3 Bft) 100 %
20.03.2017 07:48 9,1 C 90 % 1007,1 hPa 0,0 l/m 1,4 km/h (1 Bft) O-NO 64 7,5 C 6,3 km/h (2 Bft) 100 %
20.03.2017 07:49 9,1 C 90 % 1007,1 hPa 0,0 l/m 6,5 km/h (2 Bft) SW 220 7,5 C 12,6 km/h (3 Bft) 100 %
20.03.2017 07:50 9,1 C 90 % 1007,1 hPa 0,0 l/m 3,6 km/h (1 Bft) O-SO 110 7,5 C 9,4 km/h (2 Bft) 100 %
20.03.2017 07:51 9,1 C 90 % 1007,1 hPa 0,0 l/m 4,8 km/h (1 Bft) SW 233 7,5 C 12,6 km/h (3 Bft) 100 %
20.03.2017 07:52 9,1 C 90 % 1007,1 hPa 0,0 l/m 7,8 km/h (2 Bft) NO 51 7,5 C 12,6 km/h (3 Bft) 100 %
20.03.2017 07:53 9,1 C 90 % 1007,1 hPa 0,0 l/m 5,2 km/h (1 Bft) W 281 7,5 C 12,6 km/h (3 Bft) 100 %
20.03.2017 07:54 9,2 C 89 % 1007,1 hPa 0,0 l/m 8,0 km/h (2 Bft) SW 232 7,5 C 15,7 km/h (3 Bft) 100 %
20.03.2017 07:55 9,2 C 89 % 1007,1 hPa 0,0 l/m 6,8 km/h (2 Bft) SW 225 7,5 C 12,6 km/h (3 Bft) 100 %
20.03.2017 07:56 9,2 C 89 % 1007,1 hPa 0,0 l/m 13,2 km/h (3 Bft) SW 216 7,5 C 25,1 km/h (4 Bft) 100 %
20.03.2017 07:57 9,2 C 89 % 1007,0 hPa 0,0 l/m 9,7 km/h (2 Bft) W-SW 258 7,5 C 18,8 km/h (3 Bft) 100 %
20.03.2017 07:58 9,2 C 89 % 1007,1 hPa 0,0 l/m 6,4 km/h (2 Bft) W 268 7,5 C 12,6 km/h (3 Bft) 96 %
20.03.2017 07:59 9,2 C 89 % 1007,1 hPa 0,0 l/m 3,4 km/h (1 Bft) W-NW 297 7,5 C 12,6 km/h (3 Bft) 96 %
20.03.2017 08:00 9,2 C 89 % 1007,2 hPa 0,0 l/m 5,1 km/h (1 Bft) W 264 7,5 C 9,4 km/h (2 Bft) 100 %
20.03.2017 08:01 9,3 C 89 % 1007,2 hPa 0,0 l/m 8,1 km/h (2 Bft) W 259 7,6 C 18,8 km/h (3 Bft) 97 %
20.03.2017 08:02 9,3 C 89 % 1007,2 hPa 0,0 l/m 13,5 km/h (3 Bft) S-SW 212 7,6 C 22,0 km/h (4 Bft) 100 %
20.03.2017 08:03 9,3 C 89 % 1007,2 hPa 0,0 l/m 8,3 km/h (2 Bft) SO 146 7,6 C 15,7 km/h (3 Bft) 97 %
20.03.2017 08:04 9,3 C 89 % 1007,2 hPa 0,0 l/m 7,4 km/h (2 Bft) NW 306 7,6 C 15,7 km/h (3 Bft) 96 %
20.03.2017 08:05 9,3 C 89 % 1007,2 hPa 0,0 l/m 8,2 km/h (2 Bft) SW 233 7,6 C 15,7 km/h (3 Bft) 100 %
20.03.2017 08:06 9,3 C 89 % 1007,1 hPa 0,0 l/m 5,7 km/h (1 Bft) NW 305 7,6 C 12,6 km/h (3 Bft) 100 %
20.03.2017 08:07 9,3 C 89 % 1007,1 hPa 0,0 l/m 6,1 km/h (2 Bft) W-SW 255 7,6 C 12,6 km/h (3 Bft) 96 %
20.03.2017 08:08 9,3 C 89 % 1007,2 hPa 0,0 l/m 3,6 km/h (1 Bft) SW 231 7,6 C 6,3 km/h (2 Bft) 96 %
20.03.2017 08:09 9,3 C 89 % 1007,2 hPa 0,0 l/m 1,5 km/h (1 Bft) S 181 7,6 C 12,6 km/h (3 Bft) 100 %
20.03.2017 08:10 9,3 C 89 % 1007,2 hPa 0,0 l/m 7,5 km/h (2 Bft) SW 236 7,6 C 22,0 km/h (4 Bft) 97 %
20.03.2017 08:11 9,3 C 89 % 1007,3 hPa 0,0 l/m 5,1 km/h (1 Bft) SW 223 7,6 C 9,4 km/h (2 Bft) 96 %
20.03.2017 08:12 9,3 C 89 % 1007,2 hPa 0,0 l/m 6,8 km/h (2 Bft) SW 229 7,6 C 22,0 km/h (4 Bft) 100 %
20.03.2017 08:13 9,3 C 89 % 1007,3 hPa 0,0 l/m 7,2 km/h (2 Bft) S-SW 210 7,6 C 18,8 km/h (3 Bft) 100 %
20.03.2017 08:14 9,3 C 89 % 1007,3 hPa 0,0 l/m 10,9 km/h (2 Bft) SW 229 7,6 C 18,8 km/h (3 Bft) 96 %
20.03.2017 08:15 9,3 C 89 % 1007,3 hPa 0,0 l/m 5,9 km/h (2 Bft) SW 217 7,6 C 12,6 km/h (3 Bft) 100 %
20.03.2017 08:16 9,3 C 89 % 1007,3 hPa 0,0 l/m 6,7 km/h (2 Bft) SW 214 7,6 C 12,6 km/h (3 Bft) 100 %
20.03.2017 08:17 9,3 C 89 % 1007,4 hPa 0,0 l/m 9,3 km/h (2 Bft) NW 311 7,6 C 18,8 km/h (3 Bft) 100 %
20.03.2017 08:18 9,3 C 89 % 1007,4 hPa 0,0 l/m 5,9 km/h (2 Bft) S-SW 208 7,6 C 12,6 km/h (3 Bft) 100 %
20.03.2017 08:19 9,3 C 89 % 1007,4 hPa 0,0 l/m 7,5 km/h (2 Bft) S 184 7,6 C 22,0 km/h (4 Bft) 100 %
20.03.2017 08:20 9,3 C 89 % 1007,4 hPa 0,0 l/m 6,4 km/h (2 Bft) S 181 7,6 C 12,6 km/h (3 Bft) 100 %
20.03.2017 08:21 9,3 C 89 % 1007,5 hPa 0,0 l/m 8,6 km/h (2 Bft) SO 127 7,6 C 15,7 km/h (3 Bft) 100 %
20.03.2017 08:22 9,3 C 89 % 1007,5 hPa 0,0 l/m 4,1 km/h (1 Bft) SW 233 7,6 C 9,4 km/h (2 Bft) 99 %
20.03.2017 08:23 9,3 C 89 % 1007,5 hPa 0,0 l/m 5,5 km/h (1 Bft) SW 231 7,6 C 9,4 km/h (2 Bft) 100 %
20.03.2017 08:24 9,3 C 89 % 1007,5 hPa 0,0 l/m 6,9 km/h (2 Bft) W 273 7,6 C 12,6 km/h (3 Bft) 100 %
20.03.2017 08:25 9,3 C 89 % 1007,4 hPa 0,0 l/m 6,9 km/h (2 Bft) S 187 7,6 C 12,6 km/h (3 Bft) 100 %
20.03.2017 08:26 9,3 C 89 % 1007,5 hPa 0,0 l/m 4,4 km/h (1 Bft) NW 312 7,6 C 9,4 km/h (2 Bft) 100 %
20.03.2017 08:27 9,3 C 89 % 1007,4 hPa 0,0 l/m 7,8 km/h (2 Bft) W-SW 257 7,6 C 15,7 km/h (3 Bft) 100 %
20.03.2017 08:28 9,3 C 89 % 1007,4 hPa 0,0 l/m 10,9 km/h (2 Bft) SW 219 7,6 C 15,7 km/h (3 Bft) 100 %
20.03.2017 08:29 9,3 C 89 % 1007,4 hPa 0,0 l/m 5,9 km/h (2 Bft) W-NW 293 7,6 C 9,4 km/h (2 Bft) 100 %
20.03.2017 08:30 9,3 C 89 % 1007,5 hPa 0,0 l/m 2,5 km/h (1 Bft) W-NW 286 7,6 C 9,4 km/h (2 Bft) 100 %
20.03.2017 08:31 9,3 C 89 % 1007,5 hPa 0,0 l/m 1,3 km/h (1 Bft) S-SO 152 7,6 C 3,1 km/h (1 Bft) 100 %
20.03.2017 08:32 9,3 C 89 % 1007,4 hPa 0,0 l/m 1,7 km/h (1 Bft) S-SO 155 7,6 C 6,3 km/h (2 Bft) 100 %
20.03.2017 08:33 9,3 C 89 % 1007,5 hPa 0,0 l/m 5,9 km/h (2 Bft) SW 221 7,6 C 18,8 km/h (3 Bft) 100 %
20.03.2017 08:34 9,3 C 89 % 1007,5 hPa 0,0 l/m 1,1 km/h (1 Bft) S 191 7,6 C 6,3 km/h (2 Bft) 100 %
20.03.2017 08:35 9,4 C 89 % 1007,5 hPa 0,0 l/m 7,1 km/h (2 Bft) W-NW 283 7,7 C 12,6 km/h (3 Bft) 100 %
20.03.2017 08:36 9,4 C 89 % 1007,5 hPa 0,0 l/m 7,8 km/h (2 Bft) W 271 7,7 C 12,6 km/h (3 Bft) 100 %
20.03.2017 08:37 9,4 C 89 % 1007,5 hPa 0,0 l/m 2,0 km/h (1 Bft) W-SW 247 7,7 C 6,3 km/h (2 Bft) 100 %
20.03.2017 08:38 9,4 C 89 % 1007,5 hPa 0,0 l/m 4,2 km/h (1 Bft) S-SW 207 7,7 C 12,6 km/h (3 Bft) 100 %
20.03.2017 08:39 9,4 C 89 % 1007,5 hPa 0,0 l/m 3,1 km/h (1 Bft) W 276 7,7 C 6,3 km/h (2 Bft) 100 %
20.03.2017 08:40 9,4 C 89 % 1007,5 hPa 0,0 l/m 4,1 km/h (1 Bft) W 281 7,7 C 9,4 km/h (2 Bft) 100 %
20.03.2017 08:41 9,4 C 89 % 1007,5 hPa 0,0 l/m 4,0 km/h (1 Bft) S 181 7,7 C 9,4 km/h (2 Bft) 100 %
20.03.2017 08:42 9,4 C 89 % 1007,5 hPa 0,0 l/m 6,9 km/h (2 Bft) SW 226 7,7 C 12,6 km/h (3 Bft) 100 %
20.03.2017 08:43 9,4 C 89 % 1007,5 hPa 0,0 l/m 8,1 km/h (2 Bft) W-SW 249 7,7 C 12,6 km/h (3 Bft) 100 %
20.03.2017 08:44 9,4 C 89 % 1007,5 hPa 0,0 l/m 2,1 km/h (1 Bft) NW 318 7,7 C 9,4 km/h (2 Bft) 100 %
20.03.2017 08:45 9,4 C 89 % 1007,5 hPa 0,0 l/m 5,3 km/h (1 Bft) S-SW 206 7,7 C 12,6 km/h (3 Bft) 100 %
20.03.2017 08:46 9,4 C 89 % 1007,5 hPa 0,0 l/m 3,1 km/h (1 Bft) SW 224 7,7 C 12,6 km/h (3 Bft) 100 %
20.03.2017 08:47 9,4 C 89 % 1007,5 hPa 0,0 l/m 5,5 km/h (1 Bft) SW 234 7,7 C 12,6 km/h (3 Bft) 100 %
20.03.2017 08:54 9,5 C 88 % 1007,4 hPa 0,0 l/m 8,2 km/h (2 Bft) SW 217 7,6 C 12,6 km/h (3 Bft) 100 %
20.03.2017 08:56 9,5 C 88 % 1007,4 hPa 0,0 l/m 3,3 km/h (1 Bft) SW 223 7,6 C 9,4 km/h (2 Bft) 100 %
20.03.2017 08:59 9,6 C 88 % 1007,4 hPa 0,0 l/m 5,7 km/h (1 Bft) SW 221 7,7 C 9,4 km/h (2 Bft) 100 %
20.03.2017 09:00 9,6 C 88 % 1007,3 hPa 0,0 l/m 3,0 km/h (1 Bft) S-SW 200 7,7 C 9,4 km/h (2 Bft) 100 %
20.03.2017 09:01 9,6 C 88 % 1007,3 hPa 0,0 l/m 6,1 km/h (2 Bft) SO 143 7,7 C 12,6 km/h (3 Bft) 100 %
20.03.2017 09:02 9,6 C 88 % 1007,3 hPa 0,0 l/m 7,5 km/h (2 Bft) NW 316 7,7 C 15,7 km/h (3 Bft) 100 %
20.03.2017 09:03 9,6 C 88 % 1007,3 hPa 0,0 l/m 3,4 km/h (1 Bft) SW 219 7,7 C 6,3 km/h (2 Bft) 100 %
20.03.2017 09:04 9,6 C 88 % 1007,3 hPa 0,0 l/m 6,7 km/h (2 Bft) SW 233 7,7 C 15,7 km/h (3 Bft) 100 %
20.03.2017 09:05 9,7 C 88 % 1007,3 hPa 0,0 l/m 6,6 km/h (2 Bft) NW 313 7,8 C 12,6 km/h (3 Bft) 100 %
20.03.2017 09:06 9,7 C 88 % 1007,3 hPa 0,0 l/m 4,7 km/h (1 Bft) O 95 7,8 C 12,6 km/h (3 Bft) 100 %
20.03.2017 09:07 9,7 C 88 % 1007,3 hPa 0,0 l/m 3,4 km/h (1 Bft) S-SO 168 7,8 C 12,6 km/h (3 Bft) 100 %
20.03.2017 09:08 9,7 C 87 % 1007,3 hPa 0,0 l/m 3,9 km/h (1 Bft) W-SW 255 7,6 C 12,6 km/h (3 Bft) 100 %
20.03.2017 09:09 9,8 C 88 % 1007,3 hPa 0,0 l/m 6,1 km/h (2 Bft) S-SW 200 7,9 C 12,6 km/h (3 Bft) 100 %
20.03.2017 09:10 9,8 C 87 % 1007,3 hPa 0,0 l/m 4,4 km/h (1 Bft) W 271 7,7 C 9,4 km/h (2 Bft) 100 %
20.03.2017 09:11 9,8 C 87 % 1007,3 hPa 0,0 l/m 12,6 km/h (3 Bft) W-SW 245 7,7 C 25,1 km/h (4 Bft) 100 %
20.03.2017 09:12 9,8 C 87 % 1007,3 hPa 0,0 l/m 8,0 km/h (2 Bft) W-SW 240 7,7 C 18,8 km/h (3 Bft) 100 %
20.03.2017 09:13 9,8 C 87 % 1007,3 hPa 0,0 l/m 4,7 km/h (1 Bft) NW 308 7,7 C 12,6 km/h (3 Bft) 100 %
20.03.2017 09:14 9,8 C 87 % 1007,3 hPa 0,0 l/m 13,6 km/h (3 Bft) N 358 7,7 C 31,4 km/h (5 Bft) 100 %
20.03.2017 09:15 9,8 C 87 % 1007,4 hPa 0,0 l/m 7,8 km/h (2 Bft) W-SW 258 7,7 C 18,8 km/h (3 Bft) 100 %
20.03.2017 09:16 9,8 C 87 % 1007,5 hPa 0,0 l/m 12,7 km/h (3 Bft) S-SW 203 7,7 C 22,0 km/h (4 Bft) 96 %
20.03.2017 09:17 9,8 C 87 % 1007,5 hPa 0,0 l/m 9,4 km/h (2 Bft) W 259 7,7 C 18,8 km/h (3 Bft) 97 %
20.03.2017 09:18 9,8 C 87 % 1007,4 hPa 0,0 l/m 5,0 km/h (1 Bft) NW 315 7,7 C 9,4 km/h (2 Bft) 100 %
20.03.2017 09:19 9,8 C 87 % 1007,4 hPa 0,0 l/m 3,5 km/h (1 Bft) SW 214 7,7 C 6,3 km/h (2 Bft) 96 %
20.03.2017 09:20 9,8 C 87 % 1007,4 hPa 0,0 l/m 12,4 km/h (3 Bft) W-SW 240 7,7 C 31,4 km/h (5 Bft) 100 %
20.03.2017 09:21 9,8 C 87 % 1007,4 hPa 0,0 l/m 9,6 km/h (2 Bft) W 267 7,7 C 15,7 km/h (3 Bft) 100 %
20.03.2017 09:22 9,8 C 87 % 1007,3 hPa 0,0 l/m 6,8 km/h (2 Bft) SW 223 7,7 C 15,7 km/h (3 Bft) 96 %
20.03.2017 09:23 9,8 C 87 % 1007,3 hPa 0,0 l/m 6,4 km/h (2 Bft) N-NW 342 7,7 C 25,1 km/h (4 Bft) 100 %
20.03.2017 09:24 9,9 C 87 % 1007,3 hPa 0,0 l/m 6,1 km/h (2 Bft) SW 236 7,8 C 18,8 km/h (3 Bft) 96 %
20.03.2017 09:25 9,9 C 87 % 1007,3 hPa 0,0 l/m 6,7 km/h (2 Bft) W 269 7,8 C 15,7 km/h (3 Bft) 100 %
20.03.2017 09:26 9,9 C 87 % 1007,3 hPa 0,0 l/m 3,1 km/h (1 Bft) SW 221 7,8 C 9,4 km/h (2 Bft) 96 %
20.03.2017 09:27 9,9 C 87 % 1007,3 hPa 0,0 l/m 4,5 km/h (1 Bft) W-SW 238 7,8 C 9,4 km/h (2 Bft) 96 %
20.03.2017 09:28 9,9 C 88 % 1007,3 hPa 0,0 l/m 6,9 km/h (2 Bft) W-SW 245 8,0 C 12,6 km/h (3 Bft) 100 %
20.03.2017 09:29 9,9 C 87 % 1007,2 hPa 0,0 l/m 11,8 km/h (2 Bft) S-SW 194 7,8 C 22,0 km/h (4 Bft) 96 %
20.03.2017 09:30 10,0 C 87 % 1007,3 hPa 0,0 l/m 9,8 km/h (2 Bft) SW 227 7,9 C 15,7 km/h (3 Bft) 100 %
20.03.2017 09:31 10,0 C 87 % 1007,2 hPa 0,0 l/m 10,7 km/h (2 Bft) W 266 7,9 C 22,0 km/h (4 Bft) 96 %
20.03.2017 09:32 10,0 C 87 % 1007,2 hPa 0,0 l/m 6,9 km/h (2 Bft) NW 312 7,9 C 12,6 km/h (3 Bft) 100 %
20.03.2017 09:33 10,0 C 87 % 1007,3 hPa 0,0 l/m 8,5 km/h (2 Bft) W-NW 283 7,9 C 15,7 km/h (3 Bft) 96 %
20.03.2017 09:34 10,0 C 87 % 1007,2 hPa 0,0 l/m 9,6 km/h (2 Bft) W-NW 284 7,9 C 18,8 km/h (3 Bft) 96 %
20.03.2017 09:35 10,0 C 87 % 1007,2 hPa 0,0 l/m 10,9 km/h (2 Bft) S-SW 207 7,9 C 31,4 km/h (5 Bft) 100 %
20.03.2017 09:36 10,0 C 87 % 1007,2 hPa 0,0 l/m 13,3 km/h (3 Bft) W 265 7,9 C 18,8 km/h (3 Bft) 100 %
20.03.2017 09:37 10,0 C 87 % 1007,2 hPa 0,0 l/m 11,6 km/h (2 Bft) W-NW 293 7,9 C 22,0 km/h (4 Bft) 100 %
20.03.2017 09:38 9,9 C 87 % 1007,2 hPa 0,0 l/m 9,8 km/h (2 Bft) W 271 7,8 C 18,8 km/h (3 Bft) 100 %
20.03.2017 09:39 9,9 C 87 % 1007,2 hPa 0,0 l/m 11,8 km/h (2 Bft) W-SW 251 7,8 C 28,2 km/h (4 Bft) 100 %
20.03.2017 09:40 9,9 C 87 % 1007,2 hPa 0,0 l/m 8,8 km/h (2 Bft) O-SO 120 7,8 C 18,8 km/h (3 Bft) 100 %
20.03.2017 09:41 9,9 C 87 % 1007,2 hPa 0,0 l/m 12,4 km/h (3 Bft) SW 214 7,8 C 28,2 km/h (4 Bft) 100 %
20.03.2017 09:42 9,9 C 87 % 1007,3 hPa 0,0 l/m 12,4 km/h (3 Bft) O-SO 111 7,8 C 25,1 km/h (4 Bft) 100 %
20.03.2017 09:43 9,9 C 87 % 1007,3 hPa 0,0 l/m 10,4 km/h (2 Bft) SW 232 7,8 C 28,2 km/h (4 Bft) 100 %
20.03.2017 09:44 9,9 C 87 % 1007,3 hPa 0,0 l/m 8,4 km/h (2 Bft) W 264 7,8 C 15,7 km/h (3 Bft) 100 %
20.03.2017 09:45 9,9 C 87 % 1007,3 hPa 0,0 l/m 1,1 km/h (1 Bft) W-SW 239 7,8 C 6,3 km/h (2 Bft) 96 %
20.03.2017 09:46 10,0 C 88 % 1007,3 hPa 0,0 l/m 9,7 km/h (2 Bft) W-NW 288 8,1 C 25,1 km/h (4 Bft) 100 %
20.03.2017 09:47 9,9 C 87 % 1007,2 hPa 0,0 l/m 7,4 km/h (2 Bft) W-SW 243 7,8 C 15,7 km/h (3 Bft) 96 %
20.03.2017 09:48 10,0 C 88 % 1007,3 hPa 0,0 l/m 3,3 km/h (1 Bft) W-SW 238 8,1 C 9,4 km/h (2 Bft) 100 %
20.03.2017 09:49 10,0 C 88 % 1007,3 hPa 0,0 l/m 5,9 km/h (2 Bft) N-NW 345 8,1 C 9,4 km/h (2 Bft) 100 %
20.03.2017 09:50 10,0 C 88 % 1007,2 hPa 0,0 l/m 8,5 km/h (2 Bft) SW 230 8,1 C 15,7 km/h (3 Bft) 100 %
20.03.2017 09:51 10,0 C 88 % 1007,3 hPa 0,0 l/m 4,7 km/h (1 Bft) NW 307 8,1 C 9,4 km/h (2 Bft) 100 %
20.03.2017 09:52 10,0 C 88 % 1007,3 hPa 0,0 l/m 3,1 km/h (1 Bft) SW 223 8,1 C 9,4 km/h (2 Bft) 100 %
20.03.2017 09:53 10,0 C 88 % 1007,3 hPa 0,0 l/m 4,6 km/h (1 Bft) SW 231 8,1 C 12,6 km/h (3 Bft) 100 %
20.03.2017 09:54 10,1 C 88 % 1007,3 hPa 0,0 l/m 3,9 km/h (1 Bft) SW 221 8,2 C 15,7 km/h (3 Bft) 100 %
20.03.2017 09:55 10,1 C 88 % 1007,3 hPa 0,0 l/m 7,4 km/h (2 Bft) SW 226 8,2 C 12,6 km/h (3 Bft) 100 %
20.03.2017 09:56 10,1 C 88 % 1007,3 hPa 0,0 l/m 6,1 km/h (2 Bft) O-SO 120 8,2 C 9,4 km/h (2 Bft) 100 %
20.03.2017 09:57 10,1 C 88 % 1007,3 hPa 0,0 l/m 4,6 km/h (1 Bft) S-SW 204 8,2 C 15,7 km/h (3 Bft) 100 %
20.03.2017 09:58 10,1 C 87 % 1007,3 hPa 0,0 l/m 2,0 km/h (1 Bft) S-SW 202 8,0 C 6,3 km/h (2 Bft) 100 %
20.03.2017 09:59 10,1 C 87 % 1007,3 hPa 0,0 l/m 3,3 km/h (1 Bft) W-SW 249 8,0 C 12,6 km/h (3 Bft) 100 %
20.03.2017 10:00 10,1 C 87 % 1007,2 hPa 0,0 l/m 3,8 km/h (1 Bft) O-SO 114 8,0 C 9,4 km/h (2 Bft) 100 %
20.03.2017 10:01 10,1 C 87 % 1007,3 hPa 0,0 l/m 2,7 km/h (1 Bft) O-NO 76 8,0 C 9,4 km/h (2 Bft) 100 %
20.03.2017 10:02 10,1 C 87 % 1007,3 hPa 0,0 l/m 7,6 km/h (2 Bft) SW 236 8,0 C 22,0 km/h (4 Bft) 100 %
20.03.2017 10:03 10,1 C 87 % 1007,3 hPa 0,0 l/m 4,1 km/h (1 Bft) W-SW 252 8,0 C 12,6 km/h (3 Bft) 100 %
20.03.2017 10:04 10,1 C 88 % 1007,3 hPa 0,0 l/m 7,3 km/h (2 Bft) S-SW 209 8,2 C 25,1 km/h (4 Bft) 100 %
20.03.2017 10:05 10,1 C 87 % 1007,3 hPa 0,0 l/m 4,8 km/h (1 Bft) SW 215 8,0 C 9,4 km/h (2 Bft) 100 %
20.03.2017 10:06 10,1 C 87 % 1007,3 hPa 0,0 l/m 3,4 km/h (1 Bft) N-NW 332 8,0 C 6,3 km/h (2 Bft) 100 %
20.03.2017 10:07 10,2 C 87 % 1007,3 hPa 0,0 l/m 7,7 km/h (2 Bft) W 278 8,1 C 15,7 km/h (3 Bft) 100 %
20.03.2017 10:08 10,2 C 87 % 1007,3 hPa 0,0 l/m 11,0 km/h (2 Bft) SO 142 8,1 C 18,8 km/h (3 Bft) 100 %
20.03.2017 10:09 10,2 C 87 % 1007,3 hPa 0,0 l/m 2,2 km/h (1 Bft) N 349 8,1 C 6,3 km/h (2 Bft) 100 %
20.03.2017 10:10 10,2 C 87 % 1007,3 hPa 0,0 l/m 5,2 km/h (1 Bft) SW 231 8,1 C 12,6 km/h (3 Bft) 100 %
20.03.2017 10:11 10,2 C 87 % 1007,3 hPa 0,0 l/m 11,5 km/h (2 Bft) S-SW 200 8,1 C 18,8 km/h (3 Bft) 100 %
20.03.2017 10:12 10,2 C 87 % 1007,3 hPa 0,0 l/m 3,9 km/h (1 Bft) W-NW 299 8,1 C 6,3 km/h (2 Bft) 100 %
20.03.2017 10:13 10,2 C 87 % 1007,3 hPa 0,0 l/m 3,7 km/h (1 Bft) S-SO 161 8,1 C 9,4 km/h (2 Bft) 100 %
20.03.2017 10:14 10,2 C 87 % 1007,3 hPa 0,0 l/m 4,2 km/h (1 Bft) W 269 8,1 C 12,6 km/h (3 Bft) 100 %
20.03.2017 10:15 10,2 C 87 % 1007,3 hPa 0,0 l/m 2,0 km/h (1 Bft) W-SW 242 8,1 C 6,3 km/h (2 Bft) 100 %
20.03.2017 10:16 10,2 C 87 % 1007,3 hPa 0,0 l/m 0,4 km/h (0 Bft) NW 317 8,1 C 3,1 km/h (1 Bft) 100 %
20.03.2017 10:17 10,3 C 87 % 1007,3 hPa 0,0 l/m 5,5 km/h (1 Bft) W-NW 293 8,2 C 18,8 km/h (3 Bft) 100 %
20.03.2017 10:18 10,3 C 87 % 1007,3 hPa 0,0 l/m 10,9 km/h (2 Bft) W 266 8,2 C 25,1 km/h (4 Bft) 100 %
20.03.2017 10:19 10,3 C 87 % 1007,3 hPa 0,0 l/m 4,5 km/h (1 Bft) W-SW 245 8,2 C 12,6 km/h (3 Bft) 100 %
20.03.2017 10:20 10,3 C 87 % 1007,4 hPa 0,0 l/m 7,2 km/h (2 Bft) S-SW 212 8,2 C 18,8 km/h (3 Bft) 100 %
20.03.2017 10:21 10,3 C 87 % 1007,4 hPa 0,0 l/m 6,5 km/h (2 Bft) W 265 8,2 C 15,7 km/h (3 Bft) 100 %
20.03.2017 10:22 10,2 C 87 % 1007,4 hPa 0,0 l/m 9,1 km/h (2 Bft) S-SW 212 8,1 C 25,1 km/h (4 Bft) 100 %
20.03.2017 10:23 10,2 C 87 % 1007,4 hPa 0,0 l/m 10,8 km/h (2 Bft) SW 214 8,1 C 18,8 km/h (3 Bft) 100 %
20.03.2017 10:24 10,2 C 87 % 1007,4 hPa 0,0 l/m 3,0 km/h (1 Bft) N-NO 32 8,1 C 9,4 km/h (2 Bft) 100 %
20.03.2017 10:25 10,2 C 87 % 1007,3 hPa 0,0 l/m 8,2 km/h (2 Bft) W-SW 252 8,1 C 15,7 km/h (3 Bft) 100 %
20.03.2017 10:26 10,2 C 87 % 1007,3 hPa 0,0 l/m 10,7 km/h (2 Bft) SW 220 8,1 C 22,0 km/h (4 Bft) 100 %
20.03.2017 10:27 10,2 C 87 % 1007,3 hPa 0,0 l/m 8,4 km/h (2 Bft) NW 307 8,1 C 15,7 km/h (3 Bft) 100 %
20.03.2017 10:28 10,2 C 87 % 1007,3 hPa 0,0 l/m 5,4 km/h (1 Bft) W-SW 243 8,1 C 12,6 km/h (3 Bft) 100 %
20.03.2017 10:29 10,2 C 87 % 1007,3 hPa 0,0 l/m 13,2 km/h (3 Bft) SW 214 8,1 C 22,0 km/h (4 Bft) 100 %
20.03.2017 10:30 10,2 C 87 % 1007,3 hPa 0,0 l/m 8,8 km/h (2 Bft) SW 234 8,1 C 22,0 km/h (4 Bft) 100 %
20.03.2017 10:31 10,2 C 87 % 1007,3 hPa 0,0 l/m 4,6 km/h (1 Bft) NW 325 8,1 C 12,6 km/h (3 Bft) 96 %
20.03.2017 10:32 10,2 C 87 % 1007,3 hPa 0,0 l/m 6,5 km/h (2 Bft) NW 305 8,1 C 15,7 km/h (3 Bft) 96 %
20.03.2017 10:33 10,2 C 87 % 1007,4 hPa 0,0 l/m 7,2 km/h (2 Bft) O 86 8,1 C 18,8 km/h (3 Bft) 100 %
20.03.2017 10:34 10,2 C 87 % 1007,4 hPa 0,0 l/m 0,5 km/h (0 Bft) SW 233 8,1 C 3,1 km/h (1 Bft) 94 %
20.03.2017 10:35 10,2 C 87 % 1007,3 hPa 0,0 l/m 3,1 km/h (1 Bft) W-SW 245 8,1 C 6,3 km/h (2 Bft) 96 %
20.03.2017 10:36 10,2 C 87 % 1007,3 hPa 0,0 l/m 2,6 km/h (1 Bft) W-NW 297 8,1 C 9,4 km/h (2 Bft) 100 %
20.03.2017 10:37 10,2 C 87 % 1007,4 hPa 0,0 l/m 1,0 km/h (0 Bft) W 278 8,1 C 6,3 km/h (2 Bft) 96 %
20.03.2017 10:38 10,2 C 88 % 1007,4 hPa 0,0 l/m 6,1 km/h (2 Bft) NO 56 8,3 C 12,6 km/h (3 Bft) 100 %
20.03.2017 10:39 10,2 C 88 % 1007,4 hPa 0,0 l/m 7,9 km/h (2 Bft) W-NW 293 8,3 C 22,0 km/h (4 Bft) 92 %
20.03.2017 10:40 10,2 C 87 % 1007,4 hPa 0,0 l/m 3,6 km/h (1 Bft) W-NW 291 8,1 C 12,6 km/h (3 Bft) 100 %
20.03.2017 10:41 10,2 C 87 % 1007,4 hPa 0,0 l/m 7,1 km/h (2 Bft) SW 229 8,1 C 15,7 km/h (3 Bft) 96 %
20.03.2017 10:42 10,2 C 87 % 1007,4 hPa 0,0 l/m 4,9 km/h (1 Bft) W-SW 247 8,1 C 12,6 km/h (3 Bft) 96 %
20.03.2017 10:43 10,2 C 87 % 1007,4 hPa 0,0 l/m 8,2 km/h (2 Bft) W 277 8,1 C 15,7 km/h (3 Bft) 100 %
20.03.2017 10:44 10,2 C 87 % 1007,4 hPa 0,0 l/m 8,8 km/h (2 Bft) S-SO 162 8,1 C 12,6 km/h (3 Bft) 96 %
20.03.2017 10:45 10,2 C 88 % 1007,3 hPa 0,0 l/m 1,3 km/h (1 Bft) SW 215 8,3 C 3,1 km/h (1 Bft) 100 %
20.03.2017 10:46 10,2 C 88 % 1007,3 hPa 0,0 l/m 9,0 km/h (2 Bft) W-SW 245 8,3 C 25,1 km/h (4 Bft) 96 %
20.03.2017 10:47 10,2 C 88 % 1007,3 hPa 0,0 l/m 8,0 km/h (2 Bft) SW 217 8,3 C 15,7 km/h (3 Bft) 100 %
20.03.2017 10:48 10,2 C 88 % 1007,3 hPa 0,0 l/m 5,2 km/h (1 Bft) NO 34 8,3 C 9,4 km/h (2 Bft) 97 %
20.03.2017 10:49 10,2 C 88 % 1007,3 hPa 0,0 l/m 5,9 km/h (2 Bft) S 182 8,3 C 12,6 km/h (3 Bft) 100 %
20.03.2017 10:50 10,2 C 88 % 1007,4 hPa 0,0 l/m 6,0 km/h (2 Bft) S 172 8,3 C 15,7 km/h (3 Bft) 99 %
20.03.2017 10:51 10,2 C 88 % 1007,4 hPa 0,0 l/m 0,7 km/h (0 Bft) O-NO 68 8,3 C 3,1 km/h (1 Bft) 99 %
20.03.2017 10:52 10,2 C 88 % 1007,5 hPa 0,0 l/m 5,7 km/h (1 Bft) SW 225 8,3 C 15,7 km/h (3 Bft) 100 %
20.03.2017 10:53 10,2 C 88 % 1007,5 hPa 0,0 l/m 5,0 km/h (1 Bft) NW 314 8,3 C 15,7 km/h (3 Bft) 100 %
20.03.2017 10:54 10,2 C 88 % 1007,4 hPa 0,0 l/m 1,6 km/h (1 Bft) NO 34 8,3 C 6,3 km/h (2 Bft) 100 %
20.03.2017 10:55 10,2 C 88 % 1007,3 hPa 0,0 l/m 8,0 km/h (2 Bft) W 271 8,3 C 12,6 km/h (3 Bft) 100 %
20.03.2017 10:56 10,2 C 88 % 1007,4 hPa 0,0 l/m 4,2 km/h (1 Bft) S 176 8,3 C 9,4 km/h (2 Bft) 100 %
20.03.2017 10:57 10,2 C 88 % 1007,4 hPa 0,0 l/m 9,7 km/h (2 Bft) NO 34 8,3 C 25,1 km/h (4 Bft) 100 %
20.03.2017 10:58 10,2 C 88 % 1007,3 hPa 0,0 l/m 7,0 km/h (2 Bft) W 262 8,3 C 18,8 km/h (3 Bft) 99 %
20.03.2017 10:59 10,2 C 88 % 1007,4 hPa 0,0 l/m 2,1 km/h (1 Bft) SW 216 8,3 C 6,3 km/h (2 Bft) 99 %
20.03.2017 11:00 10,2 C 88 % 1007,4 hPa 0,0 l/m 5,4 km/h (1 Bft) S 185 8,3 C 22,0 km/h (4 Bft) 98 %
20.03.2017 11:01 10,2 C 88 % 1007,3 hPa 0,0 l/m 13,7 km/h (3 Bft) O 92 8,3 C 22,0 km/h (4 Bft) 100 %
20.03.2017 11:02 10,2 C 88 % 1007,4 hPa 0,0 l/m 1,2 km/h (1 Bft) W-SW 239 8,3 C 6,3 km/h (2 Bft) 100 %
20.03.2017 11:03 10,2 C 88 % 1007,3 hPa 0,0 l/m 8,0 km/h (2 Bft) SW 223 8,3 C 28,2 km/h (4 Bft) 100 %
20.03.2017 11:04 10,2 C 88 % 1007,3 hPa 0,0 l/m 9,7 km/h (2 Bft) W 271 8,3 C 25,1 km/h (4 Bft) 100 %
20.03.2017 11:05 10,2 C 88 % 1007,3 hPa 0,0 l/m 10,1 km/h (2 Bft) W-SW 252 8,3 C 18,8 km/h (3 Bft) 100 %
20.03.2017 11:06 10,2 C 88 % 1007,3 hPa 0,0 l/m 9,8 km/h (2 Bft) W-SW 243 8,3 C 22,0 km/h (4 Bft) 100 %
20.03.2017 11:07 10,2 C 88 % 1007,3 hPa 0,0 l/m 3,4 km/h (1 Bft) S-SW 199 8,3 C 6,3 km/h (2 Bft) 100 %
20.03.2017 11:08 10,2 C 88 % 1007,2 hPa 0,0 l/m 6,6 km/h (2 Bft) SW 224 8,3 C 15,7 km/h (3 Bft) 100 %
20.03.2017 11:09 10,2 C 88 % 1007,3 hPa 0,0 l/m 4,7 km/h (1 Bft) N-NO 23 8,3 C 9,4 km/h (2 Bft) 100 %
20.03.2017 11:10 10,2 C 88 % 1007,3 hPa 0,0 l/m 0,1 km/h (0 Bft) SO 124 8,3 C 3,1 km/h (1 Bft) 100 %
20.03.2017 11:11 10,2 C 88 % 1007,3 hPa 0,0 l/m 0,8 km/h (0 Bft) SW 231 8,3 C 3,1 km/h (1 Bft) 100 %
20.03.2017 11:12 10,3 C 88 % 1007,3 hPa 0,0 l/m 6,4 km/h (2 Bft) S 181 8,4 C 18,8 km/h (3 Bft) 100 %
20.03.2017 11:13 10,3 C 88 % 1007,2 hPa 0,0 l/m 6,6 km/h (2 Bft) SW 226 8,4 C 15,7 km/h (3 Bft) 100 %
20.03.2017 11:14 10,3 C 88 % 1007,2 hPa 0,0 l/m 5,5 km/h (1 Bft) O 94 8,4 C 15,7 km/h (3 Bft) 100 %
20.03.2017 11:15 10,3 C 87 % 1007,2 hPa 0,0 l/m 6,1 km/h (2 Bft) S 181 8,2 C 18,8 km/h (3 Bft) 100 %
20.03.2017 11:16 10,3 C 87 % 1007,3 hPa 0,0 l/m 4,3 km/h (1 Bft) S-SW 205 8,2 C 15,7 km/h (3 Bft) 100 %
20.03.2017 11:17 10,3 C 87 % 1007,3 hPa 0,0 l/m 5,4 km/h (1 Bft) N-NW 328 8,2 C 15,7 km/h (3 Bft) 100 %
20.03.2017 11:19 10,3 C 88 % 1007,1 hPa 0,0 l/m 4,6 km/h (1 Bft) W 274 8,4 C 18,8 km/h (3 Bft) 100 %
20.03.2017 11:20 10,3 C 87 % 1007,1 hPa 0,0 l/m 8,7 km/h (2 Bft) SW 234 8,2 C 18,8 km/h (3 Bft) 100 %
20.03.2017 11:21 10,3 C 87 % 1007,2 hPa 0,0 l/m 10,1 km/h (2 Bft) N-NO 30 8,2 C 34,5 km/h (5 Bft) 100 %
20.03.2017 11:22 10,3 C 87 % 1007,2 hPa 0,0 l/m 8,1 km/h (2 Bft) S-SW 194 8,2 C 18,8 km/h (3 Bft) 100 %
20.03.2017 11:23 10,3 C 87 % 1007,2 hPa 0,0 l/m 7,6 km/h (2 Bft) N-NW 328 8,2 C 15,7 km/h (3 Bft) 100 %
20.03.2017 11:24 10,3 C 87 % 1007,3 hPa 0,0 l/m 6,1 km/h (2 Bft) SW 216 8,2 C 18,8 km/h (3 Bft) 100 %
20.03.2017 11:25 10,3 C 87 % 1007,3 hPa 0,0 l/m 7,4 km/h (2 Bft) W-NW 285 8,2 C 18,8 km/h (3 Bft) 100 %
20.03.2017 11:26 10,3 C 87 % 1007,2 hPa 0,0 l/m 10,4 km/h (2 Bft) S-SO 163 8,2 C 18,8 km/h (3 Bft) 100 %
20.03.2017 11:27 10,3 C 87 % 1007,2 hPa 0,0 l/m 11,4 km/h (2 Bft) SW 221 8,2 C 22,0 km/h (4 Bft) 100 %
20.03.2017 11:28 10,3 C 87 % 1007,2 hPa 0,0 l/m 5,6 km/h (1 Bft) W 276 8,2 C 9,4 km/h (2 Bft) 100 %
20.03.2017 11:29 10,3 C 87 % 1007,2 hPa 0,0 l/m 15,7 km/h (3 Bft) N-NO 15 8,2 C 31,4 km/h (5 Bft) 100 %
20.03.2017 11:30 10,3 C 87 % 1007,2 hPa 0,0 l/m 10,5 km/h (2 Bft) W 260 8,2 C 15,7 km/h (3 Bft) 100 %
20.03.2017 11:31 10,3 C 87 % 1007,2 hPa 0,0 l/m 1,7 km/h (1 Bft) SW 220 8,2 C 6,3 km/h (2 Bft) 100 %
20.03.2017 11:32 10,3 C 87 % 1007,2 hPa 0,0 l/m 9,7 km/h (2 Bft) SW 219 8,2 C 22,0 km/h (4 Bft) 100 %
20.03.2017 11:33 10,3 C 87 % 1007,2 hPa 0,0 l/m 9,1 km/h (2 Bft) S 174 8,2 C 15,7 km/h (3 Bft) 100 %
20.03.2017 11:34 10,2 C 87 % 1007,2 hPa 0,0 l/m 6,6 km/h (2 Bft) O-NO 65 8,1 C 12,6 km/h (3 Bft) 100 %
20.03.2017 11:35 10,3 C 87 % 1007,2 hPa 0,0 l/m 8,8 km/h (2 Bft) SW 222 8,2 C 12,6 km/h (3 Bft) 100 %
20.03.2017 11:36 10,2 C 87 % 1007,2 hPa 0,0 l/m 14,0 km/h (3 Bft) W-SW 257 8,1 C 25,1 km/h (4 Bft) 100 %
20.03.2017 11:37 10,2 C 87 % 1007,2 hPa 0,0 l/m 9,0 km/h (2 Bft) S-SW 208 8,1 C 28,2 km/h (4 Bft) 100 %
20.03.2017 11:38 10,3 C 87 % 1007,2 hPa 0,0 l/m 5,8 km/h (2 Bft) W 270 8,2 C 22,0 km/h (4 Bft) 100 %
20.03.2017 11:39 10,3 C 87 % 1007,2 hPa 0,0 l/m 7,3 km/h (2 Bft) O 82 8,2 C 18,8 km/h (3 Bft) 100 %
20.03.2017 11:40 10,3 C 88 % 1007,2 hPa 0,0 l/m 7,3 km/h (2 Bft) SW 220 8,4 C 18,8 km/h (3 Bft) 100 %
20.03.2017 11:41 10,3 C 87 % 1007,1 hPa 0,0 l/m 9,1 km/h (2 Bft) S-SW 212 8,2 C 15,7 km/h (3 Bft) 100 %
20.03.2017 11:42 10,3 C 87 % 1007,1 hPa 0,0 l/m 12,8 km/h (3 Bft) W-NW 285 8,2 C 25,1 km/h (4 Bft) 100 %
20.03.2017 11:43 10,3 C 87 % 1007,0 hPa 0,0 l/m 6,9 km/h (2 Bft) SW 233 8,2 C 12,6 km/h (3 Bft) 100 %
20.03.2017 11:44 10,3 C 88 % 1007,0 hPa 0,0 l/m 2,5 km/h (1 Bft) O-SO 112 8,4 C 6,3 km/h (2 Bft) 100 %
20.03.2017 11:45 10,3 C 88 % 1007,0 hPa 0,0 l/m 8,9 km/h (2 Bft) SW 231 8,4 C 15,7 km/h (3 Bft) 97 %
20.03.2017 11:46 10,3 C 87 % 1007,0 hPa 0,0 l/m 16,0 km/h (3 Bft) W-SW 243 8,2 C 28,2 km/h (4 Bft) 96 %
20.03.2017 11:47 10,3 C 87 % 1007,1 hPa 0,0 l/m 14,3 km/h (3 Bft) W 275 8,2 C 28,2 km/h (4 Bft) 100 %
20.03.2017 11:48 10,3 C 87 % 1007,0 hPa 0,0 l/m 8,6 km/h (2 Bft) S 172 8,2 C 12,6 km/h (3 Bft) 100 %
20.03.2017 11:49 10,3 C 88 % 1007,0 hPa 0,0 l/m 4,0 km/h (1 Bft) W 259 8,4 C 9,4 km/h (2 Bft) 100 %
20.03.2017 11:50 10,3 C 88 % 1007,0 hPa 0,0 l/m 10,5 km/h (2 Bft) N-NW 344 8,4 C 31,4 km/h (5 Bft) 100 %
20.03.2017 11:51 10,4 C 88 % 1007,0 hPa 0,0 l/m 6,9 km/h (2 Bft) W-SW 244 8,5 C 12,6 km/h (3 Bft) 99 %
20.03.2017 11:52 10,4 C 88 % 1007,0 hPa 0,0 l/m 4,3 km/h (1 Bft) S 181 8,5 C 9,4 km/h (2 Bft) 98 %
20.03.2017 11:53 10,4 C 88 % 1007,1 hPa 0,0 l/m 7,6 km/h (2 Bft) S-SW 203 8,5 C 18,8 km/h (3 Bft) 94 %
20.03.2017 11:54 10,4 C 88 % 1007,0 hPa 0,0 l/m 1,3 km/h (1 Bft) W-SW 245 8,5 C 3,1 km/h (1 Bft) 97 %
20.03.2017 11:55 10,4 C 88 % 1007,0 hPa 0,0 l/m 5,9 km/h (2 Bft) SW 219 8,5 C 18,8 km/h (3 Bft) 100 %
20.03.2017 11:56 10,4 C 87 % 1007,0 hPa 0,0 l/m 9,0 km/h (2 Bft) SW 221 8,3 C 28,2 km/h (4 Bft) 96 %
20.03.2017 11:57 10,4 C 87 % 1007,0 hPa 0,0 l/m 4,2 km/h (1 Bft) O 84 8,3 C 15,7 km/h (3 Bft) 100 %
20.03.2017 11:58 10,4 C 88 % 1007,0 hPa 0,0 l/m 7,7 km/h (2 Bft) N-NO 22 8,5 C 22,0 km/h (4 Bft) 97 %
20.03.2017 11:59 10,4 C 88 % 1007,0 hPa 0,0 l/m 6,8 km/h (2 Bft) N-NO 28 8,5 C 18,8 km/h (3 Bft) 100 %
20.03.2017 12:00 10,5 C 87 % 1006,9 hPa 0,0 l/m 6,0 km/h (2 Bft) W-NW 288 8,4 C 15,7 km/h (3 Bft) 97 %
20.03.2017 12:01 10,5 C 87 % 1006,9 hPa 0,0 l/m 13,5 km/h (3 Bft) S-SW 205 8,4 C 25,1 km/h (4 Bft) 100 %
20.03.2017 12:02 10,5 C 87 % 1007,0 hPa 0,0 l/m 7,6 km/h (2 Bft) SW 229 8,4 C 15,7 km/h (3 Bft) 98 %
20.03.2017 12:03 10,5 C 87 % 1006,9 hPa 0,0 l/m 13,2 km/h (3 Bft) S-SW 198 8,4 C 22,0 km/h (4 Bft) 96 %
20.03.2017 12:04 10,5 C 87 % 1007,0 hPa 0,0 l/m 14,0 km/h (3 Bft) W-SW 240 8,4 C 22,0 km/h (4 Bft) 100 %
20.03.2017 12:05 10,5 C 87 % 1007,0 hPa 0,0 l/m 9,9 km/h (2 Bft) W 278 8,4 C 22,0 km/h (4 Bft) 100 %
20.03.2017 12:06 10,5 C 87 % 1007,0 hPa 0,0 l/m 8,4 km/h (2 Bft) NO 46 8,4 C 18,8 km/h (3 Bft) 100 %
20.03.2017 12:07 10,5 C 87 % 1007,0 hPa 0,0 l/m 10,2 km/h (2 Bft) S-SO 149 8,4 C 18,8 km/h (3 Bft) 100 %
20.03.2017 12:08 10,5 C 87 % 1007,0 hPa 0,0 l/m 10,8 km/h (2 Bft) SW 214 8,4 C 25,1 km/h (4 Bft) 100 %
20.03.2017 12:09 10,5 C 87 % 1007,0 hPa 0,0 l/m 13,0 km/h (3 Bft) S-SO 167 8,4 C 22,0 km/h (4 Bft) 100 %
20.03.2017 12:10 10,5 C 87 % 1007,0 hPa 0,0 l/m 10,5 km/h (2 Bft) S-SW 207 8,4 C 18,8 km/h (3 Bft) 100 %
20.03.2017 12:11 10,6 C 87 % 1007,0 hPa 0,0 l/m 9,0 km/h (2 Bft) SO 139 8,5 C 18,8 km/h (3 Bft) 100 %
20.03.2017 12:12 10,6 C 87 % 1007,0 hPa 0,0 l/m 9,8 km/h (2 Bft) SW 229 8,5 C 25,1 km/h (4 Bft) 100 %
20.03.2017 12:13 10,6 C 87 % 1007,0 hPa 0,0 l/m 6,8 km/h (2 Bft) W-SW 257 8,5 C 15,7 km/h (3 Bft) 100 %
20.03.2017 12:14 10,6 C 87 % 1007,0 hPa 0,0 l/m 10,2 km/h (2 Bft) W-SW 248 8,5 C 18,8 km/h (3 Bft) 100 %
20.03.2017 12:15 10,6 C 87 % 1007,0 hPa 0,0 l/m 6,3 km/h (2 Bft) W 281 8,5 C 15,7 km/h (3 Bft) 100 %
20.03.2017 12:16 10,6 C 87 % 1006,9 hPa 0,0 l/m 6,7 km/h (2 Bft) NO 49 8,5 C 12,6 km/h (3 Bft) 100 %
20.03.2017 12:17 10,6 C 87 % 1007,0 hPa 0,0 l/m 9,9 km/h (2 Bft) SW 234 8,5 C 18,8 km/h (3 Bft) 100 %
20.03.2017 12:18 10,6 C 87 % 1007,0 hPa 0,0 l/m 9,6 km/h (2 Bft) W-SW 256 8,5 C 15,7 km/h (3 Bft) 100 %
20.03.2017 12:19 10,6 C 87 % 1007,0 hPa 0,0 l/m 9,2 km/h (2 Bft) S 182 8,5 C 18,8 km/h (3 Bft) 100 %
20.03.2017 12:21 10,7 C 87 % 1007,0 hPa 0,0 l/m 9,0 km/h (2 Bft) N 5 8,6 C 22,0 km/h (4 Bft) 100 %
20.03.2017 12:22 10,7 C 87 % 1007,0 hPa 0,0 l/m 4,9 km/h (1 Bft) SW 235 8,6 C 9,4 km/h (2 Bft) 100 %
20.03.2017 12:23 10,7 C 87 % 1006,9 hPa 0,0 l/m 8,2 km/h (2 Bft) SO 126 8,6 C 12,6 km/h (3 Bft) 100 %
20.03.2017 12:24 10,7 C 87 % 1006,9 hPa 0,0 l/m 16,7 km/h (3 Bft) SW 229 8,6 C 28,2 km/h (4 Bft) 100 %
20.03.2017 12:25 10,7 C 87 % 1006,8 hPa 0,0 l/m 5,2 km/h (1 Bft) W 260 8,6 C 15,7 km/h (3 Bft) 100 %
20.03.2017 12:26 10,7 C 87 % 1006,8 hPa 0,0 l/m 7,2 km/h (2 Bft) NW 305 8,6 C 18,8 km/h (3 Bft) 100 %
20.03.2017 12:27 10,8 C 87 % 1006,8 hPa 0,0 l/m 3,3 km/h (1 Bft) S 174 8,7 C 9,4 km/h (2 Bft) 100 %
20.03.2017 12:28 10,8 C 87 % 1006,8 hPa 0,0 l/m 3,8 km/h (1 Bft) SW 235 8,7 C 12,6 km/h (3 Bft) 100 %
20.03.2017 12:29 10,8 C 87 % 1006,9 hPa 0,0 l/m 3,5 km/h (1 Bft) W 269 8,7 C 6,3 km/h (2 Bft) 100 %
20.03.2017 12:30 10,8 C 87 % 1006,8 hPa 0,0 l/m 8,2 km/h (2 Bft) W 271 8,7 C 25,1 km/h (4 Bft) 100 %
20.03.2017 12:31 10,9 C 86 % 1006,8 hPa 0,0 l/m 7,6 km/h (2 Bft) W-SW 238 8,7 C 12,6 km/h (3 Bft) 100 %
20.03.2017 12:32 10,9 C 86 % 1006,8 hPa 0,0 l/m 3,8 km/h (1 Bft) SW 221 8,7 C 9,4 km/h (2 Bft) 100 %
20.03.2017 12:33 10,9 C 86 % 1006,8 hPa 0,0 l/m 13,0 km/h (3 Bft) NW 304 8,7 C 22,0 km/h (4 Bft) 100 %
20.03.2017 12:34 10,9 C 86 % 1006,8 hPa 0,0 l/m 4,1 km/h (1 Bft) W-NW 288 8,7 C 9,4 km/h (2 Bft) 100 %
20.03.2017 12:35 10,9 C 86 % 1006,8 hPa 0,0 l/m 5,2 km/h (1 Bft) N-NW 327 8,7 C 9,4 km/h (2 Bft) 100 %
20.03.2017 12:36 11,0 C 86 % 1006,8 hPa 0,0 l/m 4,0 km/h (1 Bft) S-SO 149 8,7 C 6,3 km/h (2 Bft) 100 %
20.03.2017 12:37 11,0 C 86 % 1006,8 hPa 0,0 l/m 12,7 km/h (3 Bft) W 281 8,7 C 22,0 km/h (4 Bft) 100 %
20.03.2017 12:38 11,0 C 86 % 1006,7 hPa 0,0 l/m 4,5 km/h (1 Bft) N-NO 26 8,7 C 15,7 km/h (3 Bft) 100 %
20.03.2017 12:39 11,0 C 86 % 1006,7 hPa 0,0 l/m 7,1 km/h (2 Bft) SW 228 8,7 C 15,7 km/h (3 Bft) 100 %
20.03.2017 12:40 11,0 C 86 % 1006,7 hPa 0,0 l/m 11,6 km/h (2 Bft) O-SO 113 8,7 C 28,2 km/h (4 Bft) 100 %
20.03.2017 12:41 11,1 C 86 % 1006,7 hPa 0,0 l/m 14,4 km/h (3 Bft) SW 235 8,8 C 28,2 km/h (4 Bft) 100 %
20.03.2017 12:42 11,1 C 85 % 1006,7 hPa 0,0 l/m 10,6 km/h (2 Bft) S-SW 193 8,7 C 22,0 km/h (4 Bft) 93 %
20.03.2017 12:43 11,1 C 85 % 1006,7 hPa 0,0 l/m 11,7 km/h (2 Bft) SW 226 8,7 C 25,1 km/h (4 Bft) 100 %
20.03.2017 12:44 11,1 C 85 % 1006,7 hPa 0,0 l/m 3,7 km/h (1 Bft) S-SW 200 8,7 C 22,0 km/h (4 Bft) 100 %
20.03.2017 12:45 11,1 C 85 % 1006,7 hPa 0,0 l/m 11,7 km/h (2 Bft) W-SW 249 8,7 C 28,2 km/h (4 Bft) 100 %
20.03.2017 12:46 11,1 C 85 % 1006,7 hPa 0,0 l/m 5,1 km/h (1 Bft) S-SW 212 8,7 C 15,7 km/h (3 Bft) 100 %
20.03.2017 12:47 11,1 C 85 % 1006,7 hPa 0,0 l/m 10,2 km/h (2 Bft) SW 229 8,7 C 15,7 km/h (3 Bft) 100 %
20.03.2017 12:48 11,2 C 85 % 1006,7 hPa 0,0 l/m 4,9 km/h (1 Bft) W-SW 255 8,8 C 9,4 km/h (2 Bft) 100 %
20.03.2017 12:49 11,2 C 85 % 1006,7 hPa 0,0 l/m 6,7 km/h (2 Bft) W-SW 239 8,8 C 25,1 km/h (4 Bft) 100 %
20.03.2017 12:50 11,2 C 85 % 1006,7 hPa 0,0 l/m 9,6 km/h (2 Bft) S-SW 207 8,8 C 34,5 km/h (5 Bft) 100 %
20.03.2017 12:51 11,2 C 85 % 1006,7 hPa 0,0 l/m 4,8 km/h (1 Bft) SW 234 8,8 C 12,6 km/h (3 Bft) 100 %
20.03.2017 12:52 11,3 C 85 % 1006,7 hPa 0,0 l/m 2,7 km/h (1 Bft) O-NO 68 8,9 C 9,4 km/h (2 Bft) 100 %
20.03.2017 12:53 11,3 C 85 % 1006,7 hPa 0,0 l/m 11,1 km/h (2 Bft) S-SW 194 8,9 C 25,1 km/h (4 Bft) 100 %
20.03.2017 12:54 11,4 C 85 % 1006,7 hPa 0,0 l/m 3,6 km/h (1 Bft) S-SO 158 9,0 C 12,6 km/h (3 Bft) 100 %
20.03.2017 12:55 11,4 C 84 % 1006,7 hPa 0,0 l/m 12,6 km/h (3 Bft) W 273 8,8 C 31,4 km/h (5 Bft) 100 %
20.03.2017 12:56 11,4 C 84 % 1006,7 hPa 0,0 l/m 8,1 km/h (2 Bft) W-SW 258 8,8 C 15,7 km/h (3 Bft) 100 %
20.03.2017 12:57 11,4 C 84 % 1006,7 hPa 0,0 l/m 10,0 km/h (2 Bft) S-SW 196 8,8 C 12,6 km/h (3 Bft) 100 %
20.03.2017 12:58 11,4 C 84 % 1006,7 hPa 0,0 l/m 4,1 km/h (1 Bft) W 262 8,8 C 9,4 km/h (2 Bft) 100 %
20.03.2017 12:59 11,5 C 85 % 1006,7 hPa 0,0 l/m 4,8 km/h (1 Bft) S-SW 203 9,1 C 15,7 km/h (3 Bft) 100 %
20.03.2017 13:00 11,5 C 85 % 1006,7 hPa 0,0 l/m 2,7 km/h (1 Bft) SW 234 9,1 C 9,4 km/h (2 Bft) 96 %
20.03.2017 13:01 11,6 C 84 % 1006,6 hPa 0,0 l/m 10,2 km/h (2 Bft) NW 326 9,0 C 15,7 km/h (3 Bft) 97 %
20.03.2017 13:02 11,6 C 84 % 1006,6 hPa 0,0 l/m 6,8 km/h (2 Bft) SW 217 9,0 C 18,8 km/h (3 Bft) 100 %
20.03.2017 13:03 11,6 C 84 % 1006,5 hPa 0,0 l/m 8,3 km/h (2 Bft) SW 236 9,0 C 15,7 km/h (3 Bft) 100 %
20.03.2017 13:04 11,6 C 84 % 1006,6 hPa 0,0 l/m 8,0 km/h (2 Bft) S-SW 208 9,0 C 15,7 km/h (3 Bft) 96 %
20.03.2017 13:05 11,7 C 83 % 1006,6 hPa 0,0 l/m 12,2 km/h (2 Bft) W-SW 258 8,9 C 25,1 km/h (4 Bft) 100 %
20.03.2017 13:06 11,7 C 84 % 1006,6 hPa 0,0 l/m 6,7 km/h (2 Bft) W 262 9,1 C 12,6 km/h (3 Bft) 93 %
20.03.2017 13:07 11,7 C 84 % 1006,6 hPa 0,0 l/m 6,6 km/h (2 Bft) W-NW 286 9,1 C 18,8 km/h (3 Bft) 100 %
20.03.2017 13:08 11,7 C 84 % 1006,6 hPa 0,0 l/m 7,6 km/h (2 Bft) W-SW 249 9,1 C 22,0 km/h (4 Bft) 97 %
20.03.2017 13:09 11,7 C 83 % 1006,6 hPa 0,0 l/m 12,4 km/h (3 Bft) W-SW 240 8,9 C 18,8 km/h (3 Bft) 100 %
20.03.2017 13:10 11,7 C 83 % 1006,6 hPa 0,0 l/m 15,7 km/h (3 Bft) S-SW 207 8,9 C 28,2 km/h (4 Bft) 96 %
20.03.2017 13:11 11,8 C 83 % 1006,6 hPa 0,0 l/m 7,2 km/h (2 Bft) SW 228 9,0 C 9,4 km/h (2 Bft) 100 %
20.03.2017 13:12 11,8 C 83 % 1006,6 hPa 0,0 l/m 8,2 km/h (2 Bft) W 280 9,0 C 18,8 km/h (3 Bft) 96 %
20.03.2017 13:13 11,8 C 83 % 1006,6 hPa 0,0 l/m 7,6 km/h (2 Bft) W-SW 252 9,0 C 15,7 km/h (3 Bft) 97 %
20.03.2017 13:14 11,8 C 83 % 1006,6 hPa 0,0 l/m 5,3 km/h (1 Bft) W-NW 291 9,0 C 12,6 km/h (3 Bft) 100 %
20.03.2017 13:15 11,8 C 82 % 1006,6 hPa 0,0 l/m 10,1 km/h (2 Bft) W-NW 289 8,8 C 18,8 km/h (3 Bft) 96 %
20.03.2017 13:16 11,9 C 82 % 1006,5 hPa 0,0 l/m 11,0 km/h (2 Bft) SW 223 8,9 C 15,7 km/h (3 Bft) 100 %
20.03.2017 13:17 11,9 C 82 % 1006,6 hPa 0,0 l/m 10,1 km/h (2 Bft) W-NW 283 8,9 C 15,7 km/h (3 Bft) 100 %
20.03.2017 13:18 11,9 C 82 % 1006,6 hPa 0,0 l/m 8,1 km/h (2 Bft) W-NW 293 8,9 C 15,7 km/h (3 Bft) 100 %
20.03.2017 13:19 11,9 C 83 % 1006,6 hPa 0,0 l/m 4,9 km/h (1 Bft) S-SW 210 9,1 C 12,6 km/h (3 Bft) 100 %
20.03.2017 13:20 12,0 C 82 % 1006,6 hPa 0,0 l/m 6,9 km/h (2 Bft) W-NW 288 9,0 C 15,7 km/h (3 Bft) 100 %
20.03.2017 13:21 12,0 C 82 % 1006,6 hPa 0,0 l/m 8,5 km/h (2 Bft) S-SO 167 9,0 C 18,8 km/h (3 Bft) 100 %
20.03.2017 13:22 12,1 C 82 % 1006,6 hPa 0,0 l/m 7,4 km/h (2 Bft) W 281 9,1 C 12,6 km/h (3 Bft) 100 %
20.03.2017 13:23 12,1 C 82 % 1006,5 hPa 0,0 l/m 6,4 km/h (2 Bft) W-SW 243 9,1 C 18,8 km/h (3 Bft) 100 %
20.03.2017 13:24 12,1 C 82 % 1006,6 hPa 0,0 l/m 5,3 km/h (1 Bft) N-NW 335 9,1 C 15,7 km/h (3 Bft) 100 %
20.03.2017 13:25 12,2 C 80 % 1006,6 hPa 0,0 l/m 12,9 km/h (3 Bft) S-SW 193 8,9 C 25,1 km/h (4 Bft) 100 %
20.03.2017 13:26 12,2 C 79 % 1006,6 hPa 0,0 l/m 9,3 km/h (2 Bft) SW 231 8,7 C 15,7 km/h (3 Bft) 100 %
20.03.2017 13:27 12,3 C 78 % 1006,5 hPa 0,0 l/m 10,0 km/h (2 Bft) W-NW 292 8,6 C 18,8 km/h (3 Bft) 96 %
20.03.2017 13:28 12,3 C 78 % 1006,5 hPa 0,0 l/m 4,9 km/h (1 Bft) N-NW 335 8,6 C 9,4 km/h (2 Bft) 100 %
20.03.2017 13:29 12,4 C 78 % 1006,5 hPa 0,0 l/m 7,1 km/h (2 Bft) SW 215 8,7 C 15,7 km/h (3 Bft) 100 %
20.03.2017 13:30 12,4 C 79 % 1006,5 hPa 0,0 l/m 10,5 km/h (2 Bft) O 88 8,9 C 22,0 km/h (4 Bft) 100 %
20.03.2017 13:31 12,4 C 80 % 1006,5 hPa 0,0 l/m 7,5 km/h (2 Bft) W-SW 238 9,0 C 15,7 km/h (3 Bft) 100 %
20.03.2017 13:32 12,4 C 79 % 1006,4 hPa 0,0 l/m 5,1 km/h (1 Bft) NO 36 8,9 C 15,7 km/h (3 Bft) 100 %
20.03.2017 13:33 12,4 C 80 % 1006,5 hPa 0,0 l/m 5,0 km/h (1 Bft) S-SO 157 9,0 C 12,6 km/h (3 Bft) 100 %
20.03.2017 13:34 12,4 C 80 % 1006,6 hPa 0,0 l/m 9,1 km/h (2 Bft) W 281 9,0 C 15,7 km/h (3 Bft) 100 %
20.03.2017 13:35 12,3 C 80 % 1006,4 hPa 0,0 l/m 10,1 km/h (2 Bft) N 2 8,9 C 25,1 km/h (4 Bft) 100 %
20.03.2017 13:36 12,3 C 80 % 1006,5 hPa 0,0 l/m 4,6 km/h (1 Bft) SW 221 8,9 C 15,7 km/h (3 Bft) 100 %
20.03.2017 13:37 12,2 C 81 % 1006,4 hPa 0,0 l/m 12,6 km/h (3 Bft) SW 224 9,0 C 28,2 km/h (4 Bft) 100 %
20.03.2017 13:38 12,2 C 81 % 1006,5 hPa 0,0 l/m 11,9 km/h (2 Bft) W-SW 242 9,0 C 34,5 km/h (5 Bft) 100 %
20.03.2017 13:39 12,1 C 81 % 1006,5 hPa 0,0 l/m 11,9 km/h (2 Bft) SW 228 8,9 C 22,0 km/h (4 Bft) 100 %
20.03.2017 13:40 12,1 C 81 % 1006,5 hPa 0,0 l/m 5,5 km/h (1 Bft) W-NW 293 8,9 C 15,7 km/h (3 Bft) 100 %
20.03.2017 13:41 12,1 C 81 % 1006,4 hPa 0,0 l/m 9,1 km/h (2 Bft) W 259 8,9 C 18,8 km/h (3 Bft) 100 %
20.03.2017 13:42 12,1 C 81 % 1006,5 hPa 0,0 l/m 2,7 km/h (1 Bft) SW 226 8,9 C 6,3 km/h (2 Bft) 100 %
20.03.2017 13:43 12,1 C 82 % 1006,4 hPa 0,0 l/m 2,0 km/h (1 Bft) NW 320 9,1 C 6,3 km/h (2 Bft) 100 %
20.03.2017 13:44 12,1 C 82 % 1006,4 hPa 0,0 l/m 4,6 km/h (1 Bft) N-NW 335 9,1 C 15,7 km/h (3 Bft) 100 %
20.03.2017 13:45 12,0 C 81 % 1006,4 hPa 0,0 l/m 14,3 km/h (3 Bft) S-SW 193 8,8 C 31,4 km/h (5 Bft) 100 %
20.03.2017 13:46 12,0 C 81 % 1006,4 hPa 0,0 l/m 8,9 km/h (2 Bft) W-SW 237 8,8 C 18,8 km/h (3 Bft) 100 %
20.03.2017 13:47 11,9 C 82 % 1006,4 hPa 0,0 l/m 10,1 km/h (2 Bft) W-NW 297 8,9 C 12,6 km/h (3 Bft) 100 %
20.03.2017 13:48 11,9 C 81 % 1006,4 hPa 0,0 l/m 8,2 km/h (2 Bft) S-SW 195 8,7 C 15,7 km/h (3 Bft) 100 %
20.03.2017 13:49 11,9 C 82 % 1006,3 hPa 0,0 l/m 7,5 km/h (2 Bft) S-SW 199 8,9 C 12,6 km/h (3 Bft) 100 %
20.03.2017 13:50 11,8 C 81 % 1006,3 hPa 0,0 l/m 4,4 km/h (1 Bft) S-SW 199 8,6 C 9,4 km/h (2 Bft) 100 %
20.03.2017 13:51 11,8 C 81 % 1006,3 hPa 0,0 l/m 8,0 km/h (2 Bft) W-SW 249 8,6 C 12,6 km/h (3 Bft) 100 %
20.03.2017 13:52 11,8 C 81 % 1006,3 hPa 0,0 l/m 5,8 km/h (2 Bft) W-NW 282 8,6 C 12,6 km/h (3 Bft) 100 %
20.03.2017 13:53 11,8 C 82 % 1006,3 hPa 0,0 l/m 6,5 km/h (2 Bft) NO 46 8,8 C 12,6 km/h (3 Bft) 100 %
20.03.2017 13:54 11,8 C 81 % 1006,3 hPa 0,0 l/m 16,5 km/h (3 Bft) W-SW 241 8,6 C 31,4 km/h (5 Bft) 100 %
20.03.2017 13:55 11,7 C 82 % 1006,3 hPa 0,0 l/m 13,6 km/h (3 Bft) S-SW 200 8,7 C 28,2 km/h (4 Bft) 100 %
20.03.2017 13:56 11,7 C 82 % 1006,2 hPa 0,0 l/m 9,9 km/h (2 Bft) SW 229 8,7 C 15,7 km/h (3 Bft) 100 %
20.03.2017 13:57 11,7 C 82 % 1006,2 hPa 0,0 l/m 0,3 km/h (0 Bft) N-NO 19 8,7 C 3,1 km/h (1 Bft) 100 %
20.03.2017 13:58 11,7 C 82 % 1006,2 hPa 0,0 l/m 5,1 km/h (1 Bft) O 86 8,7 C 12,6 km/h (3 Bft) 100 %
20.03.2017 13:59 11,7 C 82 % 1006,2 hPa 0,0 l/m 1,5 km/h (1 Bft) N-NW 327 8,7 C 6,3 km/h (2 Bft) 100 %
20.03.2017 14:00 11,7 C 82 % 1006,2 hPa 0,0 l/m 9,1 km/h (2 Bft) O-SO 110 8,7 C 18,8 km/h (3 Bft) 100 %
20.03.2017 14:01 11,7 C 82 % 1006,2 hPa 0,0 l/m 10,0 km/h (2 Bft) SW 221 8,7 C 22,0 km/h (4 Bft) 100 %
20.03.2017 14:02 11,7 C 82 % 1006,2 hPa 0,0 l/m 14,1 km/h (3 Bft) SW 231 8,7 C 25,1 km/h (4 Bft) 100 %
20.03.2017 14:03 11,7 C 82 % 1006,2 hPa 0,0 l/m 6,8 km/h (2 Bft) S-SO 163 8,7 C 15,7 km/h (3 Bft) 100 %
20.03.2017 14:04 11,7 C 82 % 1006,2 hPa 0,0 l/m 2,5 km/h (1 Bft) W-SW 238 8,7 C 6,3 km/h (2 Bft) 100 %
20.03.2017 14:05 11,7 C 82 % 1006,2 hPa 0,0 l/m 0,1 km/h (0 Bft) SW 223 8,7 C 3,1 km/h (1 Bft) 100 %
20.03.2017 14:06 11,7 C 82 % 1006,2 hPa 0,0 l/m 6,7 km/h (2 Bft) O-NO 76 8,7 C 15,7 km/h (3 Bft) 100 %
20.03.2017 14:07 11,7 C 82 % 1006,2 hPa 0,0 l/m 9,8 km/h (2 Bft) N-NW 330 8,7 C 18,8 km/h (3 Bft) 96 %
20.03.2017 14:08 11,7 C 82 % 1006,2 hPa 0,0 l/m 7,5 km/h (2 Bft) NW 307 8,7 C 15,7 km/h (3 Bft) 99 %
20.03.2017 14:09 11,7 C 82 % 1006,2 hPa 0,0 l/m 8,9 km/h (2 Bft) SW 225 8,7 C 15,7 km/h (3 Bft) 100 %
20.03.2017 14:10 11,6 C 82 % 1006,3 hPa 0,0 l/m 7,2 km/h (2 Bft) SW 234 8,6 C 15,7 km/h (3 Bft) 96 %
20.03.2017 14:11 11,6 C 82 % 1006,3 hPa 0,0 l/m 7,1 km/h (2 Bft) W 262 8,6 C 22,0 km/h (4 Bft) 96 %
20.03.2017 14:12 11,6 C 82 % 1006,2 hPa 0,0 l/m 7,2 km/h (2 Bft) O-SO 117 8,6 C 22,0 km/h (4 Bft) 96 %
20.03.2017 14:13 11,6 C 82 % 1006,2 hPa 0,0 l/m 4,0 km/h (1 Bft) NW 307 8,6 C 9,4 km/h (2 Bft) 100 %
20.03.2017 14:14 11,6 C 82 % 1006,2 hPa 0,0 l/m 7,0 km/h (2 Bft) SO 141 8,6 C 15,7 km/h (3 Bft) 96 %
20.03.2017 14:15 11,6 C 82 % 1006,2 hPa 0,0 l/m 7,8 km/h (2 Bft) W-SW 250 8,6 C 18,8 km/h (3 Bft) 100 %
20.03.2017 14:16 11,6 C 81 % 1006,1 hPa 0,0 l/m 10,1 km/h (2 Bft) S 170 8,5 C 28,2 km/h (4 Bft) 96 %
20.03.2017 14:17 11,6 C 81 % 1006,1 hPa 0,0 l/m 11,1 km/h (2 Bft) SW 231 8,5 C 25,1 km/h (4 Bft) 96 %
20.03.2017 14:18 11,6 C 81 % 1006,1 hPa 0,0 l/m 8,1 km/h (2 Bft) W-NW 282 8,5 C 15,7 km/h (3 Bft) 100 %
20.03.2017 14:19 11,6 C 81 % 1006,1 hPa 0,0 l/m 14,4 km/h (3 Bft) S-SO 147 8,5 C 18,8 km/h (3 Bft) 100 %
20.03.2017 14:20 11,6 C 81 % 1006,1 hPa 0,0 l/m 15,5 km/h (3 Bft) W-SW 252 8,5 C 28,2 km/h (4 Bft) 96 %
20.03.2017 14:21 11,6 C 81 % 1006,1 hPa 0,0 l/m 11,8 km/h (2 Bft) S-SO 160 8,5 C 18,8 km/h (3 Bft) 96 %
20.03.2017 14:22 11,6 C 81 % 1006,1 hPa 0,0 l/m 8,7 km/h (2 Bft) W 274 8,5 C 18,8 km/h (3 Bft) 100 %
20.03.2017 14:23 11,6 C 81 % 1006,1 hPa 0,0 l/m 9,9 km/h (2 Bft) W 262 8,5 C 15,7 km/h (3 Bft) 96 %
20.03.2017 14:24 11,6 C 81 % 1006,1 hPa 0,0 l/m 8,7 km/h (2 Bft) SW 221 8,5 C 18,8 km/h (3 Bft) 100 %
20.03.2017 14:25 11,6 C 81 % 1006,1 hPa 0,0 l/m 5,5 km/h (1 Bft) NW 304 8,5 C 12,6 km/h (3 Bft) 100 %
20.03.2017 14:26 11,6 C 81 % 1006,1 hPa 0,0 l/m 5,2 km/h (1 Bft) SW 219 8,5 C 15,7 km/h (3 Bft) 100 %
20.03.2017 14:27 11,6 C 81 % 1006,1 hPa 0,0 l/m 14,0 km/h (3 Bft) S-SW 205 8,5 C 28,2 km/h (4 Bft) 100 %
20.03.2017 14:28 11,6 C 81 % 1006,0 hPa 0,0 l/m 14,9 km/h (3 Bft) SW 220 8,5 C 31,4 km/h (5 Bft) 100 %
20.03.2017 14:29 11,6 C 81 % 1006,0 hPa 0,0 l/m 5,6 km/h (1 Bft) W-SW 245 8,5 C 18,8 km/h (3 Bft) 100 %
20.03.2017 14:30 11,6 C 81 % 1006,0 hPa 0,0 l/m 3,7 km/h (1 Bft) NW 306 8,5 C 18,8 km/h (3 Bft) 100 %
20.03.2017 14:31 11,7 C 81 % 1006,0 hPa 0,0 l/m 9,4 km/h (2 Bft) N 354 8,5 C 15,7 km/h (3 Bft) 100 %
20.03.2017 14:32 11,6 C 80 % 1006,1 hPa 0,0 l/m 11,2 km/h (2 Bft) SW 219 8,3 C 22,0 km/h (4 Bft) 100 %
20.03.2017 14:33 11,6 C 80 % 1006,1 hPa 0,0 l/m 11,1 km/h (2 Bft) S-SO 160 8,3 C 22,0 km/h (4 Bft) 100 %
20.03.2017 14:34 11,7 C 80 % 1006,1 hPa 0,0 l/m 13,2 km/h (3 Bft) N-NW 343 8,4 C 28,2 km/h (4 Bft) 100 %
20.03.2017 14:35 11,7 C 80 % 1006,1 hPa 0,0 l/m 7,7 km/h (2 Bft) S-SW 203 8,4 C 15,7 km/h (3 Bft) 100 %
20.03.2017 14:36 11,7 C 80 % 1006,1 hPa 0,0 l/m 9,7 km/h (2 Bft) N-NO 27 8,4 C 18,8 km/h (3 Bft) 100 %
20.03.2017 14:37 11,7 C 80 % 1006,0 hPa 0,0 l/m 11,8 km/h (2 Bft) SW 220 8,4 C 31,4 km/h (5 Bft) 100 %
20.03.2017 14:38 11,7 C 80 % 1006,1 hPa 0,0 l/m 6,3 km/h (2 Bft) SW 232 8,4 C 12,6 km/h (3 Bft) 100 %
20.03.2017 14:39 11,7 C 80 % 1006,0 hPa 0,0 l/m 12,8 km/h (3 Bft) W 260 8,4 C 37,7 km/h (5 Bft) 100 %
20.03.2017 14:40 11,7 C 79 % 1006,0 hPa 0,0 l/m 14,4 km/h (3 Bft) W-SW 246 8,2 C 31,4 km/h (5 Bft) 100 %
20.03.2017 14:41 11,7 C 79 % 1006,0 hPa 0,0 l/m 11,5 km/h (2 Bft) W 261 8,2 C 22,0 km/h (4 Bft) 100 %
20.03.2017 14:42 11,8 C 79 % 1006,0 hPa 0,0 l/m 8,7 km/h (2 Bft) W 264 8,3 C 15,7 km/h (3 Bft) 99 %
20.03.2017 14:43 11,7 C 79 % 1006,0 hPa 0,0 l/m 7,3 km/h (2 Bft) SW 233 8,2 C 15,7 km/h (3 Bft) 100 %
20.03.2017 14:44 11,8 C 79 % 1006,0 hPa 0,0 l/m 8,5 km/h (2 Bft) S 176 8,3 C 18,8 km/h (3 Bft) 100 %
20.03.2017 14:45 11,8 C 79 % 1005,9 hPa 0,0 l/m 5,9 km/h (2 Bft) SW 215 8,3 C 15,7 km/h (3 Bft) 100 %
20.03.2017 14:46 11,7 C 79 % 1005,9 hPa 0,0 l/m 12,2 km/h (2 Bft) W-SW 246 8,2 C 22,0 km/h (4 Bft) 100 %
20.03.2017 14:47 11,7 C 79 % 1006,0 hPa 0,0 l/m 10,0 km/h (2 Bft) O 82 8,2 C 18,8 km/h (3 Bft) 100 %
20.03.2017 14:48 11,7 C 79 % 1005,9 hPa 0,0 l/m 7,1 km/h (2 Bft) W-SW 249 8,2 C 18,8 km/h (3 Bft) 100 %
20.03.2017 14:49 11,7 C 79 % 1005,9 hPa 0,0 l/m 10,1 km/h (2 Bft) W 268 8,2 C 25,1 km/h (4 Bft) 100 %
20.03.2017 14:50 11,7 C 79 % 1005,9 hPa 0,0 l/m 3,8 km/h (1 Bft) S-SW 207 8,2 C 9,4 km/h (2 Bft) 100 %
20.03.2017 14:51 11,7 C 79 % 1005,9 hPa 0,0 l/m 8,9 km/h (2 Bft) SW 219 8,2 C 25,1 km/h (4 Bft) 100 %
20.03.2017 14:52 11,7 C 78 % 1005,8 hPa 0,0 l/m 9,9 km/h (2 Bft) N-NW 327 8,0 C 22,0 km/h (4 Bft) 100 %
20.03.2017 14:53 11,7 C 78 % 1005,9 hPa 0,0 l/m 7,8 km/h (2 Bft) W 260 8,0 C 15,7 km/h (3 Bft) 100 %
20.03.2017 14:54 11,8 C 78 % 1005,9 hPa 0,0 l/m 7,1 km/h (2 Bft) W-SW 248 8,1 C 15,7 km/h (3 Bft) 100 %
20.03.2017 14:55 11,8 C 78 % 1005,9 hPa 0,0 l/m 9,7 km/h (2 Bft) W-NW 295 8,1 C 18,8 km/h (3 Bft) 100 %
20.03.2017 14:56 11,8 C 79 % 1005,8 hPa 0,0 l/m 8,6 km/h (2 Bft) W 267 8,3 C 15,7 km/h (3 Bft) 100 %
20.03.2017 14:57 11,8 C 78 % 1005,8 hPa 0,0 l/m 6,1 km/h (2 Bft) W 276 8,1 C 15,7 km/h (3 Bft) 100 %
20.03.2017 14:58 11,8 C 79 % 1005,8 hPa 0,0 l/m 3,9 km/h (1 Bft) S 185 8,3 C 6,3 km/h (2 Bft) 99 %
20.03.2017 14:59 11,8 C 79 % 1005,8 hPa 0,0 l/m 6,1 km/h (2 Bft) NW 322 8,3 C 12,6 km/h (3 Bft) 100 %
20.03.2017 15:00 11,8 C 79 % 1005,7 hPa 0,0 l/m 11,5 km/h (2 Bft) W-NW 300 8,3 C 25,1 km/h (4 Bft) 100 %
20.03.2017 15:01 11,8 C 79 % 1005,7 hPa 0,0 l/m 7,7 km/h (2 Bft) NW 313 8,3 C 12,6 km/h (3 Bft) 100 %
20.03.2017 15:02 11,8 C 78 % 1005,7 hPa 0,0 l/m 9,9 km/h (2 Bft) SW 218 8,1 C 22,0 km/h (4 Bft) 100 %
20.03.2017 15:03 11,8 C 78 % 1005,7 hPa 0,0 l/m 5,0 km/h (1 Bft) S 174 8,1 C 9,4 km/h (2 Bft) 100 %
20.03.2017 15:04 11,8 C 79 % 1005,7 hPa 0,0 l/m 1,6 km/h (1 Bft) W-SW 243 8,3 C 6,3 km/h (2 Bft) 100 %
20.03.2017 15:05 11,8 C 78 % 1005,6 hPa 0,0 l/m 4,2 km/h (1 Bft) S 186 8,1 C 12,6 km/h (3 Bft) 100 %
20.03.2017 15:06 11,8 C 78 % 1005,6 hPa 0,0 l/m 0,6 km/h (0 Bft) W-NW 288 8,1 C 3,1 km/h (1 Bft) 100 %
20.03.2017 15:07 11,9 C 78 % 1005,6 hPa 0,0 l/m 11,0 km/h (2 Bft) W-SW 243 8,2 C 28,2 km/h (4 Bft) 100 %
20.03.2017 15:08 11,9 C 78 % 1005,6 hPa 0,0 l/m 10,6 km/h (2 Bft) S-SW 202 8,2 C 18,8 km/h (3 Bft) 100 %
20.03.2017 15:09 11,9 C 78 % 1005,7 hPa 0,0 l/m 5,8 km/h (2 Bft) W-NW 288 8,2 C 9,4 km/h (2 Bft) 100 %
20.03.2017 15:10 11,9 C 77 % 1005,6 hPa 0,0 l/m 7,8 km/h (2 Bft) SW 236 8,0 C 15,7 km/h (3 Bft) 100 %
20.03.2017 15:11 11,9 C 78 % 1005,6 hPa 0,0 l/m 4,1 km/h (1 Bft) S-SW 205 8,2 C 15,7 km/h (3 Bft) 100 %
20.03.2017 15:12 11,9 C 78 % 1005,5 hPa 0,0 l/m 6,6 km/h (2 Bft) S-SW 199 8,2 C 12,6 km/h (3 Bft) 100 %
20.03.2017 15:13 11,9 C 78 % 1005,5 hPa 0,0 l/m 3,8 km/h (1 Bft) SW 224 8,2 C 12,6 km/h (3 Bft) 100 %
20.03.2017 15:14 11,9 C 78 % 1005,5 hPa 0,0 l/m 12,3 km/h (3 Bft) W-NW 288 8,2 C 22,0 km/h (4 Bft) 100 %
20.03.2017 15:15 11,9 C 78 % 1005,5 hPa 0,0 l/m 7,3 km/h (2 Bft) SW 230 8,2 C 12,6 km/h (3 Bft) 96 %
20.03.2017 15:16 11,9 C 78 % 1005,5 hPa 0,0 l/m 8,4 km/h (2 Bft) SW 230 8,2 C 18,8 km/h (3 Bft) 100 %
20.03.2017 15:17 11,9 C 78 % 1005,5 hPa 0,0 l/m 6,7 km/h (2 Bft) W 273 8,2 C 15,7 km/h (3 Bft) 100 %
20.03.2017 15:18 11,9 C 78 % 1005,5 hPa 0,0 l/m 3,1 km/h (1 Bft) O 89 8,2 C 9,4 km/h (2 Bft) 100 %
20.03.2017 15:19 12,0 C 79 % 1005,5 hPa 0,0 l/m 0,5 km/h (0 Bft) SW 225 8,5 C 3,1 km/h (1 Bft) 96 %
20.03.2017 15:20 12,0 C 78 % 1005,4 hPa 0,0 l/m 2,5 km/h (1 Bft) W-SW 244 8,3 C 6,3 km/h (2 Bft) 100 %
20.03.2017 15:21 12,0 C 78 % 1005,4 hPa 0,0 l/m 5,5 km/h (1 Bft) S-SW 210 8,3 C 9,4 km/h (2 Bft) 96 %
20.03.2017 15:22 12,1 C 78 % 1005,4 hPa 0,0 l/m 8,2 km/h (2 Bft) W 281 8,4 C 15,7 km/h (3 Bft) 96 %
20.03.2017 15:23 12,1 C 78 % 1005,3 hPa 0,0 l/m 9,0 km/h (2 Bft) O 79 8,4 C 25,1 km/h (4 Bft) 100 %
20.03.2017 15:24 12,1 C 78 % 1005,2 hPa 0,0 l/m 3,6 km/h (1 Bft) S-SW 210 8,4 C 6,3 km/h (2 Bft) 96 %
20.03.2017 15:25 12,1 C 78 % 1005,3 hPa 0,0 l/m 3,8 km/h (1 Bft) O-NO 75 8,4 C 9,4 km/h (2 Bft) 100 %
20.03.2017 15:26 12,1 C 78 % 1005,3 hPa 0,0 l/m 7,8 km/h (2 Bft) SW 216 8,4 C 12,6 km/h (3 Bft) 92 %
20.03.2017 15:27 12,1 C 78 % 1005,3 hPa 0,0 l/m 10,6 km/h (2 Bft) N-NW 328 8,4 C 22,0 km/h (4 Bft) 100 %
20.03.2017 15:28 12,2 C 78 % 1005,2 hPa 0,0 l/m 7,8 km/h (2 Bft) SO 128 8,5 C 15,7 km/h (3 Bft) 96 %
20.03.2017 15:29 12,2 C 78 % 1005,2 hPa 0,0 l/m 1,6 km/h (1 Bft) NW 322 8,5 C 6,3 km/h (2 Bft) 97 %
20.03.2017 15:30 12,2 C 78 % 1005,3 hPa 0,0 l/m 8,7 km/h (2 Bft) N-NO 15 8,5 C 18,8 km/h (3 Bft) 100 %
20.03.2017 15:31 12,2 C 77 % 1005,3 hPa 0,0 l/m 12,0 km/h (2 Bft) S 187 8,3 C 25,1 km/h (4 Bft) 96 %
20.03.2017 15:32 12,2 C 76 % 1005,3 hPa 0,0 l/m 14,6 km/h (3 Bft) W 267 8,1 C 25,1 km/h (4 Bft) 100 %
20.03.2017 15:33 12,3 C 76 % 1005,2 hPa 0,0 l/m 10,2 km/h (2 Bft) N 5 8,2 C 22,0 km/h (4 Bft) 100 %
20.03.2017 15:34 12,3 C 76 % 1005,2 hPa 0,0 l/m 7,9 km/h (2 Bft) S-SW 205 8,2 C 22,0 km/h (4 Bft) 100 %
20.03.2017 15:35 12,3 C 76 % 1005,2 hPa 0,0 l/m 9,4 km/h (2 Bft) SW 231 8,2 C 31,4 km/h (5 Bft) 100 %
20.03.2017 15:36 12,3 C 76 % 1005,2 hPa 0,0 l/m 13,1 km/h (3 Bft) S-SO 158 8,2 C 18,8 km/h (3 Bft) 100 %
20.03.2017 15:37 12,3 C 75 % 1005,2 hPa 0,0 l/m 23,4 km/h (4 Bft) S-SW 208 8,0 C 34,5 km/h (5 Bft) 100 %
20.03.2017 15:38 12,3 C 75 % 1005,2 hPa 0,0 l/m 18,2 km/h (3 Bft) NW 309 8,0 C 43,9 km/h (6 Bft) 100 %
20.03.2017 15:39 12,3 C 75 % 1005,1 hPa 0,0 l/m 9,1 km/h (2 Bft) S 172 8,0 C 22,0 km/h (4 Bft) 100 %
20.03.2017 15:40 12,4 C 75 % 1005,0 hPa 0,0 l/m 7,1 km/h (2 Bft) S-SW 206 8,1 C 28,2 km/h (4 Bft) 100 %
20.03.2017 15:41 12,4 C 75 % 1005,1 hPa 0,0 l/m 21,0 km/h (4 Bft) O-SO 123 8,1 C 37,7 km/h (5 Bft) 100 %
20.03.2017 15:42 12,4 C 74 % 1005,1 hPa 0,0 l/m 16,7 km/h (3 Bft) S-SW 193 7,9 C 40,8 km/h (6 Bft) 100 %
20.03.2017 15:43 12,4 C 74 % 1005,1 hPa 0,0 l/m 6,4 km/h (2 Bft) SW 220 7,9 C 15,7 km/h (3 Bft) 100 %
20.03.2017 15:44 12,4 C 74 % 1005,1 hPa 0,0 l/m 10,1 km/h (2 Bft) S-SW 209 7,9 C 25,1 km/h (4 Bft) 100 %
20.03.2017 15:45 12,4 C 74 % 1005,1 hPa 0,0 l/m 4,1 km/h (1 Bft) W-NW 285 7,9 C 15,7 km/h (3 Bft) 100 %
20.03.2017 15:46 12,5 C 75 % 1005,1 hPa 0,0 l/m 9,4 km/h (2 Bft) SW 226 8,2 C 18,8 km/h (3 Bft) 100 %
20.03.2017 15:47 12,5 C 75 % 1005,0 hPa 0,0 l/m 10,5 km/h (2 Bft) SW 217 8,2 C 18,8 km/h (3 Bft) 100 %
20.03.2017 15:48 12,5 C 75 % 1005,1 hPa 0,0 l/m 12,4 km/h (3 Bft) SO 136 8,2 C 18,8 km/h (3 Bft) 100 %
20.03.2017 15:49 12,6 C 74 % 1005,1 hPa 0,0 l/m 19,4 km/h (3 Bft) O 97 8,1 C 47,1 km/h (6 Bft) 100 %
20.03.2017 15:50 12,6 C 74 % 1005,0 hPa 0,0 l/m 20,6 km/h (4 Bft) NW 308 8,1 C 37,7 km/h (5 Bft) 100 %
20.03.2017 15:51 12,6 C 74 % 1005,0 hPa 0,0 l/m 11,3 km/h (2 Bft) W-SW 255 8,1 C 22,0 km/h (4 Bft) 100 %
20.03.2017 15:52 12,6 C 74 % 1005,0 hPa 0,0 l/m 6,8 km/h (2 Bft) NW 326 8,1 C 9,4 km/h (2 Bft) 100 %
20.03.2017 15:53 12,7 C 74 % 1004,9 hPa 0,0 l/m 7,5 km/h (2 Bft) S-SO 167 8,2 C 15,7 km/h (3 Bft) 100 %
20.03.2017 15:54 12,7 C 74 % 1004,9 hPa 0,0 l/m 7,7 km/h (2 Bft) NW 319 8,2 C 12,6 km/h (3 Bft) 100 %
20.03.2017 15:55 12,7 C 74 % 1004,9 hPa 0,0 l/m 13,7 km/h (3 Bft) S-SW 195 8,2 C 25,1 km/h (4 Bft) 100 %
20.03.2017 15:56 12,7 C 74 % 1004,8 hPa 0,0 l/m 7,7 km/h (2 Bft) W-NW 301 8,2 C 18,8 km/h (3 Bft) 100 %
20.03.2017 15:57 12,7 C 75 % 1004,8 hPa 0,0 l/m 6,4 km/h (2 Bft) W-NW 300 8,4 C 12,6 km/h (3 Bft) 100 %
20.03.2017 15:58 12,8 C 75 % 1004,9 hPa 0,0 l/m 9,6 km/h (2 Bft) NO 43 8,5 C 18,8 km/h (3 Bft) 100 %
20.03.2017 15:59 12,8 C 74 % 1004,8 hPa 0,0 l/m 11,8 km/h (2 Bft) NW 309 8,3 C 18,8 km/h (3 Bft) 100 %
20.03.2017 16:00 12,8 C 73 % 1004,8 hPa 0,0 l/m 10,1 km/h (2 Bft) W 275 8,1 C 15,7 km/h (3 Bft) 100 %
20.03.2017 16:01 12,8 C 73 % 1004,8 hPa 0,0 l/m 10,1 km/h (2 Bft) S 174 8,1 C 18,8 km/h (3 Bft) 100 %
20.03.2017 16:02 12,8 C 73 % 1004,8 hPa 0,0 l/m 8,4 km/h (2 Bft) SW 233 8,1 C 18,8 km/h (3 Bft) 100 %
20.03.2017 16:03 12,9 C 74 % 1004,9 hPa 0,0 l/m 10,6 km/h (2 Bft) SW 233 8,4 C 15,7 km/h (3 Bft) 100 %
20.03.2017 16:04 12,9 C 73 % 1004,9 hPa 0,0 l/m 13,5 km/h (3 Bft) W-NW 283 8,2 C 22,0 km/h (4 Bft) 100 %
20.03.2017 16:05 12,9 C 73 % 1004,8 hPa 0,0 l/m 13,1 km/h (3 Bft) SW 231 8,2 C 28,2 km/h (4 Bft) 100 %
20.03.2017 16:06 12,9 C 73 % 1004,8 hPa 0,0 l/m 15,5 km/h (3 Bft) SW 224 8,2 C 40,8 km/h (6 Bft) 100 %
20.03.2017 16:07 12,9 C 73 % 1004,8 hPa 0,0 l/m 13,8 km/h (3 Bft) S-SW 195 8,2 C 18,8 km/h (3 Bft) 100 %
20.03.2017 16:08 12,9 C 73 % 1004,8 hPa 0,0 l/m 8,6 km/h (2 Bft) S-SW 205 8,2 C 18,8 km/h (3 Bft) 100 %
20.03.2017 16:09 12,9 C 73 % 1004,7 hPa 0,0 l/m 6,6 km/h (2 Bft) SW 226 8,2 C 18,8 km/h (3 Bft) 100 %
20.03.2017 16:10 12,9 C 74 % 1004,6 hPa 0,0 l/m 1,3 km/h (1 Bft) W-SW 245 8,4 C 9,4 km/h (2 Bft) 100 %
20.03.2017 16:11 13,0 C 73 % 1004,6 hPa 0,0 l/m 17,0 km/h (3 Bft) SW 229 8,3 C 37,7 km/h (5 Bft) 100 %
20.03.2017 16:12 13,1 C 72 % 1004,6 hPa 0,0 l/m 10,0 km/h (2 Bft) S-SW 208 8,2 C 25,1 km/h (4 Bft) 100 %
20.03.2017 16:13 13,1 C 73 % 1004,7 hPa 0,0 l/m 8,4 km/h (2 Bft) NW 315 8,4 C 15,7 km/h (3 Bft) 100 %
20.03.2017 16:14 13,1 C 72 % 1004,7 hPa 0,0 l/m 14,4 km/h (3 Bft) N-NW 328 8,2 C 31,4 km/h (5 Bft) 100 %
20.03.2017 16:15 13,1 C 72 % 1004,6 hPa 0,0 l/m 13,3 km/h (3 Bft) S 181 8,2 C 34,5 km/h (5 Bft) 100 %
20.03.2017 16:16 13,2 C 72 % 1004,7 hPa 0,0 l/m 10,0 km/h (2 Bft) SO 137 8,3 C 22,0 km/h (4 Bft) 100 %
20.03.2017 16:17 13,2 C 72 % 1004,7 hPa 0,0 l/m 9,6 km/h (2 Bft) W 268 8,3 C 18,8 km/h (3 Bft) 100 %
20.03.2017 16:18 13,2 C 72 % 1004,8 hPa 0,0 l/m 13,8 km/h (3 Bft) W 270 8,3 C 25,1 km/h (4 Bft) 100 %
20.03.2017 16:19 13,2 C 72 % 1004,7 hPa 0,0 l/m 12,4 km/h (3 Bft) NW 305 8,3 C 22,0 km/h (4 Bft) 100 %
20.03.2017 16:20 13,1 C 72 % 1004,7 hPa 0,0 l/m 19,4 km/h (3 Bft) NW 320 8,2 C 43,9 km/h (6 Bft) 100 %
20.03.2017 16:21 13,1 C 72 % 1004,7 hPa 0,0 l/m 8,9 km/h (2 Bft) S 176 8,2 C 28,2 km/h (4 Bft) 100 %
20.03.2017 16:22 13,1 C 72 % 1004,7 hPa 0,0 l/m 9,8 km/h (2 Bft) W-SW 239 8,2 C 18,8 km/h (3 Bft) 100 %
20.03.2017 16:23 13,1 C 71 % 1004,7 hPa 0,0 l/m 13,1 km/h (3 Bft) S 185 8,0 C 18,8 km/h (3 Bft) 100 %
20.03.2017 16:24 13,1 C 71 % 1004,7 hPa 0,0 l/m 16,7 km/h (3 Bft) W-NW 292 8,0 C 25,1 km/h (4 Bft) 97 %
20.03.2017 16:25 13,1 C 72 % 1004,8 hPa 0,0 l/m 6,9 km/h (2 Bft) W-NW 303 8,2 C 22,0 km/h (4 Bft) 94 %
20.03.2017 16:26 13,0 C 72 % 1004,8 hPa 0,0 l/m 10,6 km/h (2 Bft) SW 235 8,1 C 28,2 km/h (4 Bft) 96 %
20.03.2017 16:27 13,0 C 72 % 1004,8 hPa 0,0 l/m 11,6 km/h (2 Bft) SW 235 8,1 C 25,1 km/h (4 Bft) 96 %
20.03.2017 16:28 13,0 C 72 % 1004,8 hPa 0,0 l/m 6,6 km/h (2 Bft) S-SO 153 8,1 C 9,4 km/h (2 Bft) 100 %
20.03.2017 16:29 12,9 C 72 % 1004,8 hPa 0,0 l/m 9,8 km/h (2 Bft) W 278 8,0 C 22,0 km/h (4 Bft) 96 %
20.03.2017 16:30 12,9 C 72 % 1004,8 hPa 0,0 l/m 11,9 km/h (2 Bft) W-NW 292 8,0 C 25,1 km/h (4 Bft) 96 %
20.03.2017 16:31 12,9 C 71 % 1004,9 hPa 0,0 l/m 14,5 km/h (3 Bft) SW 228 7,8 C 22,0 km/h (4 Bft) 100 %
20.03.2017 16:32 12,9 C 71 % 1004,9 hPa 0,0 l/m 10,8 km/h (2 Bft) S 169 7,8 C 28,2 km/h (4 Bft) 96 %
20.03.2017 16:33 12,9 C 72 % 1004,9 hPa 0,0 l/m 8,6 km/h (2 Bft) S-SW 212 8,0 C 22,0 km/h (4 Bft) 100 %
20.03.2017 16:34 12,8 C 72 % 1004,8 hPa 0,0 l/m 8,6 km/h (2 Bft) W 269 7,9 C 22,0 km/h (4 Bft) 93 %
20.03.2017 16:35 12,8 C 72 % 1004,8 hPa 0,0 l/m 10,0 km/h (2 Bft) N-NO 26 7,9 C 18,8 km/h (3 Bft) 100 %
20.03.2017 16:36 12,8 C 72 % 1004,8 hPa 0,0 l/m 9,6 km/h (2 Bft) W-SW 239 7,9 C 22,0 km/h (4 Bft) 93 %
20.03.2017 16:37 12,8 C 72 % 1004,8 hPa 0,0 l/m 6,5 km/h (2 Bft) W 271 7,9 C 12,6 km/h (3 Bft) 97 %
20.03.2017 16:38 12,8 C 72 % 1004,7 hPa 0,0 l/m 14,7 km/h (3 Bft) NW 308 7,9 C 18,8 km/h (3 Bft) 100 %
20.03.2017 16:39 12,8 C 72 % 1004,8 hPa 0,0 l/m 9,7 km/h (2 Bft) N-NW 330 7,9 C 18,8 km/h (3 Bft) 100 %
20.03.2017 16:40 12,8 C 72 % 1004,8 hPa 0,0 l/m 14,0 km/h (3 Bft) S-SW 199 7,9 C 25,1 km/h (4 Bft) 100 %
20.03.2017 16:41 12,8 C 72 % 1004,7 hPa 0,0 l/m 9,6 km/h (2 Bft) W 275 7,9 C 18,8 km/h (3 Bft) 100 %
20.03.2017 16:42 12,7 C 72 % 1004,7 hPa 0,0 l/m 9,6 km/h (2 Bft) W 281 7,8 C 22,0 km/h (4 Bft) 100 %
20.03.2017 16:43 12,7 C 71 % 1004,8 hPa 0,0 l/m 9,8 km/h (2 Bft) S-SO 158 7,6 C 18,8 km/h (3 Bft) 100 %
20.03.2017 16:44 12,7 C 72 % 1004,7 hPa 0,0 l/m 9,4 km/h (2 Bft) SW 234 7,8 C 34,5 km/h (5 Bft) 100 %
20.03.2017 16:45 12,7 C 71 % 1004,6 hPa 0,0 l/m 21,1 km/h (4 Bft) W 277 7,6 C 47,1 km/h (6 Bft) 100 %
20.03.2017 16:46 12,7 C 71 % 1004,7 hPa 0,0 l/m 15,1 km/h (3 Bft) W-NW 301 7,6 C 34,5 km/h (5 Bft) 100 %
20.03.2017 16:47 12,7 C 71 % 1004,6 hPa 0,0 l/m 11,2 km/h (2 Bft) SW 236 7,6 C 18,8 km/h (3 Bft) 100 %
20.03.2017 16:48 12,7 C 72 % 1004,7 hPa 0,0 l/m 2,7 km/h (1 Bft) SW 225 7,8 C 6,3 km/h (2 Bft) 100 %
20.03.2017 16:49 12,7 C 71 % 1004,6 hPa 0,0 l/m 8,6 km/h (2 Bft) W 276 7,6 C 25,1 km/h (4 Bft) 100 %
20.03.2017 16:50 12,7 C 72 % 1004,6 hPa 0,0 l/m 6,4 km/h (2 Bft) S-SW 193 7,8 C 22,0 km/h (4 Bft) 100 %
20.03.2017 16:51 12,7 C 71 % 1004,6 hPa 0,0 l/m 17,6 km/h (3 Bft) S-SW 210 7,6 C 25,1 km/h (4 Bft) 99 %
20.03.2017 16:52 12,7 C 71 % 1004,6 hPa 0,0 l/m 10,3 km/h (2 Bft) S 184 7,6 C 22,0 km/h (4 Bft) 100 %
20.03.2017 16:53 12,7 C 72 % 1004,6 hPa 0,0 l/m 8,9 km/h (2 Bft) W-NW 284 7,8 C 25,1 km/h (4 Bft) 100 %
20.03.2017 16:54 12,7 C 72 % 1004,6 hPa 0,0 l/m 8,0 km/h (2 Bft) S 184 7,8 C 22,0 km/h (4 Bft) 100 %
20.03.2017 16:55 12,7 C 72 % 1004,6 hPa 0,0 l/m 8,6 km/h (2 Bft) S 187 7,8 C 22,0 km/h (4 Bft) 100 %
20.03.2017 16:56 12,7 C 72 % 1004,6 hPa 0,0 l/m 4,8 km/h (1 Bft) NW 308 7,8 C 9,4 km/h (2 Bft) 100 %
20.03.2017 16:57 12,7 C 73 % 1004,7 hPa 0,0 l/m 7,1 km/h (2 Bft) S-SW 212 8,0 C 12,6 km/h (3 Bft) 100 %
20.03.2017 16:58 12,7 C 72 % 1004,7 hPa 0,0 l/m 9,1 km/h (2 Bft) SW 228 7,8 C 18,8 km/h (3 Bft) 100 %
20.03.2017 16:59 12,6 C 72 % 1004,6 hPa 0,0 l/m 9,7 km/h (2 Bft) S-SW 209 7,7 C 18,8 km/h (3 Bft) 100 %
20.03.2017 17:00 12,6 C 71 % 1004,7 hPa 0,0 l/m 17,3 km/h (3 Bft) S-SO 167 7,5 C 31,4 km/h (5 Bft) 100 %
20.03.2017 17:01 12,6 C 72 % 1004,7 hPa 0,0 l/m 11,1 km/h (2 Bft) SW 224 7,7 C 22,0 km/h (4 Bft) 100 %
20.03.2017 17:02 12,6 C 72 % 1004,6 hPa 0,0 l/m 14,0 km/h (3 Bft) W-SW 251 7,7 C 31,4 km/h (5 Bft) 100 %
20.03.2017 17:03 12,6 C 72 % 1004,7 hPa 0,0 l/m 15,5 km/h (3 Bft) NW 325 7,7 C 28,2 km/h (4 Bft) 100 %
20.03.2017 17:04 12,6 C 72 % 1004,7 hPa 0,0 l/m 12,4 km/h (3 Bft) W-SW 257 7,7 C 28,2 km/h (4 Bft) 100 %
20.03.2017 17:05 12,6 C 72 % 1004,7 hPa 0,0 l/m 9,2 km/h (2 Bft) W-SW 240 7,7 C 15,7 km/h (3 Bft) 100 %
20.03.2017 17:06 12,6 C 72 % 1004,7 hPa 0,0 l/m 17,3 km/h (3 Bft) SW 235 7,7 C 37,7 km/h (5 Bft) 100 %
20.03.2017 17:07 12,6 C 72 % 1004,7 hPa 0,0 l/m 11,7 km/h (2 Bft) W 276 7,7 C 22,0 km/h (4 Bft) 100 %
20.03.2017 17:08 12,6 C 72 % 1004,7 hPa 0,0 l/m 11,8 km/h (2 Bft) W 279 7,7 C 18,8 km/h (3 Bft) 100 %
20.03.2017 17:09 12,6 C 72 % 1004,7 hPa 0,0 l/m 11,1 km/h (2 Bft) S-SO 152 7,7 C 28,2 km/h (4 Bft) 100 %
20.03.2017 17:10 12,5 C 73 % 1004,7 hPa 0,0 l/m 8,9 km/h (2 Bft) S 176 7,8 C 15,7 km/h (3 Bft) 100 %
20.03.2017 17:11 12,5 C 72 % 1004,7 hPa 0,0 l/m 12,3 km/h (3 Bft) SW 236 7,6 C 22,0 km/h (4 Bft) 100 %
20.03.2017 17:12 12,5 C 72 % 1004,6 hPa 0,0 l/m 10,2 km/h (2 Bft) NW 305 7,6 C 22,0 km/h (4 Bft) 100 %
20.03.2017 17:13 12,5 C 73 % 1004,7 hPa 0,0 l/m 6,7 km/h (2 Bft) W-SW 248 7,8 C 15,7 km/h (3 Bft) 100 %
20.03.2017 17:14 12,5 C 73 % 1004,6 hPa 0,0 l/m 11,6 km/h (2 Bft) W 269 7,8 C 31,4 km/h (5 Bft) 100 %
20.03.2017 17:15 12,4 C 73 % 1004,6 hPa 0,0 l/m 15,2 km/h (3 Bft) W-NW 286 7,7 C 25,1 km/h (4 Bft) 100 %
20.03.2017 17:16 12,4 C 73 % 1004,6 hPa 0,0 l/m 11,1 km/h (2 Bft) SW 231 7,7 C 25,1 km/h (4 Bft) 100 %
20.03.2017 17:17 12,4 C 73 % 1004,6 hPa 0,0 l/m 8,5 km/h (2 Bft) O-SO 108 7,7 C 22,0 km/h (4 Bft) 100 %
20.03.2017 17:18 12,4 C 73 % 1004,6 hPa 0,0 l/m 8,8 km/h (2 Bft) S 187 7,7 C 25,1 km/h (4 Bft) 100 %
20.03.2017 17:19 12,4 C 73 % 1004,6 hPa 0,0 l/m 8,6 km/h (2 Bft) SW 224 7,7 C 18,8 km/h (3 Bft) 100 %
20.03.2017 17:20 12,4 C 73 % 1004,6 hPa 0,0 l/m 9,4 km/h (2 Bft) S-SW 195 7,7 C 18,8 km/h (3 Bft) 100 %
20.03.2017 17:21 12,3 C 73 % 1004,7 hPa 0,0 l/m 8,6 km/h (2 Bft) W 271 7,6 C 18,8 km/h (3 Bft) 100 %
20.03.2017 17:22 12,3 C 73 % 1004,6 hPa 0,0 l/m 12,6 km/h (3 Bft) NW 305 7,6 C 31,4 km/h (5 Bft) 100 %
20.03.2017 17:23 12,3 C 73 % 1004,6 hPa 0,0 l/m 17,3 km/h (3 Bft) N-NW 335 7,6 C 28,2 km/h (4 Bft) 100 %
20.03.2017 17:24 12,3 C 73 % 1004,6 hPa 0,0 l/m 7,8 km/h (2 Bft) SW 219 7,6 C 18,8 km/h (3 Bft) 100 %
20.03.2017 17:25 12,3 C 73 % 1004,6 hPa 0,0 l/m 12,2 km/h (2 Bft) W-NW 293 7,6 C 34,5 km/h (5 Bft) 100 %
20.03.2017 17:26 12,3 C 73 % 1004,6 hPa 0,0 l/m 15,7 km/h (3 Bft) S-SW 194 7,6 C 31,4 km/h (5 Bft) 100 %
20.03.2017 17:27 12,3 C 73 % 1004,5 hPa 0,0 l/m 17,4 km/h (3 Bft) SW 224 7,6 C 28,2 km/h (4 Bft) 100 %
20.03.2017 17:28 12,3 C 73 % 1004,5 hPa 0,0 l/m 12,7 km/h (3 Bft) SW 233 7,6 C 34,5 km/h (5 Bft) 96 %
20.03.2017 17:29 12,3 C 73 % 1004,5 hPa 0,0 l/m 3,8 km/h (1 Bft) W-SW 246 7,6 C 6,3 km/h (2 Bft) 96 %
20.03.2017 17:30 12,2 C 73 % 1004,6 hPa 0,0 l/m 5,6 km/h (1 Bft) SO 128 7,5 C 15,7 km/h (3 Bft) 92 %
20.03.2017 17:31 12,2 C 74 % 1004,6 hPa 0,0 l/m 9,0 km/h (2 Bft) W-SW 237 7,7 C 15,7 km/h (3 Bft) 100 %
20.03.2017 17:32 12,2 C 73 % 1004,6 hPa 0,0 l/m 10,7 km/h (2 Bft) SW 224 7,5 C 15,7 km/h (3 Bft) 100 %
20.03.2017 17:33 12,2 C 74 % 1004,7 hPa 0,0 l/m 10,1 km/h (2 Bft) S-SW 207 7,7 C 15,7 km/h (3 Bft) 97 %
20.03.2017 17:34 12,2 C 74 % 1004,6 hPa 0,0 l/m 8,6 km/h (2 Bft) W-NW 290 7,7 C 22,0 km/h (4 Bft) 100 %
20.03.2017 17:35 12,2 C 74 % 1004,6 hPa 0,0 l/m 12,1 km/h (2 Bft) W 259 7,7 C 22,0 km/h (4 Bft) 96 %
20.03.2017 17:36 12,1 C 74 % 1004,6 hPa 0,0 l/m 14,9 km/h (3 Bft) W 272 7,6 C 22,0 km/h (4 Bft) 99 %
20.03.2017 17:37 12,1 C 74 % 1004,6 hPa 0,0 l/m 18,8 km/h (3 Bft) S-SO 166 7,6 C 34,5 km/h (5 Bft) 98 %
20.03.2017 17:38 12,1 C 74 % 1004,5 hPa 0,0 l/m 9,7 km/h (2 Bft) W-SW 248 7,6 C 18,8 km/h (3 Bft) 100 %
20.03.2017 17:39 12,1 C 74 % 1004,5 hPa 0,0 l/m 10,0 km/h (2 Bft) SW 217 7,6 C 22,0 km/h (4 Bft) 96 %
20.03.2017 17:40 12,1 C 74 % 1004,6 hPa 0,0 l/m 1,4 km/h (1 Bft) S-SW 210 7,6 C 9,4 km/h (2 Bft) 96 %
20.03.2017 17:41 12,1 C 74 % 1004,6 hPa 0,0 l/m 8,6 km/h (2 Bft) NW 307 7,6 C 18,8 km/h (3 Bft) 100 %
20.03.2017 17:42 12,1 C 74 % 1004,5 hPa 0,0 l/m 14,4 km/h (3 Bft) S-SW 210 7,6 C 28,2 km/h (4 Bft) 96 %
20.03.2017 17:43 12,1 C 74 % 1004,5 hPa 0,0 l/m 20,9 km/h (4 Bft) W 271 7,6 C 25,1 km/h (4 Bft) 100 %
20.03.2017 17:44 12,1 C 74 % 1004,5 hPa 0,0 l/m 11,1 km/h (2 Bft) W-SW 247 7,6 C 37,7 km/h (5 Bft) 100 %
20.03.2017 17:45 12,1 C 74 % 1004,5 hPa 0,0 l/m 10,9 km/h (2 Bft) S 177 7,6 C 28,2 km/h (4 Bft) 100 %
20.03.2017 17:46 12,0 C 74 % 1004,5 hPa 0,0 l/m 17,1 km/h (3 Bft) SW 233 7,5 C 37,7 km/h (5 Bft) 100 %
20.03.2017 17:47 12,0 C 74 % 1004,5 hPa 0,0 l/m 13,1 km/h (3 Bft) SO 138 7,5 C 22,0 km/h (4 Bft) 100 %
20.03.2017 17:48 12,1 C 74 % 1004,6 hPa 0,0 l/m 15,4 km/h (3 Bft) S-SW 204 7,6 C 25,1 km/h (4 Bft) 100 %
20.03.2017 17:49 12,0 C 74 % 1004,6 hPa 0,0 l/m 10,2 km/h (2 Bft) NW 324 7,5 C 25,1 km/h (4 Bft) 100 %
20.03.2017 17:50 12,0 C 74 % 1004,6 hPa 0,0 l/m 5,1 km/h (1 Bft) W 261 7,5 C 9,4 km/h (2 Bft) 100 %
20.03.2017 17:51 12,0 C 74 % 1004,6 hPa 0,0 l/m 3,1 km/h (1 Bft) N-NO 32 7,5 C 6,3 km/h (2 Bft) 100 %
20.03.2017 17:52 12,0 C 74 % 1004,6 hPa 0,0 l/m 10,8 km/h (2 Bft) SW 224 7,5 C 22,0 km/h (4 Bft) 100 %
20.03.2017 17:53 12,0 C 74 % 1004,6 hPa 0,0 l/m 9,8 km/h (2 Bft) S-SW 208 7,5 C 22,0 km/h (4 Bft) 100 %
20.03.2017 17:54 12,0 C 74 % 1004,6 hPa 0,0 l/m 8,2 km/h (2 Bft) W-NW 300 7,5 C 18,8 km/h (3 Bft) 100 %
20.03.2017 17:55 11,9 C 74 % 1004,6 hPa 0,0 l/m 15,8 km/h (3 Bft) SW 219 7,4 C 28,2 km/h (4 Bft) 100 %
20.03.2017 17:56 11,9 C 74 % 1004,6 hPa 0,0 l/m 11,8 km/h (2 Bft) W-NW 293 7,4 C 15,7 km/h (3 Bft) 100 %
20.03.2017 17:57 11,9 C 74 % 1004,6 hPa 0,0 l/m 12,9 km/h (3 Bft) W-SW 251 7,4 C 28,2 km/h (4 Bft) 100 %
20.03.2017 17:58 11,9 C 74 % 1004,7 hPa 0,0 l/m 9,4 km/h (2 Bft) S-SW 210 7,4 C 18,8 km/h (3 Bft) 100 %
20.03.2017 17:59 11,9 C 74 % 1004,7 hPa 0,0 l/m 3,0 km/h (1 Bft) SW 219 7,4 C 6,3 km/h (2 Bft) 100 %
20.03.2017 18:00 11,9 C 75 % 1004,7 hPa 0,0 l/m 3,5 km/h (1 Bft) W-NW 285 7,6 C 6,3 km/h (2 Bft) 100 %
20.03.2017 18:01 11,9 C 75 % 1004,7 hPa 0,0 l/m 9,0 km/h (2 Bft) N-NW 335 7,6 C 18,8 km/h (3 Bft) 100 %
20.03.2017 18:02 11,9 C 75 % 1004,7 hPa 0,0 l/m 6,4 km/h (2 Bft) SW 220 7,6 C 12,6 km/h (3 Bft) 100 %
20.03.2017 18:03 11,8 C 75 % 1004,7 hPa 0,0 l/m 6,3 km/h (2 Bft) O-SO 102 7,5 C 12,6 km/h (3 Bft) 100 %
20.03.2017 18:04 11,8 C 75 % 1004,7 hPa 0,0 l/m 7,1 km/h (2 Bft) SW 230 7,5 C 15,7 km/h (3 Bft) 100 %
20.03.2017 18:05 11,8 C 75 % 1004,8 hPa 0,0 l/m 8,6 km/h (2 Bft) W-NW 289 7,5 C 22,0 km/h (4 Bft) 100 %
20.03.2017 18:06 11,8 C 75 % 1004,7 hPa 0,0 l/m 3,7 km/h (1 Bft) O 84 7,5 C 6,3 km/h (2 Bft) 100 %
20.03.2017 18:07 11,8 C 75 % 1004,7 hPa 0,0 l/m 4,2 km/h (1 Bft) N-NW 342 7,5 C 12,6 km/h (3 Bft) 100 %
20.03.2017 18:08 11,8 C 75 % 1004,7 hPa 0,0 l/m 5,2 km/h (1 Bft) S-SW 213 7,5 C 9,4 km/h (2 Bft) 100 %
20.03.2017 18:09 11,8 C 75 % 1004,7 hPa 0,0 l/m 8,2 km/h (2 Bft) W-NW 285 7,5 C 18,8 km/h (3 Bft) 100 %
20.03.2017 18:10 11,8 C 75 % 1004,7 hPa 0,0 l/m 9,0 km/h (2 Bft) W-SW 251 7,5 C 15,7 km/h (3 Bft) 100 %
20.03.2017 18:11 11,8 C 75 % 1004,7 hPa 0,0 l/m 4,5 km/h (1 Bft) S 180 7,5 C 9,4 km/h (2 Bft) 100 %
20.03.2017 18:12 11,8 C 75 % 1004,7 hPa 0,0 l/m 7,6 km/h (2 Bft) S-SW 204 7,5 C 15,7 km/h (3 Bft) 100 %
20.03.2017 18:13 11,8 C 75 % 1004,7 hPa 0,0 l/m 2,5 km/h (1 Bft) SW 236 7,5 C 9,4 km/h (2 Bft) 100 %
20.03.2017 18:14 11,8 C 75 % 1004,7 hPa 0,0 l/m 1,4 km/h (1 Bft) NW 304 7,5 C 6,3 km/h (2 Bft) 100 %
20.03.2017 18:15 11,7 C 75 % 1004,7 hPa 0,0 l/m 3,7 km/h (1 Bft) SW 224 7,4 C 6,3 km/h (2 Bft) 100 %
20.03.2017 18:16 11,7 C 76 % 1004,7 hPa 0,0 l/m 4,2 km/h (1 Bft) W-SW 238 7,6 C 12,6 km/h (3 Bft) 100 %
20.03.2017 18:17 11,7 C 75 % 1004,7 hPa 0,0 l/m 11,7 km/h (2 Bft) W 260 7,4 C 25,1 km/h (4 Bft) 100 %
20.03.2017 18:18 11,7 C 75 % 1004,7 hPa 0,0 l/m 5,0 km/h (1 Bft) NW 309 7,4 C 15,7 km/h (3 Bft) 100 %
20.03.2017 18:19 11,7 C 75 % 1004,7 hPa 0,0 l/m 8,9 km/h (2 Bft) W-SW 256 7,4 C 18,8 km/h (3 Bft) 100 %
20.03.2017 18:20 11,7 C 75 % 1004,7 hPa 0,0 l/m 5,9 km/h (2 Bft) W 277 7,4 C 9,4 km/h (2 Bft) 100 %
20.03.2017 18:21 11,7 C 75 % 1004,7 hPa 0,0 l/m 8,8 km/h (2 Bft) W 271 7,4 C 12,6 km/h (3 Bft) 100 %
20.03.2017 18:22 11,7 C 75 % 1004,7 hPa 0,0 l/m 10,5 km/h (2 Bft) W-SW 251 7,4 C 18,8 km/h (3 Bft) 100 %
20.03.2017 18:23 11,7 C 75 % 1004,7 hPa 0,0 l/m 8,4 km/h (2 Bft) SW 223 7,4 C 18,8 km/h (3 Bft) 100 %
20.03.2017 18:24 11,7 C 75 % 1004,7 hPa 0,0 l/m 2,7 km/h (1 Bft) S-SW 200 7,4 C 12,6 km/h (3 Bft) 100 %
20.03.2017 18:25 11,7 C 75 % 1004,6 hPa 0,0 l/m 5,5 km/h (1 Bft) SW 219 7,4 C 12,6 km/h (3 Bft) 100 %
20.03.2017 18:26 11,7 C 75 % 1004,6 hPa 0,0 l/m 7,7 km/h (2 Bft) S-SW 205 7,4 C 18,8 km/h (3 Bft) 100 %
20.03.2017 18:27 11,6 C 75 % 1004,6 hPa 0,0 l/m 9,3 km/h (2 Bft) SW 222 7,3 C 18,8 km/h (3 Bft) 100 %
20.03.2017 18:28 11,6 C 75 % 1004,6 hPa 0,0 l/m 5,7 km/h (1 Bft) W 265 7,3 C 12,6 km/h (3 Bft) 100 %
20.03.2017 18:29 11,6 C 75 % 1004,6 hPa 0,0 l/m 6,7 km/h (2 Bft) W-SW 241 7,3 C 12,6 km/h (3 Bft) 100 %
20.03.2017 18:30 11,6 C 75 % 1004,5 hPa 0,0 l/m 9,8 km/h (2 Bft) W-SW 256 7,3 C 18,8 km/h (3 Bft) 100 %
20.03.2017 18:31 11,6 C 75 % 1004,5 hPa 0,0 l/m 7,3 km/h (2 Bft) W-SW 257 7,3 C 12,6 km/h (3 Bft) 100 %
20.03.2017 18:32 11,6 C 75 % 1004,5 hPa 0,0 l/m 8,3 km/h (2 Bft) W 265 7,3 C 12,6 km/h (3 Bft) 100 %
20.03.2017 18:33 11,6 C 75 % 1004,5 hPa 0,0 l/m 5,3 km/h (1 Bft) S 173 7,3 C 12,6 km/h (3 Bft) 100 %
20.03.2017 18:34 11,6 C 75 % 1004,5 hPa 0,0 l/m 9,4 km/h (2 Bft) S 176 7,3 C 12,6 km/h (3 Bft) 100 %
20.03.2017 18:35 11,6 C 76 % 1004,5 hPa 0,0 l/m 2,7 km/h (1 Bft) W 264 7,5 C 6,3 km/h (2 Bft) 100 %
20.03.2017 18:36 11,5 C 75 % 1004,5 hPa 0,0 l/m 6,1 km/h (2 Bft) SW 224 7,2 C 15,7 km/h (3 Bft) 100 %
20.03.2017 18:37 11,5 C 75 % 1004,4 hPa 0,0 l/m 13,1 km/h (3 Bft) W-SW 249 7,2 C 31,4 km/h (5 Bft) 96 %
20.03.2017 18:38 11,5 C 75 % 1004,4 hPa 0,0 l/m 9,6 km/h (2 Bft) W-SW 244 7,2 C 15,7 km/h (3 Bft) 92 %
20.03.2017 18:39 11,5 C 75 % 1004,4 hPa 0,0 l/m 7,8 km/h (2 Bft) SO 139 7,2 C 12,6 km/h (3 Bft) 100 %
20.03.2017 18:40 11,4 C 76 % 1004,5 hPa 0,0 l/m 2,7 km/h (1 Bft) N-NW 333 7,3 C 6,3 km/h (2 Bft) 97 %
20.03.2017 18:41 11,4 C 76 % 1004,4 hPa 0,0 l/m 7,5 km/h (2 Bft) W 270 7,3 C 18,8 km/h (3 Bft) 100 %
20.03.2017 18:42 11,4 C 76 % 1004,4 hPa 0,0 l/m 11,4 km/h (2 Bft) SW 233 7,3 C 22,0 km/h (4 Bft) 100 %
20.03.2017 18:43 11,4 C 76 % 1004,4 hPa 0,0 l/m 3,0 km/h (1 Bft) W-SW 256 7,3 C 9,4 km/h (2 Bft) 96 %
20.03.2017 18:44 11,4 C 76 % 1004,4 hPa 0,0 l/m 17,9 km/h (3 Bft) S 186 7,3 C 34,5 km/h (5 Bft) 100 %
20.03.2017 18:45 11,4 C 76 % 1004,4 hPa 0,0 l/m 2,5 km/h (1 Bft) SW 233 7,3 C 9,4 km/h (2 Bft) 97 %
20.03.2017 18:46 11,4 C 76 % 1004,5 hPa 0,0 l/m 9,2 km/h (2 Bft) W-NW 296 7,3 C 28,2 km/h (4 Bft) 100 %
20.03.2017 18:47 11,4 C 76 % 1004,5 hPa 0,0 l/m 8,5 km/h (2 Bft) W-NW 285 7,3 C 31,4 km/h (5 Bft) 98 %
20.03.2017 18:48 11,4 C 76 % 1004,5 hPa 0,0 l/m 7,5 km/h (2 Bft) S-SW 199 7,3 C 12,6 km/h (3 Bft) 96 %
20.03.2017 18:49 11,4 C 76 % 1004,5 hPa 0,0 l/m 8,9 km/h (2 Bft) W-SW 255 7,3 C 15,7 km/h (3 Bft) 100 %
20.03.2017 18:50 11,4 C 76 % 1004,4 hPa 0,0 l/m 12,1 km/h (2 Bft) SW 221 7,3 C 22,0 km/h (4 Bft) 97 %
20.03.2017 18:51 11,4 C 76 % 1004,4 hPa 0,0 l/m 13,5 km/h (3 Bft) SW 222 7,3 C 22,0 km/h (4 Bft) 100 %
20.03.2017 18:52 11,4 C 76 % 1004,4 hPa 0,0 l/m 12,4 km/h (3 Bft) S 190 7,3 C 18,8 km/h (3 Bft) 96 %
20.03.2017 18:53 11,4 C 76 % 1004,3 hPa 0,0 l/m 12,6 km/h (3 Bft) NW 306 7,3 C 34,5 km/h (5 Bft) 100 %
20.03.2017 18:54 11,4 C 75 % 1004,3 hPa 0,0 l/m 17,3 km/h (3 Bft) W-SW 252 7,1 C 28,2 km/h (4 Bft) 96 %
20.03.2017 18:55 11,4 C 76 % 1004,3 hPa 0,0 l/m 9,4 km/h (2 Bft) SW 236 7,3 C 28,2 km/h (4 Bft) 100 %
20.03.2017 18:56 11,4 C 76 % 1004,2 hPa 0,0 l/m 9,4 km/h (2 Bft) SW 221 7,3 C 15,7 km/h (3 Bft) 100 %
20.03.2017 18:57 11,4 C 76 % 1004,3 hPa 0,0 l/m 11,6 km/h (2 Bft) W-SW 247 7,3 C 18,8 km/h (3 Bft) 100 %
20.03.2017 18:58 11,4 C 76 % 1004,3 hPa 0,0 l/m 11,0 km/h (2 Bft) S-SO 153 7,3 C 22,0 km/h (4 Bft) 100 %
20.03.2017 18:59 11,3 C 76 % 1004,4 hPa 0,0 l/m 9,1 km/h (2 Bft) SW 219 7,2 C 15,7 km/h (3 Bft) 100 %
20.03.2017 19:00 11,3 C 76 % 1004,4 hPa 0,0 l/m 12,3 km/h (3 Bft) S-SW 199 7,2 C 25,1 km/h (4 Bft) 100 %
20.03.2017 19:01 11,3 C 76 % 1004,4 hPa 0,0 l/m 9,9 km/h (2 Bft) W-SW 256 7,2 C 18,8 km/h (3 Bft) 100 %
20.03.2017 19:02 11,3 C 76 % 1004,4 hPa 0,0 l/m 12,8 km/h (3 Bft) W-NW 285 7,2 C 25,1 km/h (4 Bft) 100 %
20.03.2017 19:03 11,3 C 76 % 1004,4 hPa 0,0 l/m 7,3 km/h (2 Bft) S-SW 212 7,2 C 22,0 km/h (4 Bft) 100 %
20.03.2017 19:04 11,3 C 76 % 1004,5 hPa 0,0 l/m 16,4 km/h (3 Bft) W-NW 283 7,2 C 25,1 km/h (4 Bft) 100 %
20.03.2017 19:05 11,3 C 76 % 1004,5 hPa 0,0 l/m 14,5 km/h (3 Bft) W-SW 254 7,2 C 22,0 km/h (4 Bft) 100 %
20.03.2017 19:06 11,3 C 76 % 1004,5 hPa 0,0 l/m 12,7 km/h (3 Bft) S 176 7,2 C 22,0 km/h (4 Bft) 100 %
20.03.2017 19:07 11,3 C 76 % 1004,4 hPa 0,0 l/m 6,5 km/h (2 Bft) S 190 7,2 C 22,0 km/h (4 Bft) 100 %
20.03.2017 19:08 11,3 C 76 % 1004,4 hPa 0,0 l/m 3,7 km/h (1 Bft) O-NO 68 7,2 C 12,6 km/h (3 Bft) 100 %
20.03.2017 19:09 11,3 C 76 % 1004,4 hPa 0,0 l/m 5,6 km/h (1 Bft) N-NW 342 7,2 C 22,0 km/h (4 Bft) 100 %
20.03.2017 19:10 11,2 C 76 % 1004,4 hPa 0,0 l/m 6,6 km/h (2 Bft) W 277 7,1 C 18,8 km/h (3 Bft) 100 %
20.03.2017 19:11 11,2 C 76 % 1004,4 hPa 0,0 l/m 14,9 km/h (3 Bft) N-NO 28 7,1 C 34,5 km/h (5 Bft) 100 %
20.03.2017 19:12 11,3 C 76 % 1004,4 hPa 0,0 l/m 9,8 km/h (2 Bft) SW 221 7,2 C 18,8 km/h (3 Bft) 100 %
20.03.2017 19:13 11,3 C 76 % 1004,4 hPa 0,0 l/m 5,9 km/h (2 Bft) O-SO 112 7,2 C 12,6 km/h (3 Bft) 100 %
20.03.2017 19:14 11,3 C 76 % 1004,4 hPa 0,0 l/m 3,6 km/h (1 Bft) W 275 7,2 C 6,3 km/h (2 Bft) 100 %
20.03.2017 19:15 11,2 C 76 % 1004,4 hPa 0,0 l/m 7,3 km/h (2 Bft) NW 326 7,1 C 12,6 km/h (3 Bft) 100 %
20.03.2017 19:17 11,2 C 76 % 1004,3 hPa 0,0 l/m 9,3 km/h (2 Bft) S-SW 205 7,1 C 18,8 km/h (3 Bft) 100 %
20.03.2017 19:18 11,2 C 76 % 1004,3 hPa 0,0 l/m 4,2 km/h (1 Bft) W 269 7,1 C 9,4 km/h (2 Bft) 100 %
20.03.2017 19:19 11,2 C 76 % 1004,3 hPa 0,0 l/m 8,4 km/h (2 Bft) S-SW 197 7,1 C 18,8 km/h (3 Bft) 100 %
20.03.2017 19:20 11,2 C 76 % 1004,3 hPa 0,0 l/m 17,5 km/h (3 Bft) N-NW 328 7,1 C 31,4 km/h (5 Bft) 100 %
20.03.2017 19:21 11,2 C 76 % 1004,2 hPa 0,0 l/m 7,9 km/h (2 Bft) NW 308 7,1 C 18,8 km/h (3 Bft) 100 %
20.03.2017 19:22 11,2 C 76 % 1004,3 hPa 0,0 l/m 8,4 km/h (2 Bft) W 277 7,1 C 22,0 km/h (4 Bft) 100 %
20.03.2017 19:23 11,2 C 77 % 1004,3 hPa 0,0 l/m 8,2 km/h (2 Bft) SO 146 7,3 C 22,0 km/h (4 Bft) 100 %
20.03.2017 19:24 11,2 C 77 % 1004,3 hPa 0,0 l/m 6,4 km/h (2 Bft) SW 215 7,3 C 12,6 km/h (3 Bft) 100 %
20.03.2017 19:25 11,2 C 77 % 1004,3 hPa 0,0 l/m 4,2 km/h (1 Bft) W-SW 252 7,3 C 15,7 km/h (3 Bft) 100 %
20.03.2017 19:26 11,2 C 77 % 1004,3 hPa 0,0 l/m 9,3 km/h (2 Bft) S-SW 209 7,3 C 31,4 km/h (5 Bft) 100 %
20.03.2017 19:27 11,2 C 77 % 1004,3 hPa 0,0 l/m 17,9 km/h (3 Bft) W-SW 256 7,3 C 40,8 km/h (6 Bft) 100 %
20.03.2017 19:28 11,2 C 77 % 1004,3 hPa 0,0 l/m 10,2 km/h (2 Bft) SW 233 7,3 C 25,1 km/h (4 Bft) 100 %
20.03.2017 19:29 11,2 C 77 % 1004,4 hPa 0,0 l/m 10,0 km/h (2 Bft) NW 321 7,3 C 15,7 km/h (3 Bft) 100 %
20.03.2017 19:30 11,2 C 77 % 1004,4 hPa 0,0 l/m 8,1 km/h (2 Bft) W 278 7,3 C 25,1 km/h (4 Bft) 100 %
20.03.2017 19:32 11,2 C 77 % 1004,4 hPa 0,0 l/m 15,6 km/h (3 Bft) W-NW 297 7,3 C 43,9 km/h (6 Bft) 100 %
20.03.2017 19:33 11,2 C 77 % 1004,4 hPa 0,0 l/m 11,9 km/h (2 Bft) S 178 7,3 C 22,0 km/h (4 Bft) 100 %
20.03.2017 19:34 11,2 C 77 % 1004,4 hPa 0,0 l/m 6,7 km/h (2 Bft) W-SW 252 7,3 C 15,7 km/h (3 Bft) 100 %
20.03.2017 19:35 11,2 C 77 % 1004,4 hPa 0,0 l/m 8,0 km/h (2 Bft) W-SW 251 7,3 C 15,7 km/h (3 Bft) 100 %
20.03.2017 19:36 11,2 C 77 % 1004,4 hPa 0,0 l/m 9,2 km/h (2 Bft) S-SW 203 7,3 C 18,8 km/h (3 Bft) 100 %
20.03.2017 19:37 11,2 C 77 % 1004,4 hPa 0,0 l/m 8,9 km/h (2 Bft) S-SW 193 7,3 C 15,7 km/h (3 Bft) 100 %
20.03.2017 19:38 11,1 C 77 % 1004,4 hPa 0,0 l/m 13,7 km/h (3 Bft) W-NW 285 7,2 C 25,1 km/h (4 Bft) 100 %
20.03.2017 19:39 11,1 C 77 % 1004,4 hPa 0,0 l/m 15,1 km/h (3 Bft) W-SW 243 7,2 C 31,4 km/h (5 Bft) 100 %
20.03.2017 19:40 11,1 C 77 % 1004,4 hPa 0,0 l/m 6,6 km/h (2 Bft) S-SW 198 7,2 C 12,6 km/h (3 Bft) 100 %
20.03.2017 19:41 11,1 C 77 % 1004,3 hPa 0,0 l/m 10,5 km/h (2 Bft) S 191 7,2 C 22,0 km/h (4 Bft) 100 %
20.03.2017 19:42 11,1 C 77 % 1004,4 hPa 0,0 l/m 9,2 km/h (2 Bft) SW 215 7,2 C 15,7 km/h (3 Bft) 100 %
20.03.2017 19:43 11,1 C 77 % 1004,4 hPa 0,0 l/m 6,9 km/h (2 Bft) O-SO 107 7,2 C 18,8 km/h (3 Bft) 100 %
20.03.2017 19:44 11,1 C 77 % 1004,3 hPa 0,0 l/m 7,6 km/h (2 Bft) W-NW 282 7,2 C 25,1 km/h (4 Bft) 100 %
20.03.2017 19:45 11,1 C 77 % 1004,4 hPa 0,0 l/m 7,5 km/h (2 Bft) SW 224 7,2 C 22,0 km/h (4 Bft) 100 %
20.03.2017 19:46 11,1 C 77 % 1004,4 hPa 0,0 l/m 16,7 km/h (3 Bft) SW 229 7,2 C 31,4 km/h (5 Bft) 100 %
20.03.2017 19:47 11,1 C 77 % 1004,5 hPa 0,0 l/m 13,7 km/h (3 Bft) SW 231 7,2 C 22,0 km/h (4 Bft) 100 %
20.03.2017 19:48 11,1 C 77 % 1004,5 hPa 0,0 l/m 10,2 km/h (2 Bft) NW 309 7,2 C 18,8 km/h (3 Bft) 100 %
20.03.2017 19:49 11,1 C 77 % 1004,6 hPa 0,0 l/m 15,8 km/h (3 Bft) O-NO 57 7,2 C 28,2 km/h (4 Bft) 100 %
20.03.2017 19:50 11,1 C 77 % 1004,6 hPa 0,0 l/m 13,5 km/h (3 Bft) W 260 7,2 C 22,0 km/h (4 Bft) 100 %
20.03.2017 19:51 11,1 C 77 % 1004,6 hPa 0,0 l/m 12,3 km/h (3 Bft) SW 227 7,2 C 18,8 km/h (3 Bft) 100 %
20.03.2017 19:52 11,1 C 77 % 1004,5 hPa 0,0 l/m 12,7 km/h (3 Bft) N-NW 331 7,2 C 22,0 km/h (4 Bft) 100 %
20.03.2017 19:53 11,1 C 77 % 1004,6 hPa 0,0 l/m 11,1 km/h (2 Bft) W 272 7,2 C 25,1 km/h (4 Bft) 100 %
20.03.2017 19:54 11,1 C 77 % 1004,6 hPa 0,0 l/m 11,8 km/h (2 Bft) W-SW 241 7,2 C 18,8 km/h (3 Bft) 100 %
20.03.2017 19:55 11,1 C 77 % 1004,7 hPa 0,0 l/m 10,2 km/h (2 Bft) N 357 7,2 C 18,8 km/h (3 Bft) 100 %
20.03.2017 19:56 11,1 C 77 % 1004,7 hPa 0,0 l/m 11,1 km/h (2 Bft) W-NW 294 7,2 C 22,0 km/h (4 Bft) 96 %
20.03.2017 19:57 11,0 C 77 % 1004,7 hPa 0,0 l/m 7,1 km/h (2 Bft) W-SW 240 7,1 C 18,8 km/h (3 Bft) 100 %
20.03.2017 19:58 11,0 C 78 % 1004,7 hPa 0,0 l/m 5,5 km/h (1 Bft) W-NW 286 7,3 C 9,4 km/h (2 Bft) 100 %
20.03.2017 19:59 11,0 C 78 % 1004,7 hPa 0,0 l/m 4,6 km/h (1 Bft) O 93 7,3 C 9,4 km/h (2 Bft) 93 %
20.03.2017 20:00 11,0 C 78 % 1004,7 hPa 0,0 l/m 7,7 km/h (2 Bft) O-SO 116 7,3 C 22,0 km/h (4 Bft) 96 %
20.03.2017 20:01 11,0 C 78 % 1004,8 hPa 0,0 l/m 4,1 km/h (1 Bft) S 179 7,3 C 9,4 km/h (2 Bft) 100 %
20.03.2017 20:02 11,0 C 78 % 1004,8 hPa 0,0 l/m 7,3 km/h (2 Bft) W 271 7,3 C 15,7 km/h (3 Bft) 96 %
20.03.2017 20:03 11,0 C 78 % 1004,8 hPa 0,0 l/m 11,5 km/h (2 Bft) SW 226 7,3 C 22,0 km/h (4 Bft) 100 %
20.03.2017 20:04 11,0 C 78 % 1004,8 hPa 0,0 l/m 13,3 km/h (3 Bft) SO 136 7,3 C 22,0 km/h (4 Bft) 96 %
20.03.2017 20:05 11,0 C 78 % 1004,9 hPa 0,0 l/m 11,1 km/h (2 Bft) SW 232 7,3 C 18,8 km/h (3 Bft) 100 %
20.03.2017 20:06 11,0 C 78 % 1004,9 hPa 0,0 l/m 8,9 km/h (2 Bft) W 266 7,3 C 18,8 km/h (3 Bft) 96 %
20.03.2017 20:07 11,0 C 78 % 1004,9 hPa 0,0 l/m 8,4 km/h (2 Bft) NW 308 7,3 C 12,6 km/h (3 Bft) 96 %
20.03.2017 20:08 11,0 C 78 % 1004,9 hPa 0,0 l/m 8,9 km/h (2 Bft) SW 230 7,3 C 25,1 km/h (4 Bft) 100 %
20.03.2017 20:09 10,9 C 78 % 1004,8 hPa 0,0 l/m 4,2 km/h (1 Bft) S-SW 196 7,2 C 9,4 km/h (2 Bft) 96 %
20.03.2017 20:10 11,0 C 78 % 1004,9 hPa 0,0 l/m 9,7 km/h (2 Bft) S 191 7,3 C 28,2 km/h (4 Bft) 100 %
20.03.2017 20:11 11,0 C 78 % 1004,8 hPa 0,0 l/m 11,0 km/h (2 Bft) S-SW 198 7,3 C 25,1 km/h (4 Bft) 96 %
20.03.2017 20:12 11,0 C 78 % 1004,9 hPa 0,0 l/m 5,6 km/h (1 Bft) SW 219 7,3 C 15,7 km/h (3 Bft) 100 %
20.03.2017 20:13 10,9 C 78 % 1004,9 hPa 0,0 l/m 10,9 km/h (2 Bft) SW 225 7,2 C 25,1 km/h (4 Bft) 100 %
20.03.2017 20:14 10,9 C 78 % 1004,9 hPa 0,0 l/m 4,6 km/h (1 Bft) W-SW 243 7,2 C 9,4 km/h (2 Bft) 100 %
20.03.2017 20:15 10,9 C 78 % 1004,9 hPa 0,0 l/m 7,2 km/h (2 Bft) S-SO 155 7,2 C 12,6 km/h (3 Bft) 100 %
20.03.2017 20:16 10,9 C 78 % 1004,9 hPa 0,0 l/m 3,8 km/h (1 Bft) S-SW 210 7,2 C 18,8 km/h (3 Bft) 100 %
20.03.2017 20:17 10,9 C 78 % 1004,9 hPa 0,0 l/m 8,1 km/h (2 Bft) SW 222 7,2 C 15,7 km/h (3 Bft) 100 %
20.03.2017 20:18 10,9 C 78 % 1004,9 hPa 0,0 l/m 7,8 km/h (2 Bft) SW 229 7,2 C 28,2 km/h (4 Bft) 100 %
20.03.2017 20:19 10,9 C 78 % 1004,9 hPa 0,0 l/m 9,3 km/h (2 Bft) W-NW 303 7,2 C 18,8 km/h (3 Bft) 100 %
20.03.2017 20:20 10,9 C 78 % 1004,9 hPa 0,0 l/m 8,5 km/h (2 Bft) S-SO 166 7,2 C 18,8 km/h (3 Bft) 100 %
20.03.2017 20:21 10,9 C 78 % 1004,8 hPa 0,0 l/m 3,8 km/h (1 Bft) SW 214 7,2 C 18,8 km/h (3 Bft) 100 %
20.03.2017 20:22 10,9 C 78 % 1004,9 hPa 0,0 l/m 9,7 km/h (2 Bft) W 261 7,2 C 31,4 km/h (5 Bft) 100 %
20.03.2017 20:23 10,9 C 78 % 1004,9 hPa 0,0 l/m 3,3 km/h (1 Bft) SW 231 7,2 C 9,4 km/h (2 Bft) 100 %
20.03.2017 20:24 10,9 C 78 % 1004,8 hPa 0,0 l/m 1,3 km/h (1 Bft) W-SW 250 7,2 C 6,3 km/h (2 Bft) 100 %
20.03.2017 20:25 10,9 C 78 % 1004,7 hPa 0,0 l/m 1,8 km/h (1 Bft) W-SW 246 7,2 C 6,3 km/h (2 Bft) 100 %
20.03.2017 20:26 10,9 C 78 % 1004,7 hPa 0,0 l/m 1,2 km/h (1 Bft) S-SW 212 7,2 C 6,3 km/h (2 Bft) 100 %
20.03.2017 20:27 10,8 C 78 % 1004,8 hPa 0,0 l/m 5,4 km/h (1 Bft) W 268 7,1 C 15,7 km/h (3 Bft) 100 %
20.03.2017 20:28 10,8 C 78 % 1004,7 hPa 0,0 l/m 6,1 km/h (2 Bft) W 276 7,1 C 15,7 km/h (3 Bft) 100 %
20.03.2017 20:29 10,8 C 78 % 1004,7 hPa 0,0 l/m 6,9 km/h (2 Bft) SW 214 7,1 C 15,7 km/h (3 Bft) 100 %
20.03.2017 20:30 10,8 C 78 % 1004,7 hPa 0,0 l/m 5,6 km/h (1 Bft) S-SO 155 7,1 C 9,4 km/h (2 Bft) 100 %
20.03.2017 20:31 10,8 C 78 % 1004,7 hPa 0,0 l/m 8,0 km/h (2 Bft) W 259 7,1 C 18,8 km/h (3 Bft) 100 %
20.03.2017 20:32 10,8 C 78 % 1004,7 hPa 0,0 l/m 8,6 km/h (2 Bft) W-SW 250 7,1 C 22,0 km/h (4 Bft) 100 %
20.03.2017 20:33 10,8 C 78 % 1004,7 hPa 0,0 l/m 1,3 km/h (1 Bft) S 176 7,1 C 6,3 km/h (2 Bft) 100 %
20.03.2017 20:34 10,8 C 79 % 1004,7 hPa 0,0 l/m 4,4 km/h (1 Bft) N-NO 31 7,3 C 9,4 km/h (2 Bft) 100 %
20.03.2017 20:35 10,8 C 79 % 1004,8 hPa 0,0 l/m 3,6 km/h (1 Bft) S 170 7,3 C 15,7 km/h (3 Bft) 100 %
20.03.2017 20:36 10,7 C 79 % 1004,8 hPa 0,0 l/m 9,7 km/h (2 Bft) S-SW 208 7,2 C 22,0 km/h (4 Bft) 100 %
20.03.2017 20:37 10,7 C 79 % 1004,7 hPa 0,0 l/m 7,2 km/h (2 Bft) SW 223 7,2 C 18,8 km/h (3 Bft) 100 %
20.03.2017 20:38 10,7 C 79 % 1004,7 hPa 0,0 l/m 3,1 km/h (1 Bft) W-SW 255 7,2 C 6,3 km/h (2 Bft) 100 %
20.03.2017 20:39 10,7 C 79 % 1004,8 hPa 0,0 l/m 11,0 km/h (2 Bft) SW 236 7,2 C 18,8 km/h (3 Bft) 100 %
20.03.2017 20:40 10,7 C 79 % 1004,8 hPa 0,0 l/m 7,2 km/h (2 Bft) S 174 7,2 C 12,6 km/h (3 Bft) 100 %
20.03.2017 20:41 10,7 C 79 % 1004,8 hPa 0,0 l/m 3,1 km/h (1 Bft) SW 229 7,2 C 9,4 km/h (2 Bft) 100 %
20.03.2017 20:42 10,7 C 79 % 1004,9 hPa 0,0 l/m 3,1 km/h (1 Bft) W-SW 237 7,2 C 9,4 km/h (2 Bft) 100 %
20.03.2017 20:43 10,7 C 79 % 1004,9 hPa 0,0 l/m 4,5 km/h (1 Bft) NW 326 7,2 C 15,7 km/h (3 Bft) 100 %
20.03.2017 20:44 10,7 C 79 % 1005,0 hPa 0,0 l/m 12,6 km/h (3 Bft) SW 229 7,2 C 18,8 km/h (3 Bft) 100 %
20.03.2017 20:45 10,7 C 79 % 1004,9 hPa 0,0 l/m 7,1 km/h (2 Bft) W 269 7,2 C 15,7 km/h (3 Bft) 100 %
20.03.2017 20:46 10,7 C 79 % 1004,9 hPa 0,0 l/m 4,6 km/h (1 Bft) S-SW 212 7,2 C 9,4 km/h (2 Bft) 100 %
20.03.2017 20:47 10,7 C 79 % 1004,9 hPa 0,0 l/m 3,4 km/h (1 Bft) W 276 7,2 C 9,4 km/h (2 Bft) 100 %
20.03.2017 20:48 10,7 C 79 % 1004,9 hPa 0,0 l/m 6,0 km/h (2 Bft) N-NW 334 7,2 C 12,6 km/h (3 Bft) 100 %
20.03.2017 20:49 10,6 C 79 % 1004,9 hPa 0,0 l/m 5,8 km/h (2 Bft) NW 321 7,1 C 15,7 km/h (3 Bft) 100 %
20.03.2017 20:50 10,6 C 79 % 1004,9 hPa 0,0 l/m 8,9 km/h (2 Bft) SW 236 7,1 C 22,0 km/h (4 Bft) 100 %
20.03.2017 20:51 10,6 C 79 % 1004,9 hPa 0,0 l/m 9,6 km/h (2 Bft) SW 214 7,1 C 12,6 km/h (3 Bft) 100 %
20.03.2017 20:52 10,6 C 79 % 1005,0 hPa 0,0 l/m 15,5 km/h (3 Bft) W-SW 257 7,1 C 28,2 km/h (4 Bft) 100 %
20.03.2017 20:53 10,6 C 79 % 1005,0 hPa 0,0 l/m 11,5 km/h (2 Bft) SW 221 7,1 C 22,0 km/h (4 Bft) 100 %
20.03.2017 20:54 10,7 C 79 % 1005,0 hPa 0,0 l/m 13,9 km/h (3 Bft) SW 232 7,2 C 25,1 km/h (4 Bft) 100 %
20.03.2017 20:55 10,7 C 79 % 1004,9 hPa 0,0 l/m 11,1 km/h (2 Bft) W-NW 288 7,2 C 18,8 km/h (3 Bft) 100 %
20.03.2017 20:56 10,7 C 79 % 1005,0 hPa 0,0 l/m 5,4 km/h (1 Bft) NW 309 7,2 C 15,7 km/h (3 Bft) 100 %
20.03.2017 20:57 10,7 C 79 % 1005,0 hPa 0,0 l/m 6,8 km/h (2 Bft) W-NW 298 7,2 C 15,7 km/h (3 Bft) 100 %
20.03.2017 20:58 10,7 C 79 % 1005,0 hPa 0,0 l/m 4,0 km/h (1 Bft) NW 325 7,2 C 9,4 km/h (2 Bft) 100 %
20.03.2017 20:59 10,7 C 79 % 1005,0 hPa 0,0 l/m 1,1 km/h (1 Bft) W-SW 247 7,2 C 3,1 km/h (1 Bft) 100 %
20.03.2017 21:00 10,6 C 79 % 1005,1 hPa 0,0 l/m 2,3 km/h (1 Bft) SW 219 7,1 C 12,6 km/h (3 Bft) 100 %
20.03.2017 21:01 10,6 C 79 % 1005,1 hPa 0,0 l/m 5,1 km/h (1 Bft) NW 317 7,1 C 12,6 km/h (3 Bft) 100 %
20.03.2017 21:02 10,6 C 79 % 1005,0 hPa 0,0 l/m 8,7 km/h (2 Bft) SW 219 7,1 C 15,7 km/h (3 Bft) 100 %
20.03.2017 21:03 10,6 C 80 % 1005,0 hPa 0,0 l/m 3,0 km/h (1 Bft) S-SW 195 7,3 C 6,3 km/h (2 Bft) 100 %
20.03.2017 21:04 10,6 C 80 % 1005,0 hPa 0,0 l/m 3,6 km/h (1 Bft) SW 221 7,3 C 12,6 km/h (3 Bft) 100 %
20.03.2017 21:05 10,6 C 80 % 1005,1 hPa 0,0 l/m 4,4 km/h (1 Bft) W-SW 257 7,3 C 9,4 km/h (2 Bft) 100 %
20.03.2017 21:06 10,6 C 80 % 1005,1 hPa 0,0 l/m 6,3 km/h (2 Bft) SW 217 7,3 C 12,6 km/h (3 Bft) 100 %
20.03.2017 21:07 10,5 C 80 % 1005,1 hPa 0,0 l/m 5,8 km/h (2 Bft) W 262 7,2 C 9,4 km/h (2 Bft) 100 %
20.03.2017 21:08 10,5 C 80 % 1005,1 hPa 0,0 l/m 11,3 km/h (2 Bft) W 276 7,2 C 18,8 km/h (3 Bft) 100 %
20.03.2017 21:09 10,5 C 80 % 1005,1 hPa 0,0 l/m 4,3 km/h (1 Bft) W-SW 256 7,2 C 9,4 km/h (2 Bft) 96 %
20.03.2017 21:10 10,5 C 80 % 1005,1 hPa 0,0 l/m 3,9 km/h (1 Bft) O-SO 102 7,2 C 6,3 km/h (2 Bft) 100 %
20.03.2017 21:11 10,5 C 80 % 1005,1 hPa 0,0 l/m 10,9 km/h (2 Bft) SO 129 7,2 C 22,0 km/h (4 Bft) 96 %
20.03.2017 21:12 10,5 C 80 % 1005,1 hPa 0,0 l/m 9,6 km/h (2 Bft) W-NW 284 7,2 C 18,8 km/h (3 Bft) 100 %
20.03.2017 21:13 10,5 C 80 % 1005,1 hPa 0,0 l/m 13,3 km/h (3 Bft) W 265 7,2 C 25,1 km/h (4 Bft) 100 %
20.03.2017 21:14 10,5 C 80 % 1005,2 hPa 0,0 l/m 10,2 km/h (2 Bft) W-SW 252 7,2 C 18,8 km/h (3 Bft) 100 %
20.03.2017 21:15 10,5 C 80 % 1005,2 hPa 0,0 l/m 9,3 km/h (2 Bft) W-SW 240 7,2 C 15,7 km/h (3 Bft) 100 %
20.03.2017 21:16 10,4 C 80 % 1005,1 hPa 0,0 l/m 14,9 km/h (3 Bft) SW 231 7,1 C 28,2 km/h (4 Bft) 100 %
20.03.2017 21:17 10,4 C 80 % 1005,1 hPa 0,0 l/m 16,0 km/h (3 Bft) NW 314 7,1 C 31,4 km/h (5 Bft) 96 %
20.03.2017 21:18 10,5 C 80 % 1005,1 hPa 0,0 l/m 9,3 km/h (2 Bft) N-NW 333 7,2 C 12,6 km/h (3 Bft) 100 %
20.03.2017 21:19 10,4 C 81 % 1005,1 hPa 0,0 l/m 6,8 km/h (2 Bft) SW 227 7,3 C 18,8 km/h (3 Bft) 96 %
20.03.2017 21:20 10,4 C 81 % 1005,1 hPa 0,0 l/m 6,0 km/h (2 Bft) NW 323 7,3 C 18,8 km/h (3 Bft) 100 %
20.03.2017 21:21 10,4 C 81 % 1005,0 hPa 0,0 l/m 12,1 km/h (2 Bft) W-SW 252 7,3 C 25,1 km/h (4 Bft) 96 %
20.03.2017 21:22 10,4 C 81 % 1005,1 hPa 0,0 l/m 11,5 km/h (2 Bft) W 274 7,3 C 18,8 km/h (3 Bft) 100 %
20.03.2017 21:23 10,4 C 81 % 1005,1 hPa 0,0 l/m 14,4 km/h (3 Bft) SW 217 7,3 C 31,4 km/h (5 Bft) 96 %
20.03.2017 21:24 10,4 C 81 % 1005,1 hPa 0,0 l/m 10,9 km/h (2 Bft) SW 233 7,3 C 28,2 km/h (4 Bft) 96 %
20.03.2017 21:25 10,4 C 81 % 1005,0 hPa 0,0 l/m 11,1 km/h (2 Bft) S-SO 165 7,3 C 25,1 km/h (4 Bft) 100 %
20.03.2017 21:26 10,4 C 81 % 1005,0 hPa 0,0 l/m 8,1 km/h (2 Bft) NW 316 7,3 C 12,6 km/h (3 Bft) 96 %
20.03.2017 21:27 10,4 C 81 % 1005,0 hPa 0,0 l/m 12,3 km/h (3 Bft) W 265 7,3 C 28,2 km/h (4 Bft) 100 %
20.03.2017 21:28 10,3 C 81 % 1004,9 hPa 0,0 l/m 11,9 km/h (2 Bft) S-SW 210 7,2 C 25,1 km/h (4 Bft) 96 %
20.03.2017 21:29 10,3 C 81 % 1005,0 hPa 0,0 l/m 11,1 km/h (2 Bft) W-SW 245 7,2 C 18,8 km/h (3 Bft) 100 %
20.03.2017 21:30 10,3 C 81 % 1004,9 hPa 0,0 l/m 8,8 km/h (2 Bft) W 269 7,2 C 25,1 km/h (4 Bft) 100 %
20.03.2017 21:31 10,3 C 81 % 1005,0 hPa 0,0 l/m 3,9 km/h (1 Bft) W 265 7,2 C 6,3 km/h (2 Bft) 100 %
20.03.2017 21:32 10,3 C 81 % 1005,0 hPa 0,0 l/m 6,1 km/h (2 Bft) SW 233 7,2 C 12,6 km/h (3 Bft) 100 %
20.03.2017 21:33 10,3 C 81 % 1005,0 hPa 0,0 l/m 5,2 km/h (1 Bft) W-SW 244 7,2 C 9,4 km/h (2 Bft) 100 %
20.03.2017 21:34 10,3 C 81 % 1004,9 hPa 0,0 l/m 8,8 km/h (2 Bft) S 182 7,2 C 12,6 km/h (3 Bft) 100 %
20.03.2017 21:35 10,3 C 81 % 1004,9 hPa 0,0 l/m 7,6 km/h (2 Bft) S 186 7,2 C 18,8 km/h (3 Bft) 100 %
20.03.2017 21:36 10,3 C 81 % 1004,9 hPa 0,0 l/m 11,6 km/h (2 Bft) SW 218 7,2 C 25,1 km/h (4 Bft) 100 %
20.03.2017 21:37 10,3 C 81 % 1004,9 hPa 0,0 l/m 16,4 km/h (3 Bft) S-SW 193 7,2 C 34,5 km/h (5 Bft) 100 %
20.03.2017 21:38 10,3 C 81 % 1004,9 hPa 0,0 l/m 15,9 km/h (3 Bft) W-NW 300 7,2 C 25,1 km/h (4 Bft) 100 %
20.03.2017 21:39 10,3 C 81 % 1004,9 hPa 0,0 l/m 13,2 km/h (3 Bft) S-SW 210 7,2 C 18,8 km/h (3 Bft) 100 %
20.03.2017 21:40 10,3 C 81 % 1004,9 hPa 0,0 l/m 15,7 km/h (3 Bft) W-NW 287 7,2 C 22,0 km/h (4 Bft) 100 %
20.03.2017 21:41 10,2 C 82 % 1004,9 hPa 0,0 l/m 17,7 km/h (3 Bft) W 266 7,3 C 31,4 km/h (5 Bft) 100 %
20.03.2017 21:42 10,2 C 82 % 1004,9 hPa 0,0 l/m 21,3 km/h (4 Bft) SW 227 7,3 C 40,8 km/h (6 Bft) 100 %
20.03.2017 21:43 10,2 C 82 % 1004,9 hPa 0,0 l/m 17,4 km/h (3 Bft) W-SW 257 7,3 C 34,5 km/h (5 Bft) 100 %
20.03.2017 21:44 10,2 C 82 % 1004,9 hPa 0,0 l/m 12,6 km/h (3 Bft) W-NW 282 7,3 C 22,0 km/h (4 Bft) 100 %
20.03.2017 21:45 10,2 C 82 % 1004,9 hPa 0,0 l/m 6,5 km/h (2 Bft) NW 311 7,3 C 12,6 km/h (3 Bft) 100 %
20.03.2017 21:46 10,2 C 82 % 1004,9 hPa 0,0 l/m 13,1 km/h (3 Bft) W-SW 250 7,3 C 22,0 km/h (4 Bft) 100 %
20.03.2017 21:47 10,1 C 82 % 1004,9 hPa 0,0 l/m 14,9 km/h (3 Bft) W-NW 283 7,2 C 37,7 km/h (5 Bft) 100 %
20.03.2017 21:48 10,1 C 82 % 1005,0 hPa 0,0 l/m 7,8 km/h (2 Bft) S 186 7,2 C 12,6 km/h (3 Bft) 100 %
20.03.2017 21:49 10,1 C 82 % 1005,0 hPa 0,0 l/m 14,1 km/h (3 Bft) NW 324 7,2 C 25,1 km/h (4 Bft) 100 %
20.03.2017 21:50 10,1 C 82 % 1005,0 hPa 0,0 l/m 9,3 km/h (2 Bft) W-NW 283 7,2 C 18,8 km/h (3 Bft) 100 %
20.03.2017 21:51 10,1 C 82 % 1004,9 hPa 0,0 l/m 9,7 km/h (2 Bft) NW 310 7,2 C 15,7 km/h (3 Bft) 100 %
20.03.2017 21:52 10,1 C 82 % 1005,0 hPa 0,0 l/m 12,7 km/h (3 Bft) W-SW 252 7,2 C 15,7 km/h (3 Bft) 100 %
20.03.2017 21:53 10,1 C 82 % 1005,0 hPa 0,0 l/m 4,6 km/h (1 Bft) NW 305 7,2 C 9,4 km/h (2 Bft) 100 %
20.03.2017 21:54 10,1 C 82 % 1005,0 hPa 0,0 l/m 15,4 km/h (3 Bft) SW 217 7,2 C 28,2 km/h (4 Bft) 100 %
20.03.2017 21:55 10,0 C 82 % 1005,0 hPa 0,0 l/m 13,0 km/h (3 Bft) W 270 7,1 C 18,8 km/h (3 Bft) 100 %
20.03.2017 21:56 10,0 C 82 % 1005,1 hPa 0,0 l/m 11,9 km/h (2 Bft) SW 231 7,1 C 28,2 km/h (4 Bft) 100 %
20.03.2017 21:57 10,0 C 82 % 1005,0 hPa 0,0 l/m 16,6 km/h (3 Bft) W 280 7,1 C 28,2 km/h (4 Bft) 100 %
20.03.2017 21:58 10,0 C 83 % 1004,9 hPa 0,0 l/m 9,2 km/h (2 Bft) W-NW 286 7,2 C 12,6 km/h (3 Bft) 100 %
20.03.2017 21:59 9,9 C 83 % 1005,0 hPa 0,0 l/m 4,2 km/h (1 Bft) W-NW 297 7,2 C 9,4 km/h (2 Bft) 100 %
20.03.2017 22:00 9,9 C 83 % 1005,0 hPa 0,0 l/m 0,9 km/h (0 Bft) SW 218 7,2 C 6,3 km/h (2 Bft) 100 %
20.03.2017 22:01 9,9 C 83 % 1004,9 hPa 0,0 l/m 3,3 km/h (1 Bft) W-NW 295 7,2 C 15,7 km/h (3 Bft) 93 %
20.03.2017 22:02 9,9 C 83 % 1004,9 hPa 0,0 l/m 12,7 km/h (3 Bft) W-NW 283 7,2 C 28,2 km/h (4 Bft) 100 %
20.03.2017 22:03 9,9 C 83 % 1004,9 hPa 0,0 l/m 6,9 km/h (2 Bft) W-NW 298 7,2 C 12,6 km/h (3 Bft) 100 %
20.03.2017 22:04 9,8 C 83 % 1004,9 hPa 0,0 l/m 4,8 km/h (1 Bft) W 280 7,1 C 9,4 km/h (2 Bft) 100 %
20.03.2017 22:05 9,8 C 83 % 1004,9 hPa 0,0 l/m 7,1 km/h (2 Bft) W-NW 283 7,1 C 15,7 km/h (3 Bft) 100 %
20.03.2017 22:06 9,8 C 83 % 1004,8 hPa 0,0 l/m 5,9 km/h (2 Bft) W-SW 242 7,1 C 18,8 km/h (3 Bft) 100 %
20.03.2017 22:07 9,8 C 83 % 1004,8 hPa 0,0 l/m 10,7 km/h (2 Bft) W 276 7,1 C 22,0 km/h (4 Bft) 100 %
20.03.2017 22:08 9,8 C 82 % 1004,8 hPa 0,0 l/m 14,3 km/h (3 Bft) W-SW 241 6,9 C 25,1 km/h (4 Bft) 100 %
20.03.2017 22:09 9,8 C 82 % 1004,8 hPa 0,0 l/m 9,9 km/h (2 Bft) NW 306 6,9 C 25,1 km/h (4 Bft) 100 %
20.03.2017 22:10 9,8 C 82 % 1004,8 hPa 0,0 l/m 5,0 km/h (1 Bft) SW 234 6,9 C 9,4 km/h (2 Bft) 100 %
20.03.2017 22:11 9,8 C 82 % 1004,7 hPa 0,0 l/m 10,3 km/h (2 Bft) W 266 6,9 C 15,7 km/h (3 Bft) 100 %
20.03.2017 22:12 9,9 C 82 % 1004,7 hPa 0,0 l/m 1,6 km/h (1 Bft) S-SW 208 7,0 C 12,6 km/h (3 Bft) 100 %
20.03.2017 22:13 9,9 C 82 % 1004,7 hPa 0,0 l/m 4,9 km/h (1 Bft) N-NO 16 7,0 C 9,4 km/h (2 Bft) 100 %
20.03.2017 22:14 9,8 C 82 % 1004,8 hPa 0,0 l/m 10,0 km/h (2 Bft) S-SW 210 6,9 C 18,8 km/h (3 Bft) 100 %
20.03.2017 22:15 9,8 C 82 % 1004,8 hPa 0,0 l/m 11,2 km/h (2 Bft) SW 220 6,9 C 22,0 km/h (4 Bft) 100 %
20.03.2017 22:16 9,9 C 82 % 1004,8 hPa 0,0 l/m 7,2 km/h (2 Bft) W 266 7,0 C 12,6 km/h (3 Bft) 100 %
20.03.2017 22:17 9,9 C 82 % 1004,8 hPa 0,0 l/m 4,3 km/h (1 Bft) W 266 7,0 C 12,6 km/h (3 Bft) 100 %
20.03.2017 22:18 9,8 C 81 % 1004,8 hPa 0,0 l/m 7,1 km/h (2 Bft) W-SW 250 6,7 C 18,8 km/h (3 Bft) 100 %
20.03.2017 22:19 9,8 C 82 % 1004,8 hPa 0,0 l/m 5,8 km/h (2 Bft) S-SW 193 6,9 C 12,6 km/h (3 Bft) 93 %
20.03.2017 22:20 9,9 C 81 % 1004,8 hPa 0,0 l/m 8,8 km/h (2 Bft) S-SW 198 6,8 C 15,7 km/h (3 Bft) 100 %
20.03.2017 22:21 9,9 C 81 % 1004,8 hPa 0,0 l/m 7,5 km/h (2 Bft) S-SW 198 6,8 C 12,6 km/h (3 Bft) 100 %
20.03.2017 22:22 9,8 C 81 % 1004,8 hPa 0,0 l/m 10,5 km/h (2 Bft) S 176 6,7 C 18,8 km/h (3 Bft) 100 %
20.03.2017 22:24 9,9 C 81 % 1004,8 hPa 0,0 l/m 6,4 km/h (2 Bft) SW 218 6,8 C 28,2 km/h (4 Bft) 100 %
20.03.2017 22:25 9,9 C 81 % 1004,8 hPa 0,0 l/m 3,9 km/h (1 Bft) SW 233 6,8 C 9,4 km/h (2 Bft) 100 %
20.03.2017 22:26 9,9 C 81 % 1004,8 hPa 0,0 l/m 6,1 km/h (2 Bft) W-SW 237 6,8 C 15,7 km/h (3 Bft) 100 %
20.03.2017 22:27 9,9 C 81 % 1004,7 hPa 0,0 l/m 5,9 km/h (2 Bft) SW 216 6,8 C 12,6 km/h (3 Bft) 100 %
20.03.2017 22:28 9,9 C 81 % 1004,7 hPa 0,0 l/m 2,3 km/h (1 Bft) W-NW 284 6,8 C 9,4 km/h (2 Bft) 100 %
20.03.2017 22:29 9,9 C 81 % 1004,7 hPa 0,0 l/m 7,2 km/h (2 Bft) SW 228 6,8 C 15,7 km/h (3 Bft) 100 %
20.03.2017 22:30 9,9 C 81 % 1004,7 hPa 0,0 l/m 2,0 km/h (1 Bft) W-SW 243 6,8 C 15,7 km/h (3 Bft) 100 %
20.03.2017 22:31 9,9 C 82 % 1004,8 hPa 0,0 l/m 8,6 km/h (2 Bft) W-NW 288 7,0 C 18,8 km/h (3 Bft) 100 %
20.03.2017 22:32 9,8 C 82 % 1004,8 hPa 0,0 l/m 5,6 km/h (1 Bft) W-NW 297 6,9 C 15,7 km/h (3 Bft) 100 %
20.03.2017 22:33 9,8 C 82 % 1004,8 hPa 0,0 l/m 6,3 km/h (2 Bft) W-NW 300 6,9 C 9,4 km/h (2 Bft) 92 %
20.03.2017 22:34 9,8 C 82 % 1004,8 hPa 0,0 l/m 8,8 km/h (2 Bft) W-NW 302 6,9 C 15,7 km/h (3 Bft) 100 %
20.03.2017 22:35 9,8 C 83 % 1004,8 hPa 0,0 l/m 3,8 km/h (1 Bft) S-SO 160 7,1 C 12,6 km/h (3 Bft) 92 %
20.03.2017 22:36 9,8 C 83 % 1004,7 hPa 0,0 l/m 9,1 km/h (2 Bft) SW 221 7,1 C 18,8 km/h (3 Bft) 100 %
20.03.2017 22:37 9,8 C 83 % 1004,7 hPa 0,0 l/m 9,4 km/h (2 Bft) NW 309 7,1 C 15,7 km/h (3 Bft) 100 %
20.03.2017 22:38 9,8 C 83 % 1004,6 hPa 0,0 l/m 6,0 km/h (2 Bft) W-SW 255 7,1 C 12,6 km/h (3 Bft) 96 %
20.03.2017 22:39 9,7 C 83 % 1004,6 hPa 0,0 l/m 6,5 km/h (2 Bft) NW 318 7,0 C 12,6 km/h (3 Bft) 96 %
20.03.2017 22:40 9,7 C 83 % 1004,7 hPa 0,0 l/m 5,7 km/h (1 Bft) SW 220 7,0 C 18,8 km/h (3 Bft) 100 %
20.03.2017 22:41 9,7 C 83 % 1004,7 hPa 0,0 l/m 9,1 km/h (2 Bft) SW 234 7,0 C 22,0 km/h (4 Bft) 97 %
20.03.2017 22:42 9,7 C 83 % 1004,7 hPa 0,0 l/m 9,4 km/h (2 Bft) SW 219 7,0 C 15,7 km/h (3 Bft) 100 %
20.03.2017 22:43 9,7 C 83 % 1004,8 hPa 0,0 l/m 9,9 km/h (2 Bft) W-SW 240 7,0 C 15,7 km/h (3 Bft) 96 %
20.03.2017 22:44 9,7 C 83 % 1004,8 hPa 0,0 l/m 10,9 km/h (2 Bft) S-SW 208 7,0 C 18,8 km/h (3 Bft) 100 %
20.03.2017 22:45 9,7 C 83 % 1004,7 hPa 0,0 l/m 11,3 km/h (2 Bft) W-SW 245 7,0 C 18,8 km/h (3 Bft) 92 %
20.03.2017 22:46 9,7 C 83 % 1004,8 hPa 0,0 l/m 6,8 km/h (2 Bft) SW 224 7,0 C 18,8 km/h (3 Bft) 100 %
20.03.2017 22:47 9,7 C 83 % 1004,8 hPa 0,0 l/m 5,5 km/h (1 Bft) NW 305 7,0 C 15,7 km/h (3 Bft) 96 %
20.03.2017 22:48 9,6 C 83 % 1004,8 hPa 0,0 l/m 6,7 km/h (2 Bft) W 277 6,9 C 9,4 km/h (2 Bft) 100 %
20.03.2017 22:49 9,6 C 83 % 1004,7 hPa 0,0 l/m 7,2 km/h (2 Bft) S-SW 199 6,9 C 12,6 km/h (3 Bft) 97 %
20.03.2017 22:50 9,6 C 83 % 1004,7 hPa 0,0 l/m 8,0 km/h (2 Bft) S-SW 195 6,9 C 12,6 km/h (3 Bft) 97 %
20.03.2017 22:51 9,6 C 83 % 1004,7 hPa 0,0 l/m 2,7 km/h (1 Bft) W 269 6,9 C 12,6 km/h (3 Bft) 100 %
20.03.2017 22:52 9,6 C 83 % 1004,7 hPa 0,0 l/m 4,1 km/h (1 Bft) W 274 6,9 C 9,4 km/h (2 Bft) 100 %
20.03.2017 22:53 9,6 C 83 % 1004,6 hPa 0,0 l/m 8,9 km/h (2 Bft) S 188 6,9 C 18,8 km/h (3 Bft) 100 %
20.03.2017 22:54 9,6 C 83 % 1004,6 hPa 0,0 l/m 9,7 km/h (2 Bft) S-SW 212 6,9 C 12,6 km/h (3 Bft) 100 %
20.03.2017 22:55 9,6 C 83 % 1004,6 hPa 0,0 l/m 10,2 km/h (2 Bft) W-SW 240 6,9 C 15,7 km/h (3 Bft) 100 %
20.03.2017 22:56 9,5 C 83 % 1004,6 hPa 0,0 l/m 5,5 km/h (1 Bft) W-SW 257 6,8 C 12,6 km/h (3 Bft) 100 %
20.03.2017 22:57 9,5 C 83 % 1004,6 hPa 0,0 l/m 5,1 km/h (1 Bft) W-NW 288 6,8 C 15,7 km/h (3 Bft) 100 %
20.03.2017 22:58 9,5 C 83 % 1004,5 hPa 0,0 l/m 9,5 km/h (2 Bft) N-NW 333 6,8 C 18,8 km/h (3 Bft) 100 %
20.03.2017 22:59 9,5 C 83 % 1004,5 hPa 0,0 l/m 5,2 km/h (1 Bft) NW 310 6,8 C 12,6 km/h (3 Bft) 100 %
20.03.2017 23:00 9,5 C 83 % 1004,6 hPa 0,0 l/m 9,9 km/h (2 Bft) SW 230 6,8 C 15,7 km/h (3 Bft) 100 %
20.03.2017 23:01 9,5 C 83 % 1004,6 hPa 0,0 l/m 11,7 km/h (2 Bft) S 188 6,8 C 22,0 km/h (4 Bft) 100 %
20.03.2017 23:02 9,5 C 83 % 1004,6 hPa 0,0 l/m 10,4 km/h (2 Bft) W-NW 288 6,8 C 18,8 km/h (3 Bft) 100 %
20.03.2017 23:03 9,5 C 83 % 1004,6 hPa 0,0 l/m 10,2 km/h (2 Bft) W 276 6,8 C 18,8 km/h (3 Bft) 100 %
20.03.2017 23:04 9,5 C 83 % 1004,5 hPa 0,0 l/m 7,9 km/h (2 Bft) SW 227 6,8 C 15,7 km/h (3 Bft) 100 %
20.03.2017 23:05 9,4 C 83 % 1004,5 hPa 0,0 l/m 5,3 km/h (1 Bft) S-SW 200 6,7 C 18,8 km/h (3 Bft) 100 %
20.03.2017 23:06 9,4 C 83 % 1004,6 hPa 0,0 l/m 8,6 km/h (2 Bft) W 266 6,7 C 18,8 km/h (3 Bft) 100 %
20.03.2017 23:07 9,4 C 83 % 1004,6 hPa 0,0 l/m 11,6 km/h (2 Bft) S-SW 209 6,7 C 22,0 km/h (4 Bft) 100 %
20.03.2017 23:08 9,4 C 83 % 1004,6 hPa 0,0 l/m 7,1 km/h (2 Bft) W 281 6,7 C 15,7 km/h (3 Bft) 100 %
20.03.2017 23:09 9,4 C 83 % 1004,6 hPa 0,0 l/m 10,5 km/h (2 Bft) S-SW 193 6,7 C 22,0 km/h (4 Bft) 100 %
20.03.2017 23:10 9,4 C 83 % 1004,6 hPa 0,0 l/m 12,4 km/h (3 Bft) SW 229 6,7 C 25,1 km/h (4 Bft) 100 %
20.03.2017 23:11 9,4 C 83 % 1004,6 hPa 0,0 l/m 8,8 km/h (2 Bft) S-SO 158 6,7 C 18,8 km/h (3 Bft) 100 %
20.03.2017 23:12 9,4 C 83 % 1004,6 hPa 0,0 l/m 8,2 km/h (2 Bft) W-NW 297 6,7 C 12,6 km/h (3 Bft) 100 %
20.03.2017 23:13 9,4 C 83 % 1004,6 hPa 0,0 l/m 8,5 km/h (2 Bft) SO 143 6,7 C 12,6 km/h (3 Bft) 100 %
20.03.2017 23:14 9,4 C 83 % 1004,6 hPa 0,0 l/m 10,3 km/h (2 Bft) S-SW 192 6,7 C 18,8 km/h (3 Bft) 100 %
20.03.2017 23:15 9,4 C 83 % 1004,6 hPa 0,0 l/m 5,5 km/h (1 Bft) SW 226 6,7 C 15,7 km/h (3 Bft) 100 %
20.03.2017 23:16 9,4 C 83 % 1004,6 hPa 0,0 l/m 9,4 km/h (2 Bft) W 259 6,7 C 22,0 km/h (4 Bft) 100 %
20.03.2017 23:17 9,4 C 83 % 1004,6 hPa 0,0 l/m 10,7 km/h (2 Bft) W 278 6,7 C 18,8 km/h (3 Bft) 100 %
20.03.2017 23:18 9,4 C 83 % 1004,6 hPa 0,0 l/m 2,0 km/h (1 Bft) W-NW 302 6,7 C 9,4 km/h (2 Bft) 100 %
20.03.2017 23:19 9,4 C 83 % 1004,6 hPa 0,0 l/m 4,4 km/h (1 Bft) W-NW 290 6,7 C 12,6 km/h (3 Bft) 100 %
20.03.2017 23:20 9,4 C 83 % 1004,6 hPa 0,0 l/m 8,1 km/h (2 Bft) W-SW 246 6,7 C 18,8 km/h (3 Bft) 100 %
20.03.2017 23:21 9,4 C 83 % 1004,6 hPa 0,0 l/m 6,7 km/h (2 Bft) S 187 6,7 C 18,8 km/h (3 Bft) 100 %
20.03.2017 23:22 9,4 C 83 % 1004,5 hPa 0,0 l/m 9,6 km/h (2 Bft) SW 219 6,7 C 15,7 km/h (3 Bft) 100 %
20.03.2017 23:23 9,4 C 83 % 1004,5 hPa 0,0 l/m 7,1 km/h (2 Bft) S-SW 199 6,7 C 15,7 km/h (3 Bft) 100 %
20.03.2017 23:24 9,4 C 83 % 1004,5 hPa 0,0 l/m 5,7 km/h (1 Bft) NW 314 6,7 C 12,6 km/h (3 Bft) 100 %
20.03.2017 23:25 9,4 C 83 % 1004,5 hPa 0,0 l/m 4,6 km/h (1 Bft) NW 316 6,7 C 12,6 km/h (3 Bft) 100 %
20.03.2017 23:26 9,4 C 83 % 1004,5 hPa 0,0 l/m 4,5 km/h (1 Bft) W 275 6,7 C 9,4 km/h (2 Bft) 100 %
20.03.2017 23:27 9,4 C 83 % 1004,5 hPa 0,0 l/m 5,5 km/h (1 Bft) S-SW 199 6,7 C 12,6 km/h (3 Bft) 100 %
20.03.2017 23:28 9,4 C 83 % 1004,6 hPa 0,0 l/m 6,3 km/h (2 Bft) S 190 6,7 C 9,4 km/h (2 Bft) 100 %
20.03.2017 23:29 9,5 C 83 % 1004,5 hPa 0,0 l/m 6,6 km/h (2 Bft) W 259 6,8 C 15,7 km/h (3 Bft) 100 %
20.03.2017 23:30 9,4 C 82 % 1004,6 hPa 0,0 l/m 11,1 km/h (2 Bft) W-NW 287 6,5 C 15,7 km/h (3 Bft) 100 %
20.03.2017 23:31 9,5 C 82 % 1004,6 hPa 0,0 l/m 12,6 km/h (3 Bft) S-SW 212 6,6 C 25,1 km/h (4 Bft) 100 %
20.03.2017 23:32 9,5 C 82 % 1004,6 hPa 0,0 l/m 12,2 km/h (2 Bft) SW 216 6,6 C 22,0 km/h (4 Bft) 100 %
20.03.2017 23:33 9,5 C 82 % 1004,6 hPa 0,0 l/m 16,5 km/h (3 Bft) S-SW 196 6,6 C 31,4 km/h (5 Bft) 100 %
20.03.2017 23:34 9,5 C 82 % 1004,6 hPa 0,0 l/m 11,7 km/h (2 Bft) W-SW 247 6,6 C 18,8 km/h (3 Bft) 100 %
20.03.2017 23:35 9,5 C 82 % 1004,5 hPa 0,0 l/m 10,1 km/h (2 Bft) S-SO 167 6,6 C 15,7 km/h (3 Bft) 100 %
20.03.2017 23:36 9,6 C 82 % 1004,6 hPa 0,0 l/m 11,6 km/h (2 Bft) W-SW 249 6,7 C 25,1 km/h (4 Bft) 100 %
20.03.2017 23:37 9,5 C 82 % 1004,6 hPa 0,0 l/m 6,4 km/h (2 Bft) W 268 6,6 C 15,7 km/h (3 Bft) 100 %
20.03.2017 23:38 9,6 C 82 % 1004,6 hPa 0,0 l/m 6,9 km/h (2 Bft) SW 221 6,7 C 15,7 km/h (3 Bft) 100 %
20.03.2017 23:39 9,6 C 82 % 1004,5 hPa 0,0 l/m 8,0 km/h (2 Bft) N-NW 332 6,7 C 15,7 km/h (3 Bft) 100 %
20.03.2017 23:40 9,6 C 82 % 1004,6 hPa 0,0 l/m 10,4 km/h (2 Bft) W-NW 297 6,7 C 18,8 km/h (3 Bft) 100 %
20.03.2017 23:41 9,6 C 82 % 1004,6 hPa 0,0 l/m 8,9 km/h (2 Bft) W-NW 296 6,7 C 25,1 km/h (4 Bft) 100 %
20.03.2017 23:42 9,6 C 82 % 1004,6 hPa 0,0 l/m 8,8 km/h (2 Bft) S 184 6,7 C 15,7 km/h (3 Bft) 100 %
20.03.2017 23:43 9,6 C 81 % 1004,5 hPa 0,0 l/m 6,3 km/h (2 Bft) W 274 6,5 C 15,7 km/h (3 Bft) 100 %
20.03.2017 23:44 9,6 C 82 % 1004,6 hPa 0,0 l/m 6,6 km/h (2 Bft) SW 219 6,7 C 12,6 km/h (3 Bft) 100 %
20.03.2017 23:45 9,6 C 82 % 1004,6 hPa 0,0 l/m 6,3 km/h (2 Bft) W 276 6,7 C 12,6 km/h (3 Bft) 100 %
20.03.2017 23:46 9,6 C 81 % 1004,6 hPa 0,0 l/m 7,2 km/h (2 Bft) W-SW 242 6,5 C 15,7 km/h (3 Bft) 100 %
20.03.2017 23:47 9,6 C 81 % 1004,6 hPa 0,0 l/m 4,6 km/h (1 Bft) S-SO 150 6,5 C 9,4 km/h (2 Bft) 100 %
20.03.2017 23:48 9,6 C 81 % 1004,6 hPa 0,0 l/m 9,2 km/h (2 Bft) S-SO 162 6,5 C 34,5 km/h (5 Bft) 100 %
20.03.2017 23:49 9,6 C 81 % 1004,6 hPa 0,0 l/m 7,8 km/h (2 Bft) SW 214 6,5 C 25,1 km/h (4 Bft) 100 %
20.03.2017 23:50 9,6 C 81 % 1004,6 hPa 0,0 l/m 8,0 km/h (2 Bft) N-NW 340 6,5 C 12,6 km/h (3 Bft) 100 %
20.03.2017 23:51 9,6 C 81 % 1004,5 hPa 0,0 l/m 11,0 km/h (2 Bft) S-SW 195 6,5 C 18,8 km/h (3 Bft) 100 %
20.03.2017 23:52 9,6 C 81 % 1004,5 hPa 0,0 l/m 11,5 km/h (2 Bft) W-NW 296 6,5 C 22,0 km/h (4 Bft) 100 %
20.03.2017 23:53 9,6 C 81 % 1004,5 hPa 0,0 l/m 14,6 km/h (3 Bft) W 274 6,5 C 28,2 km/h (4 Bft) 100 %
20.03.2017 23:54 9,6 C 81 % 1004,5 hPa 0,0 l/m 9,7 km/h (2 Bft) O 99 6,5 C 18,8 km/h (3 Bft) 100 %
20.03.2017 23:55 9,6 C 81 % 1004,4 hPa 0,0 l/m 3,9 km/h (1 Bft) SW 225 6,5 C 12,6 km/h (3 Bft) 100 %
20.03.2017 23:56 9,6 C 81 % 1004,5 hPa 0,0 l/m 4,4 km/h (1 Bft) SW 218 6,5 C 12,6 km/h (3 Bft) 100 %
20.03.2017 23:57 9,6 C 81 % 1004,5 hPa 0,0 l/m 7,4 km/h (2 Bft) W-SW 257 6,5 C 15,7 km/h (3 Bft) 100 %
20.03.2017 23:58 9,6 C 81 % 1004,5 hPa 0,0 l/m 10,2 km/h (2 Bft) W-SW 252 6,5 C 18,8 km/h (3 Bft) 100 %
20.03.2017 23:59 9,6 C 81 % 1004,5 hPa 0,0 l/m 8,9 km/h (2 Bft) S-SO 163 6,5 C 15,7 km/h (3 Bft) 100 %
_ Min-Zeit 03:14 16:23 18:56 - 05:38 - - 00:00 05:38 02:16
Minimum _ 8,2 C 71 % 1004,2 hPa - 0,0 km/h (0 Bft) - - 6,4 C 0,0 km/h (0 Bft) 92 %
_ Max-Zeit 16:16 01:50 07:15 00:00 15:37 - - 13:22 15:49 00:00
Maximum _ 13,2 C 94 % 1007,5 hPa 0,0 l/m 23,4 km/h
S-SW (4 Bft)
- - 9,1 C 47,1 km/h
SW (6 Bft)
100 %
Durchschnitt _ 10,3 C 84 % 1006,1 hPa #0,0 l/m 7,4 km/h (2 Bft) SW - 7,6 C 16,1 km/h (3 Bft) 99 %